<?xml version="1.0" encoding="UTF-8" standalone="no" ?>
<gpx xmlns="http://www.topografix.com/GPX/1/1" xmlns:xsi="http://www.w3.org/2001/XMLSchema-instance" xsi:schemaLocation="http://www.topografix.com/GPX/1/1 http://www.topografix.com/GPX/1/1/gpx.xsd" version="1.1" creator="VisuGPX - https://www.visugpx.com">
  <metadata>
    <name>Roque Haute au dessus de la Sanguinette</name>
    <desc><![CDATA[Dimanche 27/02
Temps frais, vent assez fort par rafales.
]]></desc>
  </metadata>
  <trk>
    <name><![CDATA[Roque Haute au dessus de la Sanguinette_1]]></name>
    <trkseg>
      <trkpt lat="43.77192" lon="5.3007">
        <ele>247</ele>
        <time>2011-02-27T08:07:58Z</time>
      </trkpt>
      <trkpt lat="43.77219" lon="5.30073">
        <ele>248</ele>
        <time>2011-02-27T08:09:51Z</time>
      </trkpt>
      <trkpt lat="43.77228" lon="5.30067">
        <ele>246</ele>
        <time>2011-02-27T08:10:01Z</time>
      </trkpt>
      <trkpt lat="43.77238" lon="5.30062">
        <ele>246</ele>
        <time>2011-02-27T08:10:11Z</time>
      </trkpt>
      <trkpt lat="43.77249" lon="5.30055">
        <ele>246</ele>
        <time>2011-02-27T08:10:21Z</time>
      </trkpt>
      <trkpt lat="43.77258" lon="5.30047">
        <ele>246</ele>
        <time>2011-02-27T08:10:31Z</time>
      </trkpt>
      <trkpt lat="43.77268" lon="5.30037">
        <ele>246</ele>
        <time>2011-02-27T08:10:41Z</time>
      </trkpt>
      <trkpt lat="43.77277" lon="5.30026">
        <ele>246</ele>
        <time>2011-02-27T08:10:51Z</time>
      </trkpt>
      <trkpt lat="43.77286" lon="5.30015">
        <ele>246</ele>
        <time>2011-02-27T08:11:01Z</time>
      </trkpt>
      <trkpt lat="43.77296" lon="5.30006">
        <ele>246</ele>
        <time>2011-02-27T08:11:12Z</time>
      </trkpt>
      <trkpt lat="43.77306" lon="5.3">
        <ele>246</ele>
        <time>2011-02-27T08:11:22Z</time>
      </trkpt>
      <trkpt lat="43.77316" lon="5.29996">
        <ele>247</ele>
        <time>2011-02-27T08:11:32Z</time>
      </trkpt>
      <trkpt lat="43.77327" lon="5.29996">
        <ele>247</ele>
        <time>2011-02-27T08:11:42Z</time>
      </trkpt>
      <trkpt lat="43.77337" lon="5.3">
        <ele>247</ele>
        <time>2011-02-27T08:11:52Z</time>
      </trkpt>
      <trkpt lat="43.77348" lon="5.30007">
        <ele>247</ele>
        <time>2011-02-27T08:12:04Z</time>
      </trkpt>
      <trkpt lat="43.77358" lon="5.30014">
        <ele>247</ele>
        <time>2011-02-27T08:12:14Z</time>
      </trkpt>
      <trkpt lat="43.77367" lon="5.30021">
        <ele>247</ele>
        <time>2011-02-27T08:12:25Z</time>
      </trkpt>
      <trkpt lat="43.77376" lon="5.30029">
        <ele>247</ele>
        <time>2011-02-27T08:12:35Z</time>
      </trkpt>
      <trkpt lat="43.77388" lon="5.30038">
        <ele>247</ele>
        <time>2011-02-27T08:12:45Z</time>
      </trkpt>
      <trkpt lat="43.77397" lon="5.30048">
        <ele>248</ele>
        <time>2011-02-27T08:12:56Z</time>
      </trkpt>
      <trkpt lat="43.77404" lon="5.30063">
        <ele>249</ele>
        <time>2011-02-27T08:13:07Z</time>
      </trkpt>
      <trkpt lat="43.77411" lon="5.30077">
        <ele>249</ele>
        <time>2011-02-27T08:13:17Z</time>
      </trkpt>
      <trkpt lat="43.77417" lon="5.30091">
        <ele>250</ele>
        <time>2011-02-27T08:13:27Z</time>
      </trkpt>
      <trkpt lat="43.77423" lon="5.30105">
        <ele>250</ele>
        <time>2011-02-27T08:13:38Z</time>
      </trkpt>
      <trkpt lat="43.7743" lon="5.30121">
        <ele>250</ele>
        <time>2011-02-27T08:13:48Z</time>
      </trkpt>
      <trkpt lat="43.77437" lon="5.30137">
        <ele>252</ele>
        <time>2011-02-27T08:14:00Z</time>
      </trkpt>
      <trkpt lat="43.77445" lon="5.30152">
        <ele>254</ele>
        <time>2011-02-27T08:14:11Z</time>
      </trkpt>
      <trkpt lat="43.77451" lon="5.30165">
        <ele>254</ele>
        <time>2011-02-27T08:14:21Z</time>
      </trkpt>
      <trkpt lat="43.77458" lon="5.3018">
        <ele>254</ele>
        <time>2011-02-27T08:14:31Z</time>
      </trkpt>
      <trkpt lat="43.77464" lon="5.30195">
        <ele>254</ele>
        <time>2011-02-27T08:14:42Z</time>
      </trkpt>
      <trkpt lat="43.7747" lon="5.30208">
        <ele>254</ele>
        <time>2011-02-27T08:14:53Z</time>
      </trkpt>
      <trkpt lat="43.77477" lon="5.30223">
        <ele>254</ele>
        <time>2011-02-27T08:15:05Z</time>
      </trkpt>
      <trkpt lat="43.7748" lon="5.30237">
        <ele>254</ele>
        <time>2011-02-27T08:15:15Z</time>
      </trkpt>
      <trkpt lat="43.77479" lon="5.30255">
        <ele>254</ele>
        <time>2011-02-27T08:15:26Z</time>
      </trkpt>
      <trkpt lat="43.77476" lon="5.30267">
        <ele>254</ele>
        <time>2011-02-27T08:15:36Z</time>
      </trkpt>
      <trkpt lat="43.77473" lon="5.30277">
        <ele>253</ele>
        <time>2011-02-27T08:15:46Z</time>
      </trkpt>
      <trkpt lat="43.7747" lon="5.30291">
        <ele>253</ele>
        <time>2011-02-27T08:15:56Z</time>
      </trkpt>
      <trkpt lat="43.77468" lon="5.30305">
        <ele>253</ele>
        <time>2011-02-27T08:16:06Z</time>
      </trkpt>
      <trkpt lat="43.7747" lon="5.30324">
        <ele>253</ele>
        <time>2011-02-27T08:16:16Z</time>
      </trkpt>
      <trkpt lat="43.77474" lon="5.30341">
        <ele>262</ele>
        <time>2011-02-27T08:16:26Z</time>
      </trkpt>
      <trkpt lat="43.77477" lon="5.30357">
        <ele>266</ele>
        <time>2011-02-27T08:16:36Z</time>
      </trkpt>
      <trkpt lat="43.77482" lon="5.30373">
        <ele>272</ele>
        <time>2011-02-27T08:16:46Z</time>
      </trkpt>
      <trkpt lat="43.77484" lon="5.30385">
        <ele>272</ele>
        <time>2011-02-27T08:16:57Z</time>
      </trkpt>
      <trkpt lat="43.77489" lon="5.30399">
        <ele>267</ele>
        <time>2011-02-27T08:17:09Z</time>
      </trkpt>
      <trkpt lat="43.77496" lon="5.30412">
        <ele>264</ele>
        <time>2011-02-27T08:17:20Z</time>
      </trkpt>
      <trkpt lat="43.77503" lon="5.30423">
        <ele>264</ele>
        <time>2011-02-27T08:17:30Z</time>
      </trkpt>
      <trkpt lat="43.7751" lon="5.30435">
        <ele>264</ele>
        <time>2011-02-27T08:17:40Z</time>
      </trkpt>
      <trkpt lat="43.77516" lon="5.30449">
        <ele>264</ele>
        <time>2011-02-27T08:17:50Z</time>
      </trkpt>
      <trkpt lat="43.7752" lon="5.30464">
        <ele>268</ele>
        <time>2011-02-27T08:18:01Z</time>
      </trkpt>
      <trkpt lat="43.77524" lon="5.30477">
        <ele>268</ele>
        <time>2011-02-27T08:18:11Z</time>
      </trkpt>
      <trkpt lat="43.77531" lon="5.3049">
        <ele>268</ele>
        <time>2011-02-27T08:18:22Z</time>
      </trkpt>
      <trkpt lat="43.77538" lon="5.30502">
        <ele>268</ele>
        <time>2011-02-27T08:18:33Z</time>
      </trkpt>
      <trkpt lat="43.7755" lon="5.30515">
        <ele>268</ele>
        <time>2011-02-27T08:18:44Z</time>
      </trkpt>
      <trkpt lat="43.7756" lon="5.30525">
        <ele>268</ele>
        <time>2011-02-27T08:18:55Z</time>
      </trkpt>
      <trkpt lat="43.77569" lon="5.30532">
        <ele>268</ele>
        <time>2011-02-27T08:19:05Z</time>
      </trkpt>
      <trkpt lat="43.7758" lon="5.30539">
        <ele>268</ele>
        <time>2011-02-27T08:19:15Z</time>
      </trkpt>
      <trkpt lat="43.7759" lon="5.30547">
        <ele>268</ele>
        <time>2011-02-27T08:19:25Z</time>
      </trkpt>
      <trkpt lat="43.77602" lon="5.30555">
        <ele>268</ele>
        <time>2011-02-27T08:19:35Z</time>
      </trkpt>
      <trkpt lat="43.77612" lon="5.30563">
        <ele>270</ele>
        <time>2011-02-27T08:19:45Z</time>
      </trkpt>
      <trkpt lat="43.77619" lon="5.30572">
        <ele>270</ele>
        <time>2011-02-27T08:19:55Z</time>
      </trkpt>
      <trkpt lat="43.77628" lon="5.3058">
        <ele>268</ele>
        <time>2011-02-27T08:20:05Z</time>
      </trkpt>
      <trkpt lat="43.77639" lon="5.30588">
        <ele>268</ele>
        <time>2011-02-27T08:20:16Z</time>
      </trkpt>
      <trkpt lat="43.7765" lon="5.30595">
        <ele>268</ele>
        <time>2011-02-27T08:20:27Z</time>
      </trkpt>
      <trkpt lat="43.77663" lon="5.306">
        <ele>269</ele>
        <time>2011-02-27T08:20:38Z</time>
      </trkpt>
      <trkpt lat="43.77673" lon="5.30603">
        <ele>269</ele>
        <time>2011-02-27T08:20:48Z</time>
      </trkpt>
      <trkpt lat="43.77684" lon="5.30605">
        <ele>271</ele>
        <time>2011-02-27T08:20:58Z</time>
      </trkpt>
      <trkpt lat="43.77694" lon="5.30605">
        <ele>272</ele>
        <time>2011-02-27T08:21:08Z</time>
      </trkpt>
      <trkpt lat="43.77705" lon="5.30606">
        <ele>272</ele>
        <time>2011-02-27T08:21:18Z</time>
      </trkpt>
      <trkpt lat="43.77717" lon="5.30607">
        <ele>273</ele>
        <time>2011-02-27T08:21:28Z</time>
      </trkpt>
      <trkpt lat="43.77729" lon="5.30608">
        <ele>276</ele>
        <time>2011-02-27T08:21:38Z</time>
      </trkpt>
      <trkpt lat="43.77741" lon="5.3061">
        <ele>276</ele>
        <time>2011-02-27T08:21:48Z</time>
      </trkpt>
      <trkpt lat="43.77753" lon="5.30611">
        <ele>276</ele>
        <time>2011-02-27T08:21:58Z</time>
      </trkpt>
      <trkpt lat="43.77764" lon="5.30612">
        <ele>276</ele>
        <time>2011-02-27T08:22:08Z</time>
      </trkpt>
      <trkpt lat="43.77776" lon="5.30614">
        <ele>276</ele>
        <time>2011-02-27T08:22:18Z</time>
      </trkpt>
      <trkpt lat="43.77787" lon="5.30618">
        <ele>276</ele>
        <time>2011-02-27T08:22:28Z</time>
      </trkpt>
      <trkpt lat="43.778" lon="5.30622">
        <ele>277</ele>
        <time>2011-02-27T08:22:38Z</time>
      </trkpt>
      <trkpt lat="43.77811" lon="5.30628">
        <ele>277</ele>
        <time>2011-02-27T08:22:48Z</time>
      </trkpt>
      <trkpt lat="43.77823" lon="5.30636">
        <ele>277</ele>
        <time>2011-02-27T08:22:59Z</time>
      </trkpt>
      <trkpt lat="43.7783" lon="5.30644">
        <ele>280</ele>
        <time>2011-02-27T08:23:11Z</time>
      </trkpt>
      <trkpt lat="43.77829" lon="5.30646">
        <ele>282</ele>
        <time>2011-02-27T08:23:22Z</time>
      </trkpt>
      <trkpt lat="43.77829" lon="5.30644">
        <ele>282</ele>
        <time>2011-02-27T08:23:37Z</time>
      </trkpt>
      <trkpt lat="43.77832" lon="5.30643">
        <ele>282</ele>
        <time>2011-02-27T08:23:51Z</time>
      </trkpt>
      <trkpt lat="43.77834" lon="5.30639">
        <ele>283</ele>
        <time>2011-02-27T08:24:07Z</time>
      </trkpt>
      <trkpt lat="43.77841" lon="5.30632">
        <ele>283</ele>
        <time>2011-02-27T08:24:17Z</time>
      </trkpt>
      <trkpt lat="43.77852" lon="5.30622">
        <ele>283</ele>
        <time>2011-02-27T08:24:27Z</time>
      </trkpt>
      <trkpt lat="43.77862" lon="5.30612">
        <ele>283</ele>
        <time>2011-02-27T08:24:37Z</time>
      </trkpt>
      <trkpt lat="43.77872" lon="5.30602">
        <ele>283</ele>
        <time>2011-02-27T08:24:47Z</time>
      </trkpt>
      <trkpt lat="43.77885" lon="5.30597">
        <ele>283</ele>
        <time>2011-02-27T08:24:57Z</time>
      </trkpt>
      <trkpt lat="43.77897" lon="5.30593">
        <ele>283</ele>
        <time>2011-02-27T08:25:07Z</time>
      </trkpt>
      <trkpt lat="43.77908" lon="5.30589">
        <ele>283</ele>
        <time>2011-02-27T08:25:17Z</time>
      </trkpt>
      <trkpt lat="43.77918" lon="5.30591">
        <ele>283</ele>
        <time>2011-02-27T08:25:27Z</time>
      </trkpt>
      <trkpt lat="43.77928" lon="5.30597">
        <ele>284</ele>
        <time>2011-02-27T08:25:37Z</time>
      </trkpt>
      <trkpt lat="43.77938" lon="5.30609">
        <ele>284</ele>
        <time>2011-02-27T08:25:48Z</time>
      </trkpt>
      <trkpt lat="43.77948" lon="5.30618">
        <ele>282</ele>
        <time>2011-02-27T08:25:58Z</time>
      </trkpt>
      <trkpt lat="43.77959" lon="5.30625">
        <ele>280</ele>
        <time>2011-02-27T08:26:08Z</time>
      </trkpt>
      <trkpt lat="43.77969" lon="5.30634">
        <ele>279</ele>
        <time>2011-02-27T08:26:18Z</time>
      </trkpt>
      <trkpt lat="43.77981" lon="5.30643">
        <ele>279</ele>
        <time>2011-02-27T08:26:29Z</time>
      </trkpt>
      <trkpt lat="43.77992" lon="5.30653">
        <ele>279</ele>
        <time>2011-02-27T08:26:39Z</time>
      </trkpt>
      <trkpt lat="43.78005" lon="5.30661">
        <ele>283</ele>
        <time>2011-02-27T08:26:50Z</time>
      </trkpt>
      <trkpt lat="43.78015" lon="5.30667">
        <ele>283</ele>
        <time>2011-02-27T08:27:00Z</time>
      </trkpt>
      <trkpt lat="43.78026" lon="5.30673">
        <ele>283</ele>
        <time>2011-02-27T08:27:10Z</time>
      </trkpt>
      <trkpt lat="43.78036" lon="5.30679">
        <ele>283</ele>
        <time>2011-02-27T08:27:20Z</time>
      </trkpt>
      <trkpt lat="43.78049" lon="5.30682">
        <ele>283</ele>
        <time>2011-02-27T08:27:30Z</time>
      </trkpt>
      <trkpt lat="43.78062" lon="5.30686">
        <ele>283</ele>
        <time>2011-02-27T08:27:40Z</time>
      </trkpt>
      <trkpt lat="43.78075" lon="5.30688">
        <ele>284</ele>
        <time>2011-02-27T08:27:50Z</time>
      </trkpt>
      <trkpt lat="43.78087" lon="5.30691">
        <ele>284</ele>
        <time>2011-02-27T08:28:00Z</time>
      </trkpt>
      <trkpt lat="43.78098" lon="5.30699">
        <ele>284</ele>
        <time>2011-02-27T08:28:11Z</time>
      </trkpt>
      <trkpt lat="43.78107" lon="5.3071">
        <ele>287</ele>
        <time>2011-02-27T08:28:21Z</time>
      </trkpt>
      <trkpt lat="43.78118" lon="5.3072">
        <ele>287</ele>
        <time>2011-02-27T08:28:32Z</time>
      </trkpt>
      <trkpt lat="43.78129" lon="5.30725">
        <ele>292</ele>
        <time>2011-02-27T08:28:42Z</time>
      </trkpt>
      <trkpt lat="43.78141" lon="5.30729">
        <ele>301</ele>
        <time>2011-02-27T08:28:52Z</time>
      </trkpt>
      <trkpt lat="43.78154" lon="5.30735">
        <ele>304</ele>
        <time>2011-02-27T08:29:03Z</time>
      </trkpt>
      <trkpt lat="43.78166" lon="5.30741">
        <ele>303</ele>
        <time>2011-02-27T08:29:13Z</time>
      </trkpt>
      <trkpt lat="43.78176" lon="5.30747">
        <ele>294</ele>
        <time>2011-02-27T08:29:23Z</time>
      </trkpt>
      <trkpt lat="43.7819" lon="5.30754">
        <ele>294</ele>
        <time>2011-02-27T08:29:34Z</time>
      </trkpt>
      <trkpt lat="43.78201" lon="5.30762">
        <ele>297</ele>
        <time>2011-02-27T08:29:45Z</time>
      </trkpt>
      <trkpt lat="43.78209" lon="5.3077">
        <ele>297</ele>
        <time>2011-02-27T08:29:55Z</time>
      </trkpt>
      <trkpt lat="43.7822" lon="5.30779">
        <ele>297</ele>
        <time>2011-02-27T08:30:06Z</time>
      </trkpt>
      <trkpt lat="43.78232" lon="5.30785">
        <ele>292</ele>
        <time>2011-02-27T08:30:17Z</time>
      </trkpt>
      <trkpt lat="43.78245" lon="5.30789">
        <ele>290</ele>
        <time>2011-02-27T08:30:28Z</time>
      </trkpt>
      <trkpt lat="43.78256" lon="5.30788">
        <ele>290</ele>
        <time>2011-02-27T08:30:38Z</time>
      </trkpt>
      <trkpt lat="43.78268" lon="5.30784">
        <ele>295</ele>
        <time>2011-02-27T08:30:49Z</time>
      </trkpt>
      <trkpt lat="43.78278" lon="5.30777">
        <ele>297</ele>
        <time>2011-02-27T08:30:59Z</time>
      </trkpt>
      <trkpt lat="43.78286" lon="5.30767">
        <ele>297</ele>
        <time>2011-02-27T08:31:09Z</time>
      </trkpt>
      <trkpt lat="43.78293" lon="5.30753">
        <ele>297</ele>
        <time>2011-02-27T08:31:20Z</time>
      </trkpt>
      <trkpt lat="43.78299" lon="5.3074">
        <ele>298</ele>
        <time>2011-02-27T08:31:30Z</time>
      </trkpt>
      <trkpt lat="43.78305" lon="5.30725">
        <ele>299</ele>
        <time>2011-02-27T08:31:41Z</time>
      </trkpt>
      <trkpt lat="43.78312" lon="5.30714">
        <ele>301</ele>
        <time>2011-02-27T08:31:51Z</time>
      </trkpt>
      <trkpt lat="43.7832" lon="5.30704">
        <ele>303</ele>
        <time>2011-02-27T08:32:01Z</time>
      </trkpt>
      <trkpt lat="43.78331" lon="5.30696">
        <ele>305</ele>
        <time>2011-02-27T08:32:11Z</time>
      </trkpt>
      <trkpt lat="43.78341" lon="5.30685">
        <ele>306</ele>
        <time>2011-02-27T08:32:21Z</time>
      </trkpt>
      <trkpt lat="43.78352" lon="5.30672">
        <ele>306</ele>
        <time>2011-02-27T08:32:31Z</time>
      </trkpt>
      <trkpt lat="43.78365" lon="5.30663">
        <ele>307</ele>
        <time>2011-02-27T08:32:41Z</time>
      </trkpt>
      <trkpt lat="43.78378" lon="5.30655">
        <ele>309</ele>
        <time>2011-02-27T08:32:51Z</time>
      </trkpt>
      <trkpt lat="43.78391" lon="5.30648">
        <ele>309</ele>
        <time>2011-02-27T08:33:01Z</time>
      </trkpt>
      <trkpt lat="43.78402" lon="5.30641">
        <ele>309</ele>
        <time>2011-02-27T08:33:11Z</time>
      </trkpt>
      <trkpt lat="43.78414" lon="5.30634">
        <ele>310</ele>
        <time>2011-02-27T08:33:22Z</time>
      </trkpt>
      <trkpt lat="43.78426" lon="5.30623">
        <ele>310</ele>
        <time>2011-02-27T08:33:33Z</time>
      </trkpt>
      <trkpt lat="43.78436" lon="5.30611">
        <ele>311</ele>
        <time>2011-02-27T08:33:44Z</time>
      </trkpt>
      <trkpt lat="43.78445" lon="5.30599">
        <ele>311</ele>
        <time>2011-02-27T08:33:54Z</time>
      </trkpt>
      <trkpt lat="43.78455" lon="5.30584">
        <ele>312</ele>
        <time>2011-02-27T08:34:05Z</time>
      </trkpt>
      <trkpt lat="43.78465" lon="5.30571">
        <ele>313</ele>
        <time>2011-02-27T08:34:16Z</time>
      </trkpt>
      <trkpt lat="43.78476" lon="5.30561">
        <ele>315</ele>
        <time>2011-02-27T08:34:27Z</time>
      </trkpt>
      <trkpt lat="43.78484" lon="5.30556">
        <ele>318</ele>
        <time>2011-02-27T08:34:58Z</time>
      </trkpt>
      <trkpt lat="43.78487" lon="5.30553">
        <ele>318</ele>
        <time>2011-02-27T08:35:08Z</time>
      </trkpt>
      <trkpt lat="43.78493" lon="5.30545">
        <ele>318</ele>
        <time>2011-02-27T08:35:31Z</time>
      </trkpt>
      <trkpt lat="43.78494" lon="5.30544">
        <ele>318</ele>
        <time>2011-02-27T08:35:53Z</time>
      </trkpt>
      <trkpt lat="43.78495" lon="5.30544">
        <ele>318</ele>
        <time>2011-02-27T08:36:39Z</time>
      </trkpt>
      <trkpt lat="43.78493" lon="5.30544">
        <ele>318</ele>
        <time>2011-02-27T08:36:49Z</time>
      </trkpt>
      <trkpt lat="43.78493" lon="5.30544">
        <ele>320</ele>
        <time>2011-02-27T08:37:03Z</time>
      </trkpt>
      <trkpt lat="43.78503" lon="5.30537">
        <ele>320</ele>
        <time>2011-02-27T08:37:14Z</time>
      </trkpt>
      <trkpt lat="43.78512" lon="5.30526">
        <ele>322</ele>
        <time>2011-02-27T08:37:25Z</time>
      </trkpt>
      <trkpt lat="43.78521" lon="5.30516">
        <ele>323</ele>
        <time>2011-02-27T08:37:35Z</time>
      </trkpt>
      <trkpt lat="43.78529" lon="5.30502">
        <ele>323</ele>
        <time>2011-02-27T08:37:46Z</time>
      </trkpt>
      <trkpt lat="43.78537" lon="5.30489">
        <ele>323</ele>
        <time>2011-02-27T08:37:57Z</time>
      </trkpt>
      <trkpt lat="43.78545" lon="5.30475">
        <ele>323</ele>
        <time>2011-02-27T08:38:08Z</time>
      </trkpt>
      <trkpt lat="43.78553" lon="5.30462">
        <ele>323</ele>
        <time>2011-02-27T08:38:18Z</time>
      </trkpt>
      <trkpt lat="43.78563" lon="5.30451">
        <ele>323</ele>
        <time>2011-02-27T08:38:28Z</time>
      </trkpt>
      <trkpt lat="43.78575" lon="5.30446">
        <ele>326</ele>
        <time>2011-02-27T08:38:38Z</time>
      </trkpt>
      <trkpt lat="43.78587" lon="5.30442">
        <ele>326</ele>
        <time>2011-02-27T08:38:48Z</time>
      </trkpt>
      <trkpt lat="43.786" lon="5.3044">
        <ele>326</ele>
        <time>2011-02-27T08:38:58Z</time>
      </trkpt>
      <trkpt lat="43.78613" lon="5.30443">
        <ele>326</ele>
        <time>2011-02-27T08:39:08Z</time>
      </trkpt>
      <trkpt lat="43.78625" lon="5.30448">
        <ele>325</ele>
        <time>2011-02-27T08:39:18Z</time>
      </trkpt>
      <trkpt lat="43.78637" lon="5.30453">
        <ele>325</ele>
        <time>2011-02-27T08:39:28Z</time>
      </trkpt>
      <trkpt lat="43.7865" lon="5.30452">
        <ele>325</ele>
        <time>2011-02-27T08:39:38Z</time>
      </trkpt>
      <trkpt lat="43.78662" lon="5.30448">
        <ele>325</ele>
        <time>2011-02-27T08:39:49Z</time>
      </trkpt>
      <trkpt lat="43.78672" lon="5.30439">
        <ele>327</ele>
        <time>2011-02-27T08:39:59Z</time>
      </trkpt>
      <trkpt lat="43.78681" lon="5.30429">
        <ele>329</ele>
        <time>2011-02-27T08:40:09Z</time>
      </trkpt>
      <trkpt lat="43.78689" lon="5.30415">
        <ele>331</ele>
        <time>2011-02-27T08:40:20Z</time>
      </trkpt>
      <trkpt lat="43.78695" lon="5.30402">
        <ele>332</ele>
        <time>2011-02-27T08:40:30Z</time>
      </trkpt>
      <trkpt lat="43.78694" lon="5.30382">
        <ele>334</ele>
        <time>2011-02-27T08:40:40Z</time>
      </trkpt>
      <trkpt lat="43.78691" lon="5.30363">
        <ele>335</ele>
        <time>2011-02-27T08:40:50Z</time>
      </trkpt>
      <trkpt lat="43.78686" lon="5.30346">
        <ele>336</ele>
        <time>2011-02-27T08:41:00Z</time>
      </trkpt>
      <trkpt lat="43.78679" lon="5.30331">
        <ele>336</ele>
        <time>2011-02-27T08:41:10Z</time>
      </trkpt>
      <trkpt lat="43.78673" lon="5.30316">
        <ele>338</ele>
        <time>2011-02-27T08:41:20Z</time>
      </trkpt>
      <trkpt lat="43.78671" lon="5.303">
        <ele>339</ele>
        <time>2011-02-27T08:41:30Z</time>
      </trkpt>
      <trkpt lat="43.78672" lon="5.30281">
        <ele>339</ele>
        <time>2011-02-27T08:41:40Z</time>
      </trkpt>
      <trkpt lat="43.78681" lon="5.30267">
        <ele>339</ele>
        <time>2011-02-27T08:41:51Z</time>
      </trkpt>
      <trkpt lat="43.78691" lon="5.30255">
        <ele>339</ele>
        <time>2011-02-27T08:42:01Z</time>
      </trkpt>
      <trkpt lat="43.78703" lon="5.30244">
        <ele>339</ele>
        <time>2011-02-27T08:42:12Z</time>
      </trkpt>
      <trkpt lat="43.78715" lon="5.30232">
        <ele>339</ele>
        <time>2011-02-27T08:42:23Z</time>
      </trkpt>
      <trkpt lat="43.78725" lon="5.30221">
        <ele>339</ele>
        <time>2011-02-27T08:42:33Z</time>
      </trkpt>
      <trkpt lat="43.78735" lon="5.30208">
        <ele>339</ele>
        <time>2011-02-27T08:42:43Z</time>
      </trkpt>
      <trkpt lat="43.78743" lon="5.30195">
        <ele>339</ele>
        <time>2011-02-27T08:42:53Z</time>
      </trkpt>
      <trkpt lat="43.78749" lon="5.30177">
        <ele>339</ele>
        <time>2011-02-27T08:43:03Z</time>
      </trkpt>
      <trkpt lat="43.78757" lon="5.30161">
        <ele>339</ele>
        <time>2011-02-27T08:43:14Z</time>
      </trkpt>
      <trkpt lat="43.78764" lon="5.30146">
        <ele>340</ele>
        <time>2011-02-27T08:43:24Z</time>
      </trkpt>
      <trkpt lat="43.7877" lon="5.30129">
        <ele>342</ele>
        <time>2011-02-27T08:43:34Z</time>
      </trkpt>
      <trkpt lat="43.78781" lon="5.30119">
        <ele>342</ele>
        <time>2011-02-27T08:43:44Z</time>
      </trkpt>
      <trkpt lat="43.78794" lon="5.30111">
        <ele>342</ele>
        <time>2011-02-27T08:43:55Z</time>
      </trkpt>
      <trkpt lat="43.78807" lon="5.30105">
        <ele>343</ele>
        <time>2011-02-27T08:44:05Z</time>
      </trkpt>
      <trkpt lat="43.7882" lon="5.30101">
        <ele>344</ele>
        <time>2011-02-27T08:44:15Z</time>
      </trkpt>
      <trkpt lat="43.7883" lon="5.301">
        <ele>345</ele>
        <time>2011-02-27T08:44:25Z</time>
      </trkpt>
      <trkpt lat="43.7883" lon="5.30102">
        <ele>349</ele>
        <time>2011-02-27T08:44:43Z</time>
      </trkpt>
      <trkpt lat="43.78829" lon="5.30101">
        <ele>353</ele>
        <time>2011-02-27T08:45:01Z</time>
      </trkpt>
      <trkpt lat="43.78829" lon="5.30101">
        <ele>353</ele>
        <time>2011-02-27T08:45:12Z</time>
      </trkpt>
      <trkpt lat="43.78828" lon="5.30099">
        <ele>355</ele>
        <time>2011-02-27T08:45:25Z</time>
      </trkpt>
      <trkpt lat="43.78828" lon="5.30098">
        <ele>355</ele>
        <time>2011-02-27T08:45:35Z</time>
      </trkpt>
      <trkpt lat="43.7883" lon="5.30099">
        <ele>355</ele>
        <time>2011-02-27T08:45:45Z</time>
      </trkpt>
      <trkpt lat="43.78832" lon="5.301">
        <ele>355</ele>
        <time>2011-02-27T08:46:04Z</time>
      </trkpt>
      <trkpt lat="43.78832" lon="5.30098">
        <ele>354</ele>
        <time>2011-02-27T08:46:20Z</time>
      </trkpt>
      <trkpt lat="43.7883" lon="5.30096">
        <ele>354</ele>
        <time>2011-02-27T08:46:33Z</time>
      </trkpt>
      <trkpt lat="43.78832" lon="5.30095">
        <ele>353</ele>
        <time>2011-02-27T08:46:44Z</time>
      </trkpt>
      <trkpt lat="43.78832" lon="5.30097">
        <ele>353</ele>
        <time>2011-02-27T08:47:00Z</time>
      </trkpt>
      <trkpt lat="43.78831" lon="5.30098">
        <ele>353</ele>
        <time>2011-02-27T08:47:20Z</time>
      </trkpt>
      <trkpt lat="43.78832" lon="5.30107">
        <ele>362</ele>
        <time>2011-02-27T08:47:31Z</time>
      </trkpt>
      <trkpt lat="43.78834" lon="5.30109">
        <ele>374</ele>
        <time>2011-02-27T08:47:41Z</time>
      </trkpt>
      <trkpt lat="43.78832" lon="5.30103">
        <ele>375</ele>
        <time>2011-02-27T08:47:51Z</time>
      </trkpt>
      <trkpt lat="43.78831" lon="5.30091">
        <ele>373</ele>
        <time>2011-02-27T08:48:01Z</time>
      </trkpt>
      <trkpt lat="43.78831" lon="5.30079">
        <ele>369</ele>
        <time>2011-02-27T08:48:12Z</time>
      </trkpt>
      <trkpt lat="43.78838" lon="5.30068">
        <ele>364</ele>
        <time>2011-02-27T08:48:23Z</time>
      </trkpt>
      <trkpt lat="43.78837" lon="5.30063">
        <ele>364</ele>
        <time>2011-02-27T08:48:34Z</time>
      </trkpt>
      <trkpt lat="43.78829" lon="5.30058">
        <ele>364</ele>
        <time>2011-02-27T08:48:44Z</time>
      </trkpt>
      <trkpt lat="43.78822" lon="5.30052">
        <ele>366</ele>
        <time>2011-02-27T08:48:55Z</time>
      </trkpt>
      <trkpt lat="43.78815" lon="5.30046">
        <ele>367</ele>
        <time>2011-02-27T08:49:05Z</time>
      </trkpt>
      <trkpt lat="43.78822" lon="5.30039">
        <ele>369</ele>
        <time>2011-02-27T08:49:15Z</time>
      </trkpt>
      <trkpt lat="43.78829" lon="5.30029">
        <ele>369</ele>
        <time>2011-02-27T08:49:26Z</time>
      </trkpt>
      <trkpt lat="43.78838" lon="5.30021">
        <ele>369</ele>
        <time>2011-02-27T08:49:37Z</time>
      </trkpt>
      <trkpt lat="43.78842" lon="5.30006">
        <ele>369</ele>
        <time>2011-02-27T08:49:47Z</time>
      </trkpt>
      <trkpt lat="43.78837" lon="5.30009">
        <ele>373</ele>
        <time>2011-02-27T08:49:57Z</time>
      </trkpt>
      <trkpt lat="43.78828" lon="5.30014">
        <ele>377</ele>
        <time>2011-02-27T08:50:07Z</time>
      </trkpt>
      <trkpt lat="43.78829" lon="5.30003">
        <ele>379</ele>
        <time>2011-02-27T08:50:18Z</time>
      </trkpt>
      <trkpt lat="43.78834" lon="5.29992">
        <ele>379</ele>
        <time>2011-02-27T08:50:29Z</time>
      </trkpt>
      <trkpt lat="43.78842" lon="5.29986">
        <ele>379</ele>
        <time>2011-02-27T08:50:40Z</time>
      </trkpt>
      <trkpt lat="43.7885" lon="5.29987">
        <ele>382</ele>
        <time>2011-02-27T08:50:50Z</time>
      </trkpt>
      <trkpt lat="43.78849" lon="5.29982">
        <ele>383</ele>
        <time>2011-02-27T08:51:01Z</time>
      </trkpt>
      <trkpt lat="43.78843" lon="5.29974">
        <ele>385</ele>
        <time>2011-02-27T08:51:11Z</time>
      </trkpt>
      <trkpt lat="43.78836" lon="5.29969">
        <ele>388</ele>
        <time>2011-02-27T08:51:21Z</time>
      </trkpt>
      <trkpt lat="43.78828" lon="5.29973">
        <ele>390</ele>
        <time>2011-02-27T08:51:31Z</time>
      </trkpt>
      <trkpt lat="43.78823" lon="5.29973">
        <ele>395</ele>
        <time>2011-02-27T08:51:41Z</time>
      </trkpt>
      <trkpt lat="43.78832" lon="5.29963">
        <ele>397</ele>
        <time>2011-02-27T08:51:51Z</time>
      </trkpt>
      <trkpt lat="43.78843" lon="5.29958">
        <ele>397</ele>
        <time>2011-02-27T08:52:02Z</time>
      </trkpt>
      <trkpt lat="43.78849" lon="5.29954">
        <ele>397</ele>
        <time>2011-02-27T08:52:12Z</time>
      </trkpt>
      <trkpt lat="43.7884" lon="5.29946">
        <ele>399</ele>
        <time>2011-02-27T08:52:22Z</time>
      </trkpt>
      <trkpt lat="43.78831" lon="5.29944">
        <ele>402</ele>
        <time>2011-02-27T08:52:33Z</time>
      </trkpt>
      <trkpt lat="43.78834" lon="5.29935">
        <ele>405</ele>
        <time>2011-02-27T08:52:43Z</time>
      </trkpt>
      <trkpt lat="43.7884" lon="5.29929">
        <ele>407</ele>
        <time>2011-02-27T08:52:53Z</time>
      </trkpt>
      <trkpt lat="43.78847" lon="5.29925">
        <ele>409</ele>
        <time>2011-02-27T08:53:04Z</time>
      </trkpt>
      <trkpt lat="43.78855" lon="5.29922">
        <ele>411</ele>
        <time>2011-02-27T08:53:14Z</time>
      </trkpt>
      <trkpt lat="43.78863" lon="5.2992">
        <ele>413</ele>
        <time>2011-02-27T08:53:24Z</time>
      </trkpt>
      <trkpt lat="43.78873" lon="5.29915">
        <ele>415</ele>
        <time>2011-02-27T08:53:34Z</time>
      </trkpt>
      <trkpt lat="43.78868" lon="5.29908">
        <ele>418</ele>
        <time>2011-02-27T08:53:45Z</time>
      </trkpt>
      <trkpt lat="43.7886" lon="5.299">
        <ele>421</ele>
        <time>2011-02-27T08:53:56Z</time>
      </trkpt>
      <trkpt lat="43.78851" lon="5.29892">
        <ele>423</ele>
        <time>2011-02-27T08:54:07Z</time>
      </trkpt>
      <trkpt lat="43.78842" lon="5.29885">
        <ele>425</ele>
        <time>2011-02-27T08:54:17Z</time>
      </trkpt>
      <trkpt lat="43.7883" lon="5.2988">
        <ele>426</ele>
        <time>2011-02-27T08:54:27Z</time>
      </trkpt>
      <trkpt lat="43.7882" lon="5.29874">
        <ele>428</ele>
        <time>2011-02-27T08:54:38Z</time>
      </trkpt>
      <trkpt lat="43.78809" lon="5.29874">
        <ele>429</ele>
        <time>2011-02-27T08:54:48Z</time>
      </trkpt>
      <trkpt lat="43.78802" lon="5.29866">
        <ele>431</ele>
        <time>2011-02-27T08:54:58Z</time>
      </trkpt>
      <trkpt lat="43.78809" lon="5.29856">
        <ele>431</ele>
        <time>2011-02-27T08:55:08Z</time>
      </trkpt>
      <trkpt lat="43.78815" lon="5.29846">
        <ele>432</ele>
        <time>2011-02-27T08:55:19Z</time>
      </trkpt>
      <trkpt lat="43.78816" lon="5.29832">
        <ele>434</ele>
        <time>2011-02-27T08:55:29Z</time>
      </trkpt>
      <trkpt lat="43.78806" lon="5.29834">
        <ele>434</ele>
        <time>2011-02-27T08:55:39Z</time>
      </trkpt>
      <trkpt lat="43.78804" lon="5.29834">
        <ele>435</ele>
        <time>2011-02-27T08:56:31Z</time>
      </trkpt>
      <trkpt lat="43.78793" lon="5.29838">
        <ele>435</ele>
        <time>2011-02-27T08:56:41Z</time>
      </trkpt>
      <trkpt lat="43.78779" lon="5.29836">
        <ele>436</ele>
        <time>2011-02-27T08:56:51Z</time>
      </trkpt>
      <trkpt lat="43.78767" lon="5.29826">
        <ele>436</ele>
        <time>2011-02-27T08:57:01Z</time>
      </trkpt>
      <trkpt lat="43.78761" lon="5.29811">
        <ele>436</ele>
        <time>2011-02-27T08:57:11Z</time>
      </trkpt>
      <trkpt lat="43.7875" lon="5.29808">
        <ele>436</ele>
        <time>2011-02-27T08:57:22Z</time>
      </trkpt>
      <trkpt lat="43.78746" lon="5.29804">
        <ele>436</ele>
        <time>2011-02-27T08:57:41Z</time>
      </trkpt>
      <trkpt lat="43.78752" lon="5.29809">
        <ele>436</ele>
        <time>2011-02-27T08:57:51Z</time>
      </trkpt>
      <trkpt lat="43.78761" lon="5.29812">
        <ele>436</ele>
        <time>2011-02-27T08:58:01Z</time>
      </trkpt>
      <trkpt lat="43.78766" lon="5.29823">
        <ele>436</ele>
        <time>2011-02-27T08:58:11Z</time>
      </trkpt>
      <trkpt lat="43.78773" lon="5.29832">
        <ele>436</ele>
        <time>2011-02-27T08:58:21Z</time>
      </trkpt>
      <trkpt lat="43.78777" lon="5.29834">
        <ele>436</ele>
        <time>2011-02-27T08:58:38Z</time>
      </trkpt>
      <trkpt lat="43.78782" lon="5.29835">
        <ele>436</ele>
        <time>2011-02-27T08:58:48Z</time>
      </trkpt>
      <trkpt lat="43.78791" lon="5.29837">
        <ele>436</ele>
        <time>2011-02-27T08:58:58Z</time>
      </trkpt>
      <trkpt lat="43.78799" lon="5.29835">
        <ele>436</ele>
        <time>2011-02-27T08:59:08Z</time>
      </trkpt>
      <trkpt lat="43.78808" lon="5.29831">
        <ele>436</ele>
        <time>2011-02-27T08:59:18Z</time>
      </trkpt>
      <trkpt lat="43.78814" lon="5.29829">
        <ele>436</ele>
        <time>2011-02-27T08:59:30Z</time>
      </trkpt>
      <trkpt lat="43.78817" lon="5.29828">
        <ele>436</ele>
        <time>2011-02-27T08:59:45Z</time>
      </trkpt>
      <trkpt lat="43.78819" lon="5.29828">
        <ele>436</ele>
        <time>2011-02-27T09:00:07Z</time>
      </trkpt>
      <trkpt lat="43.78819" lon="5.2983">
        <ele>437</ele>
        <time>2011-02-27T09:01:37Z</time>
      </trkpt>
      <trkpt lat="43.78822" lon="5.2983">
        <ele>438</ele>
        <time>2011-02-27T09:01:49Z</time>
      </trkpt>
      <trkpt lat="43.7882" lon="5.2983">
        <ele>439</ele>
        <time>2011-02-27T09:02:07Z</time>
      </trkpt>
      <trkpt lat="43.78819" lon="5.29831">
        <ele>439</ele>
        <time>2011-02-27T09:02:29Z</time>
      </trkpt>
      <trkpt lat="43.78819" lon="5.29829">
        <ele>439</ele>
        <time>2011-02-27T09:02:55Z</time>
      </trkpt>
      <trkpt lat="43.78821" lon="5.29828">
        <ele>439</ele>
        <time>2011-02-27T09:03:09Z</time>
      </trkpt>
      <trkpt lat="43.78828" lon="5.29828">
        <ele>439</ele>
        <time>2011-02-27T09:03:20Z</time>
      </trkpt>
      <trkpt lat="43.78835" lon="5.29825">
        <ele>439</ele>
        <time>2011-02-27T09:03:30Z</time>
      </trkpt>
      <trkpt lat="43.78842" lon="5.29823">
        <ele>439</ele>
        <time>2011-02-27T09:03:40Z</time>
      </trkpt>
      <trkpt lat="43.78845" lon="5.29817">
        <ele>439</ele>
        <time>2011-02-27T09:03:51Z</time>
      </trkpt>
      <trkpt lat="43.78849" lon="5.29812">
        <ele>439</ele>
        <time>2011-02-27T09:04:01Z</time>
      </trkpt>
      <trkpt lat="43.78854" lon="5.29814">
        <ele>439</ele>
        <time>2011-02-27T09:04:12Z</time>
      </trkpt>
      <trkpt lat="43.78859" lon="5.29814">
        <ele>441</ele>
        <time>2011-02-27T09:04:23Z</time>
      </trkpt>
      <trkpt lat="43.78865" lon="5.29807">
        <ele>442</ele>
        <time>2011-02-27T09:04:34Z</time>
      </trkpt>
      <trkpt lat="43.78867" lon="5.29802">
        <ele>444</ele>
        <time>2011-02-27T09:04:45Z</time>
      </trkpt>
      <trkpt lat="43.78871" lon="5.29796">
        <ele>445</ele>
        <time>2011-02-27T09:04:57Z</time>
      </trkpt>
      <trkpt lat="43.78875" lon="5.29798">
        <ele>447</ele>
        <time>2011-02-27T09:05:07Z</time>
      </trkpt>
      <trkpt lat="43.78878" lon="5.29803">
        <ele>449</ele>
        <time>2011-02-27T09:05:19Z</time>
      </trkpt>
      <trkpt lat="43.78883" lon="5.29805">
        <ele>451</ele>
        <time>2011-02-27T09:05:29Z</time>
      </trkpt>
      <trkpt lat="43.78888" lon="5.29807">
        <ele>453</ele>
        <time>2011-02-27T09:05:40Z</time>
      </trkpt>
      <trkpt lat="43.78892" lon="5.29808">
        <ele>456</ele>
        <time>2011-02-27T09:05:51Z</time>
      </trkpt>
      <trkpt lat="43.78897" lon="5.29803">
        <ele>459</ele>
        <time>2011-02-27T09:06:05Z</time>
      </trkpt>
      <trkpt lat="43.78901" lon="5.29799">
        <ele>461</ele>
        <time>2011-02-27T09:06:16Z</time>
      </trkpt>
      <trkpt lat="43.78905" lon="5.29796">
        <ele>463</ele>
        <time>2011-02-27T09:06:28Z</time>
      </trkpt>
      <trkpt lat="43.78909" lon="5.29798">
        <ele>465</ele>
        <time>2011-02-27T09:06:38Z</time>
      </trkpt>
      <trkpt lat="43.78914" lon="5.29789">
        <ele>467</ele>
        <time>2011-02-27T09:06:51Z</time>
      </trkpt>
      <trkpt lat="43.78917" lon="5.29778">
        <ele>468</ele>
        <time>2011-02-27T09:07:02Z</time>
      </trkpt>
      <trkpt lat="43.78919" lon="5.29776">
        <ele>468</ele>
        <time>2011-02-27T09:07:14Z</time>
      </trkpt>
      <trkpt lat="43.78923" lon="5.29775">
        <ele>469</ele>
        <time>2011-02-27T09:07:26Z</time>
      </trkpt>
      <trkpt lat="43.78927" lon="5.29774">
        <ele>472</ele>
        <time>2011-02-27T09:07:38Z</time>
      </trkpt>
      <trkpt lat="43.78933" lon="5.29772">
        <ele>475</ele>
        <time>2011-02-27T09:07:52Z</time>
      </trkpt>
      <trkpt lat="43.78936" lon="5.29773">
        <ele>477</ele>
        <time>2011-02-27T09:08:03Z</time>
      </trkpt>
      <trkpt lat="43.7894" lon="5.29775">
        <ele>479</ele>
        <time>2011-02-27T09:08:16Z</time>
      </trkpt>
      <trkpt lat="43.78943" lon="5.29774">
        <ele>481</ele>
        <time>2011-02-27T09:08:27Z</time>
      </trkpt>
      <trkpt lat="43.78947" lon="5.29775">
        <ele>484</ele>
        <time>2011-02-27T09:08:41Z</time>
      </trkpt>
      <trkpt lat="43.78951" lon="5.29776">
        <ele>486</ele>
        <time>2011-02-27T09:08:52Z</time>
      </trkpt>
      <trkpt lat="43.78954" lon="5.29778">
        <ele>488</ele>
        <time>2011-02-27T09:09:03Z</time>
      </trkpt>
      <trkpt lat="43.78959" lon="5.29777">
        <ele>490</ele>
        <time>2011-02-27T09:09:14Z</time>
      </trkpt>
      <trkpt lat="43.78963" lon="5.29779">
        <ele>493</ele>
        <time>2011-02-27T09:09:24Z</time>
      </trkpt>
      <trkpt lat="43.78965" lon="5.29779">
        <ele>496</ele>
        <time>2011-02-27T09:09:38Z</time>
      </trkpt>
      <trkpt lat="43.78969" lon="5.29773">
        <ele>497</ele>
        <time>2011-02-27T09:09:49Z</time>
      </trkpt>
      <trkpt lat="43.78973" lon="5.29767">
        <ele>497</ele>
        <time>2011-02-27T09:09:59Z</time>
      </trkpt>
      <trkpt lat="43.78976" lon="5.29765">
        <ele>499</ele>
        <time>2011-02-27T09:10:11Z</time>
      </trkpt>
      <trkpt lat="43.78981" lon="5.29761">
        <ele>502</ele>
        <time>2011-02-27T09:10:24Z</time>
      </trkpt>
      <trkpt lat="43.78985" lon="5.29753">
        <ele>504</ele>
        <time>2011-02-27T09:10:36Z</time>
      </trkpt>
      <trkpt lat="43.78988" lon="5.29755">
        <ele>505</ele>
        <time>2011-02-27T09:10:46Z</time>
      </trkpt>
      <trkpt lat="43.7899" lon="5.29756">
        <ele>509</ele>
        <time>2011-02-27T09:11:18Z</time>
      </trkpt>
      <trkpt lat="43.78991" lon="5.29757">
        <ele>509</ele>
        <time>2011-02-27T09:11:31Z</time>
      </trkpt>
      <trkpt lat="43.78993" lon="5.29759">
        <ele>510</ele>
        <time>2011-02-27T09:11:45Z</time>
      </trkpt>
      <trkpt lat="43.78995" lon="5.29756">
        <ele>512</ele>
        <time>2011-02-27T09:11:58Z</time>
      </trkpt>
      <trkpt lat="43.78998" lon="5.29753">
        <ele>514</ele>
        <time>2011-02-27T09:12:13Z</time>
      </trkpt>
      <trkpt lat="43.78997" lon="5.29751">
        <ele>516</ele>
        <time>2011-02-27T09:12:32Z</time>
      </trkpt>
      <trkpt lat="43.78997" lon="5.29749">
        <ele>516</ele>
        <time>2011-02-27T09:12:48Z</time>
      </trkpt>
      <trkpt lat="43.78996" lon="5.29753">
        <ele>516</ele>
        <time>2011-02-27T09:13:01Z</time>
      </trkpt>
      <trkpt lat="43.78995" lon="5.29751">
        <ele>516</ele>
        <time>2011-02-27T09:13:22Z</time>
      </trkpt>
      <trkpt lat="43.78996" lon="5.29746">
        <ele>516</ele>
        <time>2011-02-27T09:14:45Z</time>
      </trkpt>
      <trkpt lat="43.78997" lon="5.29745">
        <ele>516</ele>
        <time>2011-02-27T09:14:56Z</time>
      </trkpt>
      <trkpt lat="43.78996" lon="5.29745">
        <ele>516</ele>
        <time>2011-02-27T09:15:20Z</time>
      </trkpt>
      <trkpt lat="43.78994" lon="5.29744">
        <ele>516</ele>
        <time>2011-02-27T09:16:18Z</time>
      </trkpt>
      <trkpt lat="43.78995" lon="5.29743">
        <ele>516</ele>
        <time>2011-02-27T09:16:35Z</time>
      </trkpt>
      <trkpt lat="43.78995" lon="5.29745">
        <ele>516</ele>
        <time>2011-02-27T09:16:46Z</time>
      </trkpt>
      <trkpt lat="43.78992" lon="5.29746">
        <ele>516</ele>
        <time>2011-02-27T09:16:57Z</time>
      </trkpt>
      <trkpt lat="43.78991" lon="5.29746">
        <ele>516</ele>
        <time>2011-02-27T09:17:19Z</time>
      </trkpt>
      <trkpt lat="43.78989" lon="5.29744">
        <ele>516</ele>
        <time>2011-02-27T09:17:34Z</time>
      </trkpt>
      <trkpt lat="43.78987" lon="5.29748">
        <ele>515</ele>
        <time>2011-02-27T09:17:53Z</time>
      </trkpt>
      <trkpt lat="43.78987" lon="5.29751">
        <ele>515</ele>
        <time>2011-02-27T09:18:19Z</time>
      </trkpt>
      <trkpt lat="43.78983" lon="5.29756">
        <ele>515</ele>
        <time>2011-02-27T09:18:29Z</time>
      </trkpt>
      <trkpt lat="43.78979" lon="5.29767">
        <ele>512</ele>
        <time>2011-02-27T09:18:39Z</time>
      </trkpt>
      <trkpt lat="43.78978" lon="5.29771">
        <ele>511</ele>
        <time>2011-02-27T09:18:55Z</time>
      </trkpt>
      <trkpt lat="43.78978" lon="5.29772">
        <ele>511</ele>
        <time>2011-02-27T09:19:15Z</time>
      </trkpt>
      <trkpt lat="43.78978" lon="5.29775">
        <ele>511</ele>
        <time>2011-02-27T09:19:25Z</time>
      </trkpt>
      <trkpt lat="43.78977" lon="5.29785">
        <ele>511</ele>
        <time>2011-02-27T09:19:36Z</time>
      </trkpt>
      <trkpt lat="43.78976" lon="5.2979">
        <ele>511</ele>
        <time>2011-02-27T09:19:47Z</time>
      </trkpt>
      <trkpt lat="43.78976" lon="5.29793">
        <ele>511</ele>
        <time>2011-02-27T09:19:57Z</time>
      </trkpt>
      <trkpt lat="43.78977" lon="5.29795">
        <ele>511</ele>
        <time>2011-02-27T09:20:08Z</time>
      </trkpt>
      <trkpt lat="43.78981" lon="5.29794">
        <ele>511</ele>
        <time>2011-02-27T09:20:20Z</time>
      </trkpt>
      <trkpt lat="43.78983" lon="5.29796">
        <ele>511</ele>
        <time>2011-02-27T09:20:31Z</time>
      </trkpt>
      <trkpt lat="43.78985" lon="5.29795">
        <ele>511</ele>
        <time>2011-02-27T09:20:48Z</time>
      </trkpt>
      <trkpt lat="43.78987" lon="5.29793">
        <ele>512</ele>
        <time>2011-02-27T09:20:58Z</time>
      </trkpt>
      <trkpt lat="43.7899" lon="5.29794">
        <ele>514</ele>
        <time>2011-02-27T09:21:09Z</time>
      </trkpt>
      <trkpt lat="43.78993" lon="5.29795">
        <ele>516</ele>
        <time>2011-02-27T09:21:20Z</time>
      </trkpt>
      <trkpt lat="43.78995" lon="5.29793">
        <ele>519</ele>
        <time>2011-02-27T09:21:39Z</time>
      </trkpt>
      <trkpt lat="43.78995" lon="5.2979">
        <ele>521</ele>
        <time>2011-02-27T09:21:51Z</time>
      </trkpt>
      <trkpt lat="43.78994" lon="5.29788">
        <ele>521</ele>
        <time>2011-02-27T09:22:02Z</time>
      </trkpt>
      <trkpt lat="43.78993" lon="5.29784">
        <ele>522</ele>
        <time>2011-02-27T09:22:13Z</time>
      </trkpt>
      <trkpt lat="43.78993" lon="5.29782">
        <ele>522</ele>
        <time>2011-02-27T09:22:30Z</time>
      </trkpt>
      <trkpt lat="43.78994" lon="5.29777">
        <ele>522</ele>
        <time>2011-02-27T09:22:41Z</time>
      </trkpt>
      <trkpt lat="43.78996" lon="5.29773">
        <ele>522</ele>
        <time>2011-02-27T09:23:07Z</time>
      </trkpt>
      <trkpt lat="43.78996" lon="5.29768">
        <ele>522</ele>
        <time>2011-02-27T09:23:19Z</time>
      </trkpt>
      <trkpt lat="43.78997" lon="5.29767">
        <ele>522</ele>
        <time>2011-02-27T09:23:37Z</time>
      </trkpt>
      <trkpt lat="43.78999" lon="5.29766">
        <ele>522</ele>
        <time>2011-02-27T09:23:53Z</time>
      </trkpt>
      <trkpt lat="43.79002" lon="5.2977">
        <ele>522</ele>
        <time>2011-02-27T09:24:03Z</time>
      </trkpt>
      <trkpt lat="43.79005" lon="5.29773">
        <ele>522</ele>
        <time>2011-02-27T09:24:16Z</time>
      </trkpt>
      <trkpt lat="43.79007" lon="5.2977">
        <ele>523</ele>
        <time>2011-02-27T09:24:27Z</time>
      </trkpt>
      <trkpt lat="43.7901" lon="5.29771">
        <ele>527</ele>
        <time>2011-02-27T09:24:41Z</time>
      </trkpt>
      <trkpt lat="43.79015" lon="5.29771">
        <ele>529</ele>
        <time>2011-02-27T09:24:52Z</time>
      </trkpt>
      <trkpt lat="43.79021" lon="5.29771">
        <ele>530</ele>
        <time>2011-02-27T09:25:02Z</time>
      </trkpt>
      <trkpt lat="43.79023" lon="5.29769">
        <ele>530</ele>
        <time>2011-02-27T09:25:18Z</time>
      </trkpt>
      <trkpt lat="43.79024" lon="5.29764">
        <ele>533</ele>
        <time>2011-02-27T09:25:29Z</time>
      </trkpt>
      <trkpt lat="43.79027" lon="5.29762">
        <ele>533</ele>
        <time>2011-02-27T09:25:42Z</time>
      </trkpt>
      <trkpt lat="43.79029" lon="5.29764">
        <ele>533</ele>
        <time>2011-02-27T09:25:56Z</time>
      </trkpt>
      <trkpt lat="43.79034" lon="5.29758">
        <ele>534</ele>
        <time>2011-02-27T09:26:07Z</time>
      </trkpt>
      <trkpt lat="43.79037" lon="5.29752">
        <ele>537</ele>
        <time>2011-02-27T09:26:19Z</time>
      </trkpt>
      <trkpt lat="43.79036" lon="5.29744">
        <ele>539</ele>
        <time>2011-02-27T09:26:29Z</time>
      </trkpt>
      <trkpt lat="43.79041" lon="5.29738">
        <ele>540</ele>
        <time>2011-02-27T09:26:40Z</time>
      </trkpt>
      <trkpt lat="43.79047" lon="5.29733">
        <ele>540</ele>
        <time>2011-02-27T09:26:54Z</time>
      </trkpt>
      <trkpt lat="43.79052" lon="5.29731">
        <ele>541</ele>
        <time>2011-02-27T09:27:10Z</time>
      </trkpt>
      <trkpt lat="43.79056" lon="5.2973">
        <ele>543</ele>
        <time>2011-02-27T09:27:22Z</time>
      </trkpt>
      <trkpt lat="43.79064" lon="5.29729">
        <ele>544</ele>
        <time>2011-02-27T09:27:32Z</time>
      </trkpt>
      <trkpt lat="43.7907" lon="5.29729">
        <ele>545</ele>
        <time>2011-02-27T09:27:43Z</time>
      </trkpt>
      <trkpt lat="43.79074" lon="5.29728">
        <ele>546</ele>
        <time>2011-02-27T09:27:55Z</time>
      </trkpt>
      <trkpt lat="43.79081" lon="5.2973">
        <ele>547</ele>
        <time>2011-02-27T09:28:06Z</time>
      </trkpt>
      <trkpt lat="43.79087" lon="5.29732">
        <ele>547</ele>
        <time>2011-02-27T09:28:18Z</time>
      </trkpt>
      <trkpt lat="43.79089" lon="5.29727">
        <ele>548</ele>
        <time>2011-02-27T09:28:29Z</time>
      </trkpt>
      <trkpt lat="43.79092" lon="5.29721">
        <ele>550</ele>
        <time>2011-02-27T09:28:39Z</time>
      </trkpt>
      <trkpt lat="43.79095" lon="5.29716">
        <ele>550</ele>
        <time>2011-02-27T09:28:50Z</time>
      </trkpt>
      <trkpt lat="43.79099" lon="5.29717">
        <ele>551</ele>
        <time>2011-02-27T09:29:12Z</time>
      </trkpt>
      <trkpt lat="43.79103" lon="5.29719">
        <ele>554</ele>
        <time>2011-02-27T09:29:24Z</time>
      </trkpt>
      <trkpt lat="43.79107" lon="5.29718">
        <ele>555</ele>
        <time>2011-02-27T09:29:34Z</time>
      </trkpt>
      <trkpt lat="43.7911" lon="5.29716">
        <ele>555</ele>
        <time>2011-02-27T09:29:45Z</time>
      </trkpt>
      <trkpt lat="43.79111" lon="5.29715">
        <ele>556</ele>
        <time>2011-02-27T09:29:56Z</time>
      </trkpt>
      <trkpt lat="43.79115" lon="5.29711">
        <ele>557</ele>
        <time>2011-02-27T09:30:07Z</time>
      </trkpt>
      <trkpt lat="43.79119" lon="5.29709">
        <ele>559</ele>
        <time>2011-02-27T09:30:20Z</time>
      </trkpt>
      <trkpt lat="43.79124" lon="5.29707">
        <ele>560</ele>
        <time>2011-02-27T09:30:34Z</time>
      </trkpt>
      <trkpt lat="43.79131" lon="5.29707">
        <ele>561</ele>
        <time>2011-02-27T09:30:44Z</time>
      </trkpt>
      <trkpt lat="43.79138" lon="5.29708">
        <ele>564</ele>
        <time>2011-02-27T09:30:55Z</time>
      </trkpt>
      <trkpt lat="43.79148" lon="5.29702">
        <ele>566</ele>
        <time>2011-02-27T09:31:06Z</time>
      </trkpt>
      <trkpt lat="43.79155" lon="5.29695">
        <ele>567</ele>
        <time>2011-02-27T09:31:16Z</time>
      </trkpt>
      <trkpt lat="43.79162" lon="5.29697">
        <ele>567</ele>
        <time>2011-02-27T09:31:26Z</time>
      </trkpt>
      <trkpt lat="43.79162" lon="5.297">
        <ele>567</ele>
        <time>2011-02-27T09:31:37Z</time>
      </trkpt>
      <trkpt lat="43.79168" lon="5.29704">
        <ele>567</ele>
        <time>2011-02-27T09:31:51Z</time>
      </trkpt>
      <trkpt lat="43.79172" lon="5.29702">
        <ele>567</ele>
        <time>2011-02-27T09:32:05Z</time>
      </trkpt>
      <trkpt lat="43.79179" lon="5.29692">
        <ele>567</ele>
        <time>2011-02-27T09:32:16Z</time>
      </trkpt>
      <trkpt lat="43.7918" lon="5.29692">
        <ele>568</ele>
        <time>2011-02-27T09:32:58Z</time>
      </trkpt>
      <trkpt lat="43.79182" lon="5.29692">
        <ele>569</ele>
        <time>2011-02-27T09:33:47Z</time>
      </trkpt>
      <trkpt lat="43.79181" lon="5.2969">
        <ele>569</ele>
        <time>2011-02-27T09:34:20Z</time>
      </trkpt>
      <trkpt lat="43.79181" lon="5.29692">
        <ele>570</ele>
        <time>2011-02-27T09:34:45Z</time>
      </trkpt>
      <trkpt lat="43.79182" lon="5.2969">
        <ele>573</ele>
        <time>2011-02-27T09:35:04Z</time>
      </trkpt>
      <trkpt lat="43.79183" lon="5.29688">
        <ele>575</ele>
        <time>2011-02-27T09:35:31Z</time>
      </trkpt>
      <trkpt lat="43.79192" lon="5.29681">
        <ele>575</ele>
        <time>2011-02-27T09:35:41Z</time>
      </trkpt>
      <trkpt lat="43.79201" lon="5.29674">
        <ele>575</ele>
        <time>2011-02-27T09:35:51Z</time>
      </trkpt>
      <trkpt lat="43.79212" lon="5.29665">
        <ele>573</ele>
        <time>2011-02-27T09:36:01Z</time>
      </trkpt>
      <trkpt lat="43.79222" lon="5.29656">
        <ele>572</ele>
        <time>2011-02-27T09:36:11Z</time>
      </trkpt>
      <trkpt lat="43.79233" lon="5.29647">
        <ele>572</ele>
        <time>2011-02-27T09:36:22Z</time>
      </trkpt>
      <trkpt lat="43.79245" lon="5.29637">
        <ele>572</ele>
        <time>2011-02-27T09:36:33Z</time>
      </trkpt>
      <trkpt lat="43.79253" lon="5.29628">
        <ele>572</ele>
        <time>2011-02-27T09:36:43Z</time>
      </trkpt>
      <trkpt lat="43.79263" lon="5.29621">
        <ele>572</ele>
        <time>2011-02-27T09:36:53Z</time>
      </trkpt>
      <trkpt lat="43.79273" lon="5.29617">
        <ele>572</ele>
        <time>2011-02-27T09:37:03Z</time>
      </trkpt>
      <trkpt lat="43.79285" lon="5.29618">
        <ele>572</ele>
        <time>2011-02-27T09:37:14Z</time>
      </trkpt>
      <trkpt lat="43.79296" lon="5.29618">
        <ele>572</ele>
        <time>2011-02-27T09:37:24Z</time>
      </trkpt>
      <trkpt lat="43.79306" lon="5.29618">
        <ele>573</ele>
        <time>2011-02-27T09:37:34Z</time>
      </trkpt>
      <trkpt lat="43.79317" lon="5.29618">
        <ele>573</ele>
        <time>2011-02-27T09:37:44Z</time>
      </trkpt>
      <trkpt lat="43.79328" lon="5.29616">
        <ele>573</ele>
        <time>2011-02-27T09:37:54Z</time>
      </trkpt>
      <trkpt lat="43.7934" lon="5.29611">
        <ele>573</ele>
        <time>2011-02-27T09:38:05Z</time>
      </trkpt>
      <trkpt lat="43.79351" lon="5.296">
        <ele>574</ele>
        <time>2011-02-27T09:38:16Z</time>
      </trkpt>
      <trkpt lat="43.79358" lon="5.29588">
        <ele>574</ele>
        <time>2011-02-27T09:38:26Z</time>
      </trkpt>
      <trkpt lat="43.79364" lon="5.29574">
        <ele>574</ele>
        <time>2011-02-27T09:38:37Z</time>
      </trkpt>
      <trkpt lat="43.7937" lon="5.2956">
        <ele>574</ele>
        <time>2011-02-27T09:38:48Z</time>
      </trkpt>
      <trkpt lat="43.79375" lon="5.29546">
        <ele>574</ele>
        <time>2011-02-27T09:38:59Z</time>
      </trkpt>
      <trkpt lat="43.79383" lon="5.29535">
        <ele>574</ele>
        <time>2011-02-27T09:39:09Z</time>
      </trkpt>
      <trkpt lat="43.79392" lon="5.29524">
        <ele>575</ele>
        <time>2011-02-27T09:39:19Z</time>
      </trkpt>
      <trkpt lat="43.79401" lon="5.29515">
        <ele>575</ele>
        <time>2011-02-27T09:39:29Z</time>
      </trkpt>
      <trkpt lat="43.79411" lon="5.29506">
        <ele>575</ele>
        <time>2011-02-27T09:39:39Z</time>
      </trkpt>
      <trkpt lat="43.7942" lon="5.29498">
        <ele>575</ele>
        <time>2011-02-27T09:39:49Z</time>
      </trkpt>
      <trkpt lat="43.79428" lon="5.29489">
        <ele>575</ele>
        <time>2011-02-27T09:39:59Z</time>
      </trkpt>
      <trkpt lat="43.79438" lon="5.2948">
        <ele>575</ele>
        <time>2011-02-27T09:40:09Z</time>
      </trkpt>
      <trkpt lat="43.79446" lon="5.2947">
        <ele>575</ele>
        <time>2011-02-27T09:40:19Z</time>
      </trkpt>
      <trkpt lat="43.79457" lon="5.29457">
        <ele>575</ele>
        <time>2011-02-27T09:40:30Z</time>
      </trkpt>
      <trkpt lat="43.79467" lon="5.29447">
        <ele>575</ele>
        <time>2011-02-27T09:40:40Z</time>
      </trkpt>
      <trkpt lat="43.79479" lon="5.29442">
        <ele>575</ele>
        <time>2011-02-27T09:40:51Z</time>
      </trkpt>
      <trkpt lat="43.7949" lon="5.29439">
        <ele>575</ele>
        <time>2011-02-27T09:41:02Z</time>
      </trkpt>
      <trkpt lat="43.795" lon="5.29437">
        <ele>575</ele>
        <time>2011-02-27T09:41:12Z</time>
      </trkpt>
      <trkpt lat="43.79513" lon="5.29435">
        <ele>575</ele>
        <time>2011-02-27T09:41:22Z</time>
      </trkpt>
      <trkpt lat="43.79523" lon="5.29438">
        <ele>575</ele>
        <time>2011-02-27T09:41:32Z</time>
      </trkpt>
      <trkpt lat="43.79532" lon="5.29445">
        <ele>575</ele>
        <time>2011-02-27T09:41:42Z</time>
      </trkpt>
      <trkpt lat="43.79539" lon="5.29456">
        <ele>575</ele>
        <time>2011-02-27T09:41:53Z</time>
      </trkpt>
      <trkpt lat="43.79542" lon="5.2947">
        <ele>575</ele>
        <time>2011-02-27T09:42:03Z</time>
      </trkpt>
      <trkpt lat="43.79546" lon="5.29483">
        <ele>575</ele>
        <time>2011-02-27T09:42:13Z</time>
      </trkpt>
      <trkpt lat="43.79551" lon="5.29495">
        <ele>576</ele>
        <time>2011-02-27T09:42:23Z</time>
      </trkpt>
      <trkpt lat="43.79557" lon="5.29507">
        <ele>576</ele>
        <time>2011-02-27T09:42:34Z</time>
      </trkpt>
      <trkpt lat="43.79563" lon="5.29516">
        <ele>576</ele>
        <time>2011-02-27T09:42:44Z</time>
      </trkpt>
      <trkpt lat="43.79571" lon="5.29524">
        <ele>576</ele>
        <time>2011-02-27T09:42:54Z</time>
      </trkpt>
      <trkpt lat="43.7958" lon="5.2953">
        <ele>576</ele>
        <time>2011-02-27T09:43:04Z</time>
      </trkpt>
      <trkpt lat="43.79594" lon="5.2953">
        <ele>578</ele>
        <time>2011-02-27T09:43:14Z</time>
      </trkpt>
      <trkpt lat="43.79606" lon="5.29527">
        <ele>581</ele>
        <time>2011-02-27T09:43:25Z</time>
      </trkpt>
      <trkpt lat="43.79617" lon="5.29523">
        <ele>582</ele>
        <time>2011-02-27T09:43:35Z</time>
      </trkpt>
      <trkpt lat="43.79629" lon="5.29518">
        <ele>584</ele>
        <time>2011-02-27T09:43:45Z</time>
      </trkpt>
      <trkpt lat="43.7964" lon="5.29509">
        <ele>587</ele>
        <time>2011-02-27T09:43:55Z</time>
      </trkpt>
      <trkpt lat="43.7965" lon="5.295">
        <ele>590</ele>
        <time>2011-02-27T09:44:05Z</time>
      </trkpt>
      <trkpt lat="43.7966" lon="5.29489">
        <ele>592</ele>
        <time>2011-02-27T09:44:16Z</time>
      </trkpt>
      <trkpt lat="43.7967" lon="5.29478">
        <ele>593</ele>
        <time>2011-02-27T09:44:26Z</time>
      </trkpt>
      <trkpt lat="43.79681" lon="5.29464">
        <ele>593</ele>
        <time>2011-02-27T09:44:37Z</time>
      </trkpt>
      <trkpt lat="43.79688" lon="5.29453">
        <ele>593</ele>
        <time>2011-02-27T09:44:47Z</time>
      </trkpt>
      <trkpt lat="43.79695" lon="5.29441">
        <ele>593</ele>
        <time>2011-02-27T09:44:57Z</time>
      </trkpt>
      <trkpt lat="43.79704" lon="5.29427">
        <ele>593</ele>
        <time>2011-02-27T09:45:07Z</time>
      </trkpt>
      <trkpt lat="43.79712" lon="5.29413">
        <ele>593</ele>
        <time>2011-02-27T09:45:17Z</time>
      </trkpt>
      <trkpt lat="43.79719" lon="5.29399">
        <ele>593</ele>
        <time>2011-02-27T09:45:27Z</time>
      </trkpt>
      <trkpt lat="43.79728" lon="5.29384">
        <ele>594</ele>
        <time>2011-02-27T09:45:37Z</time>
      </trkpt>
      <trkpt lat="43.79736" lon="5.29369">
        <ele>594</ele>
        <time>2011-02-27T09:45:47Z</time>
      </trkpt>
      <trkpt lat="43.79743" lon="5.29354">
        <ele>594</ele>
        <time>2011-02-27T09:45:57Z</time>
      </trkpt>
      <trkpt lat="43.79752" lon="5.29339">
        <ele>594</ele>
        <time>2011-02-27T09:46:08Z</time>
      </trkpt>
      <trkpt lat="43.7976" lon="5.29325">
        <ele>595</ele>
        <time>2011-02-27T09:46:18Z</time>
      </trkpt>
      <trkpt lat="43.79768" lon="5.2931">
        <ele>596</ele>
        <time>2011-02-27T09:46:28Z</time>
      </trkpt>
      <trkpt lat="43.79776" lon="5.29297">
        <ele>597</ele>
        <time>2011-02-27T09:46:38Z</time>
      </trkpt>
      <trkpt lat="43.79784" lon="5.29283">
        <ele>598</ele>
        <time>2011-02-27T09:46:48Z</time>
      </trkpt>
      <trkpt lat="43.79791" lon="5.29269">
        <ele>599</ele>
        <time>2011-02-27T09:46:58Z</time>
      </trkpt>
      <trkpt lat="43.79799" lon="5.29254">
        <ele>600</ele>
        <time>2011-02-27T09:47:09Z</time>
      </trkpt>
      <trkpt lat="43.79807" lon="5.29239">
        <ele>600</ele>
        <time>2011-02-27T09:47:19Z</time>
      </trkpt>
      <trkpt lat="43.79814" lon="5.29224">
        <ele>601</ele>
        <time>2011-02-27T09:47:29Z</time>
      </trkpt>
      <trkpt lat="43.79816" lon="5.29209">
        <ele>601</ele>
        <time>2011-02-27T09:47:39Z</time>
      </trkpt>
      <trkpt lat="43.79815" lon="5.2919">
        <ele>603</ele>
        <time>2011-02-27T09:47:49Z</time>
      </trkpt>
      <trkpt lat="43.79815" lon="5.29172">
        <ele>603</ele>
        <time>2011-02-27T09:47:59Z</time>
      </trkpt>
      <trkpt lat="43.79815" lon="5.29154">
        <ele>603</ele>
        <time>2011-02-27T09:48:09Z</time>
      </trkpt>
      <trkpt lat="43.79814" lon="5.29136">
        <ele>603</ele>
        <time>2011-02-27T09:48:19Z</time>
      </trkpt>
      <trkpt lat="43.79814" lon="5.29116">
        <ele>603</ele>
        <time>2011-02-27T09:48:29Z</time>
      </trkpt>
      <trkpt lat="43.79814" lon="5.29097">
        <ele>603</ele>
        <time>2011-02-27T09:48:39Z</time>
      </trkpt>
      <trkpt lat="43.79813" lon="5.29077">
        <ele>603</ele>
        <time>2011-02-27T09:48:49Z</time>
      </trkpt>
      <trkpt lat="43.79813" lon="5.29058">
        <ele>603</ele>
        <time>2011-02-27T09:48:59Z</time>
      </trkpt>
      <trkpt lat="43.79814" lon="5.29038">
        <ele>603</ele>
        <time>2011-02-27T09:49:09Z</time>
      </trkpt>
      <trkpt lat="43.79815" lon="5.29019">
        <ele>603</ele>
        <time>2011-02-27T09:49:19Z</time>
      </trkpt>
      <trkpt lat="43.79815" lon="5.29001">
        <ele>603</ele>
        <time>2011-02-27T09:49:29Z</time>
      </trkpt>
      <trkpt lat="43.79814" lon="5.28982">
        <ele>603</ele>
        <time>2011-02-27T09:49:39Z</time>
      </trkpt>
      <trkpt lat="43.79814" lon="5.28963">
        <ele>604</ele>
        <time>2011-02-27T09:49:49Z</time>
      </trkpt>
      <trkpt lat="43.79813" lon="5.28945">
        <ele>604</ele>
        <time>2011-02-27T09:49:59Z</time>
      </trkpt>
      <trkpt lat="43.79812" lon="5.28926">
        <ele>605</ele>
        <time>2011-02-27T09:50:09Z</time>
      </trkpt>
      <trkpt lat="43.7981" lon="5.28907">
        <ele>605</ele>
        <time>2011-02-27T09:50:19Z</time>
      </trkpt>
      <trkpt lat="43.79809" lon="5.28889">
        <ele>606</ele>
        <time>2011-02-27T09:50:29Z</time>
      </trkpt>
      <trkpt lat="43.79808" lon="5.28869">
        <ele>608</ele>
        <time>2011-02-27T09:50:39Z</time>
      </trkpt>
      <trkpt lat="43.79807" lon="5.28851">
        <ele>609</ele>
        <time>2011-02-27T09:50:49Z</time>
      </trkpt>
      <trkpt lat="43.79807" lon="5.28832">
        <ele>610</ele>
        <time>2011-02-27T09:50:59Z</time>
      </trkpt>
      <trkpt lat="43.79808" lon="5.28813">
        <ele>611</ele>
        <time>2011-02-27T09:51:09Z</time>
      </trkpt>
      <trkpt lat="43.79809" lon="5.28793">
        <ele>612</ele>
        <time>2011-02-27T09:51:19Z</time>
      </trkpt>
      <trkpt lat="43.79814" lon="5.28776">
        <ele>612</ele>
        <time>2011-02-27T09:51:29Z</time>
      </trkpt>
      <trkpt lat="43.79819" lon="5.28759">
        <ele>612</ele>
        <time>2011-02-27T09:51:39Z</time>
      </trkpt>
      <trkpt lat="43.79824" lon="5.28741">
        <ele>612</ele>
        <time>2011-02-27T09:51:49Z</time>
      </trkpt>
      <trkpt lat="43.79829" lon="5.28722">
        <ele>613</ele>
        <time>2011-02-27T09:51:59Z</time>
      </trkpt>
      <trkpt lat="43.79834" lon="5.28705">
        <ele>614</ele>
        <time>2011-02-27T09:52:09Z</time>
      </trkpt>
      <trkpt lat="43.79839" lon="5.28687">
        <ele>614</ele>
        <time>2011-02-27T09:52:19Z</time>
      </trkpt>
      <trkpt lat="43.79845" lon="5.28667">
        <ele>615</ele>
        <time>2011-02-27T09:52:30Z</time>
      </trkpt>
      <trkpt lat="43.7985" lon="5.28647">
        <ele>616</ele>
        <time>2011-02-27T09:52:41Z</time>
      </trkpt>
      <trkpt lat="43.79855" lon="5.28629">
        <ele>617</ele>
        <time>2011-02-27T09:52:51Z</time>
      </trkpt>
      <trkpt lat="43.79859" lon="5.28612">
        <ele>619</ele>
        <time>2011-02-27T09:53:01Z</time>
      </trkpt>
      <trkpt lat="43.79864" lon="5.28595">
        <ele>619</ele>
        <time>2011-02-27T09:53:11Z</time>
      </trkpt>
      <trkpt lat="43.7987" lon="5.28577">
        <ele>621</ele>
        <time>2011-02-27T09:53:22Z</time>
      </trkpt>
      <trkpt lat="43.79875" lon="5.28559">
        <ele>622</ele>
        <time>2011-02-27T09:53:33Z</time>
      </trkpt>
      <trkpt lat="43.79881" lon="5.28544">
        <ele>624</ele>
        <time>2011-02-27T09:53:43Z</time>
      </trkpt>
      <trkpt lat="43.79885" lon="5.28527">
        <ele>625</ele>
        <time>2011-02-27T09:53:53Z</time>
      </trkpt>
      <trkpt lat="43.79887" lon="5.28508">
        <ele>627</ele>
        <time>2011-02-27T09:54:04Z</time>
      </trkpt>
      <trkpt lat="43.79891" lon="5.28489">
        <ele>628</ele>
        <time>2011-02-27T09:54:15Z</time>
      </trkpt>
      <trkpt lat="43.79895" lon="5.28471">
        <ele>629</ele>
        <time>2011-02-27T09:54:26Z</time>
      </trkpt>
      <trkpt lat="43.79895" lon="5.28459">
        <ele>632</ele>
        <time>2011-02-27T09:54:55Z</time>
      </trkpt>
      <trkpt lat="43.79895" lon="5.28446">
        <ele>633</ele>
        <time>2011-02-27T09:55:06Z</time>
      </trkpt>
      <trkpt lat="43.79896" lon="5.28438">
        <ele>634</ele>
        <time>2011-02-27T09:55:18Z</time>
      </trkpt>
      <trkpt lat="43.79896" lon="5.28433">
        <ele>635</ele>
        <time>2011-02-27T09:55:36Z</time>
      </trkpt>
      <trkpt lat="43.79896" lon="5.28429">
        <ele>635</ele>
        <time>2011-02-27T09:55:57Z</time>
      </trkpt>
      <trkpt lat="43.79895" lon="5.28426">
        <ele>636</ele>
        <time>2011-02-27T09:56:34Z</time>
      </trkpt>
      <trkpt lat="43.79898" lon="5.28431">
        <ele>637</ele>
        <time>2011-02-27T09:56:47Z</time>
      </trkpt>
      <trkpt lat="43.79896" lon="5.28431">
        <ele>637</ele>
        <time>2011-02-27T09:57:06Z</time>
      </trkpt>
      <trkpt lat="43.79893" lon="5.28427">
        <ele>637</ele>
        <time>2011-02-27T09:57:17Z</time>
      </trkpt>
      <trkpt lat="43.79895" lon="5.28429">
        <ele>637</ele>
        <time>2011-02-27T09:57:41Z</time>
      </trkpt>
      <trkpt lat="43.79898" lon="5.2843">
        <ele>637</ele>
        <time>2011-02-27T09:58:14Z</time>
      </trkpt>
      <trkpt lat="43.79897" lon="5.28432">
        <ele>637</ele>
        <time>2011-02-27T10:01:10Z</time>
      </trkpt>
      <trkpt lat="43.79898" lon="5.2843">
        <ele>637</ele>
        <time>2011-02-27T10:02:00Z</time>
      </trkpt>
      <trkpt lat="43.79899" lon="5.28431">
        <ele>637</ele>
        <time>2011-02-27T10:03:02Z</time>
      </trkpt>
      <trkpt lat="43.79897" lon="5.28431">
        <ele>637</ele>
        <time>2011-02-27T10:03:12Z</time>
      </trkpt>
      <trkpt lat="43.79896" lon="5.28424">
        <ele>637</ele>
        <time>2011-02-27T10:03:22Z</time>
      </trkpt>
      <trkpt lat="43.79896" lon="5.28412">
        <ele>637</ele>
        <time>2011-02-27T10:03:32Z</time>
      </trkpt>
      <trkpt lat="43.79894" lon="5.28398">
        <ele>637</ele>
        <time>2011-02-27T10:03:42Z</time>
      </trkpt>
      <trkpt lat="43.79888" lon="5.28384">
        <ele>637</ele>
        <time>2011-02-27T10:03:53Z</time>
      </trkpt>
      <trkpt lat="43.79879" lon="5.28373">
        <ele>637</ele>
        <time>2011-02-27T10:04:03Z</time>
      </trkpt>
      <trkpt lat="43.7987" lon="5.28364">
        <ele>637</ele>
        <time>2011-02-27T10:04:13Z</time>
      </trkpt>
      <trkpt lat="43.79858" lon="5.28356">
        <ele>638</ele>
        <time>2011-02-27T10:04:23Z</time>
      </trkpt>
      <trkpt lat="43.79847" lon="5.28345">
        <ele>640</ele>
        <time>2011-02-27T10:04:34Z</time>
      </trkpt>
      <trkpt lat="43.79841" lon="5.28335">
        <ele>640</ele>
        <time>2011-02-27T10:04:44Z</time>
      </trkpt>
      <trkpt lat="43.79847" lon="5.28325">
        <ele>640</ele>
        <time>2011-02-27T10:04:54Z</time>
      </trkpt>
      <trkpt lat="43.79858" lon="5.28316">
        <ele>642</ele>
        <time>2011-02-27T10:05:05Z</time>
      </trkpt>
      <trkpt lat="43.79867" lon="5.28307">
        <ele>642</ele>
        <time>2011-02-27T10:05:15Z</time>
      </trkpt>
      <trkpt lat="43.79877" lon="5.28293">
        <ele>644</ele>
        <time>2011-02-27T10:05:26Z</time>
      </trkpt>
      <trkpt lat="43.79885" lon="5.28282">
        <ele>646</ele>
        <time>2011-02-27T10:05:36Z</time>
      </trkpt>
      <trkpt lat="43.79895" lon="5.28268">
        <ele>647</ele>
        <time>2011-02-27T10:05:47Z</time>
      </trkpt>
      <trkpt lat="43.79903" lon="5.28257">
        <ele>648</ele>
        <time>2011-02-27T10:05:57Z</time>
      </trkpt>
      <trkpt lat="43.79912" lon="5.28246">
        <ele>648</ele>
        <time>2011-02-27T10:06:07Z</time>
      </trkpt>
      <trkpt lat="43.79919" lon="5.28232">
        <ele>649</ele>
        <time>2011-02-27T10:06:17Z</time>
      </trkpt>
      <trkpt lat="43.79927" lon="5.28219">
        <ele>650</ele>
        <time>2011-02-27T10:06:28Z</time>
      </trkpt>
      <trkpt lat="43.79935" lon="5.28206">
        <ele>652</ele>
        <time>2011-02-27T10:06:38Z</time>
      </trkpt>
      <trkpt lat="43.79943" lon="5.28192">
        <ele>653</ele>
        <time>2011-02-27T10:06:49Z</time>
      </trkpt>
      <trkpt lat="43.7995" lon="5.2818">
        <ele>653</ele>
        <time>2011-02-27T10:06:59Z</time>
      </trkpt>
      <trkpt lat="43.79958" lon="5.28168">
        <ele>655</ele>
        <time>2011-02-27T10:07:09Z</time>
      </trkpt>
      <trkpt lat="43.79965" lon="5.28155">
        <ele>655</ele>
        <time>2011-02-27T10:07:19Z</time>
      </trkpt>
      <trkpt lat="43.79973" lon="5.28141">
        <ele>657</ele>
        <time>2011-02-27T10:07:30Z</time>
      </trkpt>
      <trkpt lat="43.79977" lon="5.28127">
        <ele>658</ele>
        <time>2011-02-27T10:07:40Z</time>
      </trkpt>
      <trkpt lat="43.79982" lon="5.28112">
        <ele>659</ele>
        <time>2011-02-27T10:07:50Z</time>
      </trkpt>
      <trkpt lat="43.79983" lon="5.28095">
        <ele>661</ele>
        <time>2011-02-27T10:08:00Z</time>
      </trkpt>
      <trkpt lat="43.79982" lon="5.28079">
        <ele>663</ele>
        <time>2011-02-27T10:08:10Z</time>
      </trkpt>
      <trkpt lat="43.79981" lon="5.28062">
        <ele>664</ele>
        <time>2011-02-27T10:08:20Z</time>
      </trkpt>
      <trkpt lat="43.79981" lon="5.28049">
        <ele>665</ele>
        <time>2011-02-27T10:08:30Z</time>
      </trkpt>
      <trkpt lat="43.7998" lon="5.28033">
        <ele>665</ele>
        <time>2011-02-27T10:08:40Z</time>
      </trkpt>
      <trkpt lat="43.79979" lon="5.28017">
        <ele>666</ele>
        <time>2011-02-27T10:08:50Z</time>
      </trkpt>
      <trkpt lat="43.7998" lon="5.28001">
        <ele>667</ele>
        <time>2011-02-27T10:09:00Z</time>
      </trkpt>
      <trkpt lat="43.79982" lon="5.27985">
        <ele>668</ele>
        <time>2011-02-27T10:09:10Z</time>
      </trkpt>
      <trkpt lat="43.79983" lon="5.27968">
        <ele>669</ele>
        <time>2011-02-27T10:09:20Z</time>
      </trkpt>
      <trkpt lat="43.79985" lon="5.27951">
        <ele>670</ele>
        <time>2011-02-27T10:09:30Z</time>
      </trkpt>
      <trkpt lat="43.79987" lon="5.27934">
        <ele>671</ele>
        <time>2011-02-27T10:09:40Z</time>
      </trkpt>
      <trkpt lat="43.7999" lon="5.27916">
        <ele>672</ele>
        <time>2011-02-27T10:09:50Z</time>
      </trkpt>
      <trkpt lat="43.79996" lon="5.27898">
        <ele>673</ele>
        <time>2011-02-27T10:10:01Z</time>
      </trkpt>
      <trkpt lat="43.80002" lon="5.27883">
        <ele>674</ele>
        <time>2011-02-27T10:10:12Z</time>
      </trkpt>
      <trkpt lat="43.80006" lon="5.27868">
        <ele>674</ele>
        <time>2011-02-27T10:10:22Z</time>
      </trkpt>
      <trkpt lat="43.80008" lon="5.27862">
        <ele>674</ele>
        <time>2011-02-27T10:10:33Z</time>
      </trkpt>
      <trkpt lat="43.80003" lon="5.27876">
        <ele>674</ele>
        <time>2011-02-27T10:10:43Z</time>
      </trkpt>
      <trkpt lat="43.79998" lon="5.27889">
        <ele>674</ele>
        <time>2011-02-27T10:10:53Z</time>
      </trkpt>
      <trkpt lat="43.79989" lon="5.27901">
        <ele>674</ele>
        <time>2011-02-27T10:11:04Z</time>
      </trkpt>
      <trkpt lat="43.79988" lon="5.27893">
        <ele>674</ele>
        <time>2011-02-27T10:11:39Z</time>
      </trkpt>
      <trkpt lat="43.79989" lon="5.27895">
        <ele>676</ele>
        <time>2011-02-27T10:11:54Z</time>
      </trkpt>
      <trkpt lat="43.79991" lon="5.27901">
        <ele>677</ele>
        <time>2011-02-27T10:12:04Z</time>
      </trkpt>
      <trkpt lat="43.79995" lon="5.27898">
        <ele>677</ele>
        <time>2011-02-27T10:12:14Z</time>
      </trkpt>
      <trkpt lat="43.79999" lon="5.27887">
        <ele>677</ele>
        <time>2011-02-27T10:12:24Z</time>
      </trkpt>
      <trkpt lat="43.80005" lon="5.27874">
        <ele>677</ele>
        <time>2011-02-27T10:12:35Z</time>
      </trkpt>
      <trkpt lat="43.8001" lon="5.27858">
        <ele>677</ele>
        <time>2011-02-27T10:12:45Z</time>
      </trkpt>
      <trkpt lat="43.80015" lon="5.27846">
        <ele>677</ele>
        <time>2011-02-27T10:12:55Z</time>
      </trkpt>
      <trkpt lat="43.80017" lon="5.27838">
        <ele>677</ele>
        <time>2011-02-27T10:13:08Z</time>
      </trkpt>
      <trkpt lat="43.80023" lon="5.27828">
        <ele>677</ele>
        <time>2011-02-27T10:13:19Z</time>
      </trkpt>
      <trkpt lat="43.80028" lon="5.27815">
        <ele>677</ele>
        <time>2011-02-27T10:13:30Z</time>
      </trkpt>
      <trkpt lat="43.80033" lon="5.27802">
        <ele>677</ele>
        <time>2011-02-27T10:13:41Z</time>
      </trkpt>
      <trkpt lat="43.80038" lon="5.27791">
        <ele>677</ele>
        <time>2011-02-27T10:13:51Z</time>
      </trkpt>
      <trkpt lat="43.80043" lon="5.27781">
        <ele>677</ele>
        <time>2011-02-27T10:14:01Z</time>
      </trkpt>
      <trkpt lat="43.80047" lon="5.27771">
        <ele>677</ele>
        <time>2011-02-27T10:14:11Z</time>
      </trkpt>
      <trkpt lat="43.80051" lon="5.27759">
        <ele>678</ele>
        <time>2011-02-27T10:14:21Z</time>
      </trkpt>
      <trkpt lat="43.80056" lon="5.27746">
        <ele>679</ele>
        <time>2011-02-27T10:14:32Z</time>
      </trkpt>
      <trkpt lat="43.80061" lon="5.27733">
        <ele>680</ele>
        <time>2011-02-27T10:14:43Z</time>
      </trkpt>
      <trkpt lat="43.80067" lon="5.27721">
        <ele>681</ele>
        <time>2011-02-27T10:14:53Z</time>
      </trkpt>
      <trkpt lat="43.80073" lon="5.27708">
        <ele>682</ele>
        <time>2011-02-27T10:15:03Z</time>
      </trkpt>
      <trkpt lat="43.80079" lon="5.27697">
        <ele>683</ele>
        <time>2011-02-27T10:15:13Z</time>
      </trkpt>
      <trkpt lat="43.80087" lon="5.27686">
        <ele>684</ele>
        <time>2011-02-27T10:15:23Z</time>
      </trkpt>
      <trkpt lat="43.80096" lon="5.27675">
        <ele>685</ele>
        <time>2011-02-27T10:15:33Z</time>
      </trkpt>
      <trkpt lat="43.80107" lon="5.27665">
        <ele>686</ele>
        <time>2011-02-27T10:15:44Z</time>
      </trkpt>
      <trkpt lat="43.80119" lon="5.27658">
        <ele>687</ele>
        <time>2011-02-27T10:15:54Z</time>
      </trkpt>
      <trkpt lat="43.8013" lon="5.27655">
        <ele>687</ele>
        <time>2011-02-27T10:16:04Z</time>
      </trkpt>
      <trkpt lat="43.80142" lon="5.27654">
        <ele>688</ele>
        <time>2011-02-27T10:16:15Z</time>
      </trkpt>
      <trkpt lat="43.80154" lon="5.27653">
        <ele>688</ele>
        <time>2011-02-27T10:16:25Z</time>
      </trkpt>
      <trkpt lat="43.80162" lon="5.27649">
        <ele>688</ele>
        <time>2011-02-27T10:16:36Z</time>
      </trkpt>
      <trkpt lat="43.80173" lon="5.27648">
        <ele>688</ele>
        <time>2011-02-27T10:16:46Z</time>
      </trkpt>
      <trkpt lat="43.80186" lon="5.27649">
        <ele>688</ele>
        <time>2011-02-27T10:16:56Z</time>
      </trkpt>
      <trkpt lat="43.80197" lon="5.2765">
        <ele>688</ele>
        <time>2011-02-27T10:17:06Z</time>
      </trkpt>
      <trkpt lat="43.80198" lon="5.27651">
        <ele>688</ele>
        <time>2011-02-27T10:17:18Z</time>
      </trkpt>
      <trkpt lat="43.80197" lon="5.2765">
        <ele>688</ele>
        <time>2011-02-27T10:17:38Z</time>
      </trkpt>
      <trkpt lat="43.80198" lon="5.27649">
        <ele>688</ele>
        <time>2011-02-27T10:17:51Z</time>
      </trkpt>
      <trkpt lat="43.802" lon="5.27649">
        <ele>688</ele>
        <time>2011-02-27T10:18:12Z</time>
      </trkpt>
      <trkpt lat="43.80203" lon="5.2765">
        <ele>689</ele>
        <time>2011-02-27T10:18:24Z</time>
      </trkpt>
      <trkpt lat="43.80209" lon="5.27659">
        <ele>689</ele>
        <time>2011-02-27T10:18:34Z</time>
      </trkpt>
      <trkpt lat="43.80217" lon="5.27669">
        <ele>689</ele>
        <time>2011-02-27T10:18:45Z</time>
      </trkpt>
      <trkpt lat="43.80223" lon="5.27679">
        <ele>689</ele>
        <time>2011-02-27T10:18:55Z</time>
      </trkpt>
      <trkpt lat="43.80229" lon="5.27688">
        <ele>689</ele>
        <time>2011-02-27T10:19:05Z</time>
      </trkpt>
      <trkpt lat="43.80233" lon="5.27699">
        <ele>687</ele>
        <time>2011-02-27T10:19:15Z</time>
      </trkpt>
      <trkpt lat="43.8024" lon="5.27709">
        <ele>684</ele>
        <time>2011-02-27T10:19:25Z</time>
      </trkpt>
      <trkpt lat="43.80245" lon="5.27719">
        <ele>682</ele>
        <time>2011-02-27T10:19:35Z</time>
      </trkpt>
      <trkpt lat="43.80255" lon="5.27731">
        <ele>681</ele>
        <time>2011-02-27T10:19:45Z</time>
      </trkpt>
      <trkpt lat="43.80265" lon="5.27743">
        <ele>681</ele>
        <time>2011-02-27T10:19:56Z</time>
      </trkpt>
      <trkpt lat="43.80274" lon="5.27757">
        <ele>681</ele>
        <time>2011-02-27T10:20:07Z</time>
      </trkpt>
      <trkpt lat="43.80283" lon="5.27769">
        <ele>681</ele>
        <time>2011-02-27T10:20:17Z</time>
      </trkpt>
      <trkpt lat="43.80291" lon="5.27782">
        <ele>681</ele>
        <time>2011-02-27T10:20:27Z</time>
      </trkpt>
      <trkpt lat="43.80298" lon="5.27794">
        <ele>681</ele>
        <time>2011-02-27T10:20:37Z</time>
      </trkpt>
      <trkpt lat="43.80304" lon="5.27806">
        <ele>681</ele>
        <time>2011-02-27T10:20:47Z</time>
      </trkpt>
      <trkpt lat="43.80313" lon="5.2782">
        <ele>680</ele>
        <time>2011-02-27T10:20:58Z</time>
      </trkpt>
      <trkpt lat="43.80321" lon="5.27833">
        <ele>679</ele>
        <time>2011-02-27T10:21:09Z</time>
      </trkpt>
      <trkpt lat="43.80328" lon="5.27844">
        <ele>678</ele>
        <time>2011-02-27T10:21:19Z</time>
      </trkpt>
      <trkpt lat="43.80337" lon="5.27854">
        <ele>678</ele>
        <time>2011-02-27T10:21:29Z</time>
      </trkpt>
      <trkpt lat="43.80345" lon="5.27859">
        <ele>678</ele>
        <time>2011-02-27T10:21:39Z</time>
      </trkpt>
      <trkpt lat="43.80353" lon="5.27869">
        <ele>677</ele>
        <time>2011-02-27T10:21:49Z</time>
      </trkpt>
      <trkpt lat="43.80361" lon="5.27878">
        <ele>676</ele>
        <time>2011-02-27T10:22:00Z</time>
      </trkpt>
      <trkpt lat="43.80368" lon="5.27887">
        <ele>675</ele>
        <time>2011-02-27T10:22:10Z</time>
      </trkpt>
      <trkpt lat="43.80373" lon="5.279">
        <ele>674</ele>
        <time>2011-02-27T10:22:20Z</time>
      </trkpt>
      <trkpt lat="43.80376" lon="5.27912">
        <ele>671</ele>
        <time>2011-02-27T10:22:30Z</time>
      </trkpt>
      <trkpt lat="43.80381" lon="5.27925">
        <ele>670</ele>
        <time>2011-02-27T10:22:40Z</time>
      </trkpt>
      <trkpt lat="43.80383" lon="5.27943">
        <ele>670</ele>
        <time>2011-02-27T10:22:50Z</time>
      </trkpt>
      <trkpt lat="43.80386" lon="5.27957">
        <ele>670</ele>
        <time>2011-02-27T10:23:00Z</time>
      </trkpt>
      <trkpt lat="43.80389" lon="5.27965">
        <ele>670</ele>
        <time>2011-02-27T10:23:11Z</time>
      </trkpt>
      <trkpt lat="43.804" lon="5.27965">
        <ele>670</ele>
        <time>2011-02-27T10:23:21Z</time>
      </trkpt>
      <trkpt lat="43.80411" lon="5.27966">
        <ele>670</ele>
        <time>2011-02-27T10:23:31Z</time>
      </trkpt>
      <trkpt lat="43.80421" lon="5.27968">
        <ele>670</ele>
        <time>2011-02-27T10:23:41Z</time>
      </trkpt>
      <trkpt lat="43.80428" lon="5.27974">
        <ele>670</ele>
        <time>2011-02-27T10:23:53Z</time>
      </trkpt>
      <trkpt lat="43.80432" lon="5.27977">
        <ele>668</ele>
        <time>2011-02-27T10:24:03Z</time>
      </trkpt>
      <trkpt lat="43.80433" lon="5.27972">
        <ele>668</ele>
        <time>2011-02-27T10:24:17Z</time>
      </trkpt>
      <trkpt lat="43.80439" lon="5.27974">
        <ele>668</ele>
        <time>2011-02-27T10:24:28Z</time>
      </trkpt>
      <trkpt lat="43.80442" lon="5.27978">
        <ele>668</ele>
        <time>2011-02-27T10:24:38Z</time>
      </trkpt>
      <trkpt lat="43.80442" lon="5.27977">
        <ele>668</ele>
        <time>2011-02-27T10:24:48Z</time>
      </trkpt>
      <trkpt lat="43.80438" lon="5.27976">
        <ele>669</ele>
        <time>2011-02-27T10:25:02Z</time>
      </trkpt>
      <trkpt lat="43.80425" lon="5.27984">
        <ele>673</ele>
        <time>2011-02-27T10:25:14Z</time>
      </trkpt>
      <trkpt lat="43.80427" lon="5.2798">
        <ele>673</ele>
        <time>2011-02-27T10:25:31Z</time>
      </trkpt>
      <trkpt lat="43.80427" lon="5.27982">
        <ele>673</ele>
        <time>2011-02-27T10:25:42Z</time>
      </trkpt>
      <trkpt lat="43.80428" lon="5.27978">
        <ele>673</ele>
        <time>2011-02-27T10:26:07Z</time>
      </trkpt>
      <trkpt lat="43.80433" lon="5.27976">
        <ele>673</ele>
        <time>2011-02-27T10:26:21Z</time>
      </trkpt>
      <trkpt lat="43.80431" lon="5.27974">
        <ele>668</ele>
        <time>2011-02-27T10:26:47Z</time>
      </trkpt>
      <trkpt lat="43.8043" lon="5.27974">
        <ele>668</ele>
        <time>2011-02-27T10:26:57Z</time>
      </trkpt>
      <trkpt lat="43.80425" lon="5.2798">
        <ele>668</ele>
        <time>2011-02-27T10:27:07Z</time>
      </trkpt>
      <trkpt lat="43.80426" lon="5.27982">
        <ele>668</ele>
        <time>2011-02-27T10:27:28Z</time>
      </trkpt>
      <trkpt lat="43.8042" lon="5.27978">
        <ele>668</ele>
        <time>2011-02-27T10:27:39Z</time>
      </trkpt>
      <trkpt lat="43.80413" lon="5.27973">
        <ele>668</ele>
        <time>2011-02-27T10:27:49Z</time>
      </trkpt>
      <trkpt lat="43.80405" lon="5.27968">
        <ele>668</ele>
        <time>2011-02-27T10:27:59Z</time>
      </trkpt>
      <trkpt lat="43.80396" lon="5.27967">
        <ele>668</ele>
        <time>2011-02-27T10:28:10Z</time>
      </trkpt>
      <trkpt lat="43.80389" lon="5.27967">
        <ele>667</ele>
        <time>2011-02-27T10:28:22Z</time>
      </trkpt>
      <trkpt lat="43.80385" lon="5.27956">
        <ele>667</ele>
        <time>2011-02-27T10:28:33Z</time>
      </trkpt>
      <trkpt lat="43.80384" lon="5.27944">
        <ele>667</ele>
        <time>2011-02-27T10:28:43Z</time>
      </trkpt>
      <trkpt lat="43.80383" lon="5.27932">
        <ele>667</ele>
        <time>2011-02-27T10:28:53Z</time>
      </trkpt>
      <trkpt lat="43.80381" lon="5.27919">
        <ele>667</ele>
        <time>2011-02-27T10:29:03Z</time>
      </trkpt>
      <trkpt lat="43.80377" lon="5.27905">
        <ele>669</ele>
        <time>2011-02-27T10:29:13Z</time>
      </trkpt>
      <trkpt lat="43.8037" lon="5.2789">
        <ele>671</ele>
        <time>2011-02-27T10:29:24Z</time>
      </trkpt>
      <trkpt lat="43.80362" lon="5.2788">
        <ele>673</ele>
        <time>2011-02-27T10:29:34Z</time>
      </trkpt>
      <trkpt lat="43.80355" lon="5.27872">
        <ele>674</ele>
        <time>2011-02-27T10:29:44Z</time>
      </trkpt>
      <trkpt lat="43.80347" lon="5.27863">
        <ele>675</ele>
        <time>2011-02-27T10:29:54Z</time>
      </trkpt>
      <trkpt lat="43.80339" lon="5.27857">
        <ele>675</ele>
        <time>2011-02-27T10:30:04Z</time>
      </trkpt>
      <trkpt lat="43.80328" lon="5.27847">
        <ele>675</ele>
        <time>2011-02-27T10:30:15Z</time>
      </trkpt>
      <trkpt lat="43.8032" lon="5.27836">
        <ele>675</ele>
        <time>2011-02-27T10:30:25Z</time>
      </trkpt>
      <trkpt lat="43.80314" lon="5.27824">
        <ele>675</ele>
        <time>2011-02-27T10:30:35Z</time>
      </trkpt>
      <trkpt lat="43.80305" lon="5.27808">
        <ele>677</ele>
        <time>2011-02-27T10:30:46Z</time>
      </trkpt>
      <trkpt lat="43.80297" lon="5.27794">
        <ele>677</ele>
        <time>2011-02-27T10:30:56Z</time>
      </trkpt>
      <trkpt lat="43.80289" lon="5.27779">
        <ele>678</ele>
        <time>2011-02-27T10:31:06Z</time>
      </trkpt>
      <trkpt lat="43.8028" lon="5.27765">
        <ele>678</ele>
        <time>2011-02-27T10:31:16Z</time>
      </trkpt>
      <trkpt lat="43.8027" lon="5.27749">
        <ele>679</ele>
        <time>2011-02-27T10:31:27Z</time>
      </trkpt>
      <trkpt lat="43.80261" lon="5.27735">
        <ele>680</ele>
        <time>2011-02-27T10:31:37Z</time>
      </trkpt>
      <trkpt lat="43.80251" lon="5.27722">
        <ele>681</ele>
        <time>2011-02-27T10:31:47Z</time>
      </trkpt>
      <trkpt lat="43.80244" lon="5.27709">
        <ele>683</ele>
        <time>2011-02-27T10:31:57Z</time>
      </trkpt>
      <trkpt lat="43.80235" lon="5.27697">
        <ele>683</ele>
        <time>2011-02-27T10:32:07Z</time>
      </trkpt>
      <trkpt lat="43.80227" lon="5.27683">
        <ele>683</ele>
        <time>2011-02-27T10:32:17Z</time>
      </trkpt>
      <trkpt lat="43.80217" lon="5.27672">
        <ele>683</ele>
        <time>2011-02-27T10:32:27Z</time>
      </trkpt>
      <trkpt lat="43.80207" lon="5.27661">
        <ele>683</ele>
        <time>2011-02-27T10:32:37Z</time>
      </trkpt>
      <trkpt lat="43.80198" lon="5.27649">
        <ele>684</ele>
        <time>2011-02-27T10:32:47Z</time>
      </trkpt>
      <trkpt lat="43.80188" lon="5.27638">
        <ele>684</ele>
        <time>2011-02-27T10:32:57Z</time>
      </trkpt>
      <trkpt lat="43.80178" lon="5.27626">
        <ele>684</ele>
        <time>2011-02-27T10:33:07Z</time>
      </trkpt>
      <trkpt lat="43.80167" lon="5.27614">
        <ele>686</ele>
        <time>2011-02-27T10:33:18Z</time>
      </trkpt>
      <trkpt lat="43.80156" lon="5.27603">
        <ele>687</ele>
        <time>2011-02-27T10:33:28Z</time>
      </trkpt>
      <trkpt lat="43.80145" lon="5.2759">
        <ele>688</ele>
        <time>2011-02-27T10:33:39Z</time>
      </trkpt>
      <trkpt lat="43.80135" lon="5.27581">
        <ele>688</ele>
        <time>2011-02-27T10:33:49Z</time>
      </trkpt>
      <trkpt lat="43.80125" lon="5.27569">
        <ele>688</ele>
        <time>2011-02-27T10:34:00Z</time>
      </trkpt>
      <trkpt lat="43.80114" lon="5.27559">
        <ele>688</ele>
        <time>2011-02-27T10:34:10Z</time>
      </trkpt>
      <trkpt lat="43.80103" lon="5.27548">
        <ele>689</ele>
        <time>2011-02-27T10:34:21Z</time>
      </trkpt>
      <trkpt lat="43.80093" lon="5.27536">
        <ele>690</ele>
        <time>2011-02-27T10:34:31Z</time>
      </trkpt>
      <trkpt lat="43.80085" lon="5.27526">
        <ele>690</ele>
        <time>2011-02-27T10:34:41Z</time>
      </trkpt>
      <trkpt lat="43.80075" lon="5.27512">
        <ele>690</ele>
        <time>2011-02-27T10:34:51Z</time>
      </trkpt>
      <trkpt lat="43.80068" lon="5.27498">
        <ele>690</ele>
        <time>2011-02-27T10:35:01Z</time>
      </trkpt>
      <trkpt lat="43.8006" lon="5.27484">
        <ele>690</ele>
        <time>2011-02-27T10:35:12Z</time>
      </trkpt>
      <trkpt lat="43.80053" lon="5.27472">
        <ele>690</ele>
        <time>2011-02-27T10:35:22Z</time>
      </trkpt>
      <trkpt lat="43.80043" lon="5.27457">
        <ele>690</ele>
        <time>2011-02-27T10:35:33Z</time>
      </trkpt>
      <trkpt lat="43.80037" lon="5.27445">
        <ele>690</ele>
        <time>2011-02-27T10:35:44Z</time>
      </trkpt>
      <trkpt lat="43.80032" lon="5.27428">
        <ele>688</ele>
        <time>2011-02-27T10:35:55Z</time>
      </trkpt>
      <trkpt lat="43.80025" lon="5.27417">
        <ele>688</ele>
        <time>2011-02-27T10:36:05Z</time>
      </trkpt>
      <trkpt lat="43.80021" lon="5.274">
        <ele>688</ele>
        <time>2011-02-27T10:36:15Z</time>
      </trkpt>
      <trkpt lat="43.80018" lon="5.27381">
        <ele>688</ele>
        <time>2011-02-27T10:36:25Z</time>
      </trkpt>
      <trkpt lat="43.80016" lon="5.27365">
        <ele>688</ele>
        <time>2011-02-27T10:36:35Z</time>
      </trkpt>
      <trkpt lat="43.80014" lon="5.27349">
        <ele>688</ele>
        <time>2011-02-27T10:36:45Z</time>
      </trkpt>
      <trkpt lat="43.80012" lon="5.27333">
        <ele>688</ele>
        <time>2011-02-27T10:36:55Z</time>
      </trkpt>
      <trkpt lat="43.80009" lon="5.27321">
        <ele>688</ele>
        <time>2011-02-27T10:37:06Z</time>
      </trkpt>
      <trkpt lat="43.80011" lon="5.27305">
        <ele>687</ele>
        <time>2011-02-27T10:37:16Z</time>
      </trkpt>
      <trkpt lat="43.80017" lon="5.27292">
        <ele>687</ele>
        <time>2011-02-27T10:37:26Z</time>
      </trkpt>
      <trkpt lat="43.80021" lon="5.27277">
        <ele>686</ele>
        <time>2011-02-27T10:37:36Z</time>
      </trkpt>
      <trkpt lat="43.80024" lon="5.27262">
        <ele>685</ele>
        <time>2011-02-27T10:37:46Z</time>
      </trkpt>
      <trkpt lat="43.80028" lon="5.27247">
        <ele>685</ele>
        <time>2011-02-27T10:37:56Z</time>
      </trkpt>
      <trkpt lat="43.80033" lon="5.27232">
        <ele>685</ele>
        <time>2011-02-27T10:38:06Z</time>
      </trkpt>
      <trkpt lat="43.80037" lon="5.27216">
        <ele>684</ele>
        <time>2011-02-27T10:38:17Z</time>
      </trkpt>
      <trkpt lat="43.8004" lon="5.27201">
        <ele>684</ele>
        <time>2011-02-27T10:38:27Z</time>
      </trkpt>
      <trkpt lat="43.80044" lon="5.27185">
        <ele>684</ele>
        <time>2011-02-27T10:38:37Z</time>
      </trkpt>
      <trkpt lat="43.80046" lon="5.27166">
        <ele>684</ele>
        <time>2011-02-27T10:38:47Z</time>
      </trkpt>
      <trkpt lat="43.80049" lon="5.2715">
        <ele>685</ele>
        <time>2011-02-27T10:38:57Z</time>
      </trkpt>
      <trkpt lat="43.80053" lon="5.27136">
        <ele>686</ele>
        <time>2011-02-27T10:39:07Z</time>
      </trkpt>
      <trkpt lat="43.80048" lon="5.27117">
        <ele>694</ele>
        <time>2011-02-27T10:39:19Z</time>
      </trkpt>
      <trkpt lat="43.80043" lon="5.2711">
        <ele>707</ele>
        <time>2011-02-27T10:39:32Z</time>
      </trkpt>
      <trkpt lat="43.80046" lon="5.27108">
        <ele>717</ele>
        <time>2011-02-27T10:39:54Z</time>
      </trkpt>
      <trkpt lat="43.80048" lon="5.27105">
        <ele>717</ele>
        <time>2011-02-27T10:40:09Z</time>
      </trkpt>
      <trkpt lat="43.80042" lon="5.27105">
        <ele>716</ele>
        <time>2011-02-27T10:40:19Z</time>
      </trkpt>
      <trkpt lat="43.80035" lon="5.27105">
        <ele>712</ele>
        <time>2011-02-27T10:40:30Z</time>
      </trkpt>
      <trkpt lat="43.80028" lon="5.27105">
        <ele>711</ele>
        <time>2011-02-27T10:40:40Z</time>
      </trkpt>
      <trkpt lat="43.80027" lon="5.27105">
        <ele>710</ele>
        <time>2011-02-27T10:41:01Z</time>
      </trkpt>
      <trkpt lat="43.80025" lon="5.2711">
        <ele>710</ele>
        <time>2011-02-27T10:41:12Z</time>
      </trkpt>
      <trkpt lat="43.80025" lon="5.27111">
        <ele>710</ele>
        <time>2011-02-27T10:41:23Z</time>
      </trkpt>
      <trkpt lat="43.80027" lon="5.27106">
        <ele>710</ele>
        <time>2011-02-27T10:41:35Z</time>
      </trkpt>
      <trkpt lat="43.80028" lon="5.27103">
        <ele>710</ele>
        <time>2011-02-27T10:41:46Z</time>
      </trkpt>
      <trkpt lat="43.80027" lon="5.27105">
        <ele>710</ele>
        <time>2011-02-27T10:42:01Z</time>
      </trkpt>
      <trkpt lat="43.80035" lon="5.27102">
        <ele>710</ele>
        <time>2011-02-27T10:42:12Z</time>
      </trkpt>
      <trkpt lat="43.80041" lon="5.27091">
        <ele>710</ele>
        <time>2011-02-27T10:42:22Z</time>
      </trkpt>
      <trkpt lat="43.80044" lon="5.27085">
        <ele>710</ele>
        <time>2011-02-27T10:42:34Z</time>
      </trkpt>
      <trkpt lat="43.8005" lon="5.27083">
        <ele>710</ele>
        <time>2011-02-27T10:42:51Z</time>
      </trkpt>
      <trkpt lat="43.80053" lon="5.27091">
        <ele>710</ele>
        <time>2011-02-27T10:43:01Z</time>
      </trkpt>
      <trkpt lat="43.80056" lon="5.27086">
        <ele>706</ele>
        <time>2011-02-27T10:43:11Z</time>
      </trkpt>
      <trkpt lat="43.80057" lon="5.27094">
        <ele>706</ele>
        <time>2011-02-27T10:43:23Z</time>
      </trkpt>
      <trkpt lat="43.80057" lon="5.27092">
        <ele>706</ele>
        <time>2011-02-27T10:43:34Z</time>
      </trkpt>
      <trkpt lat="43.80057" lon="5.27079">
        <ele>703</ele>
        <time>2011-02-27T10:43:45Z</time>
      </trkpt>
      <trkpt lat="43.80056" lon="5.27065">
        <ele>701</ele>
        <time>2011-02-27T10:43:56Z</time>
      </trkpt>
      <trkpt lat="43.80058" lon="5.27049">
        <ele>701</ele>
        <time>2011-02-27T10:44:07Z</time>
      </trkpt>
      <trkpt lat="43.80065" lon="5.27037">
        <ele>701</ele>
        <time>2011-02-27T10:44:17Z</time>
      </trkpt>
      <trkpt lat="43.80068" lon="5.27023">
        <ele>701</ele>
        <time>2011-02-27T10:44:27Z</time>
      </trkpt>
      <trkpt lat="43.80072" lon="5.27007">
        <ele>701</ele>
        <time>2011-02-27T10:44:38Z</time>
      </trkpt>
      <trkpt lat="43.80077" lon="5.26993">
        <ele>701</ele>
        <time>2011-02-27T10:44:48Z</time>
      </trkpt>
      <trkpt lat="43.80075" lon="5.2699">
        <ele>701</ele>
        <time>2011-02-27T10:44:59Z</time>
      </trkpt>
      <trkpt lat="43.80078" lon="5.26992">
        <ele>702</ele>
        <time>2011-02-27T10:45:09Z</time>
      </trkpt>
      <trkpt lat="43.80082" lon="5.26981">
        <ele>702</ele>
        <time>2011-02-27T10:45:19Z</time>
      </trkpt>
      <trkpt lat="43.80087" lon="5.26967">
        <ele>699</ele>
        <time>2011-02-27T10:45:30Z</time>
      </trkpt>
      <trkpt lat="43.8009" lon="5.26951">
        <ele>696</ele>
        <time>2011-02-27T10:45:41Z</time>
      </trkpt>
      <trkpt lat="43.80097" lon="5.26935">
        <ele>695</ele>
        <time>2011-02-27T10:45:53Z</time>
      </trkpt>
      <trkpt lat="43.80099" lon="5.26917">
        <ele>695</ele>
        <time>2011-02-27T10:46:03Z</time>
      </trkpt>
      <trkpt lat="43.80103" lon="5.269">
        <ele>695</ele>
        <time>2011-02-27T10:46:13Z</time>
      </trkpt>
      <trkpt lat="43.80107" lon="5.26882">
        <ele>695</ele>
        <time>2011-02-27T10:46:24Z</time>
      </trkpt>
      <trkpt lat="43.80111" lon="5.26865">
        <ele>695</ele>
        <time>2011-02-27T10:46:34Z</time>
      </trkpt>
      <trkpt lat="43.80116" lon="5.2685">
        <ele>695</ele>
        <time>2011-02-27T10:46:44Z</time>
      </trkpt>
      <trkpt lat="43.80121" lon="5.26833">
        <ele>695</ele>
        <time>2011-02-27T10:46:54Z</time>
      </trkpt>
      <trkpt lat="43.80125" lon="5.26817">
        <ele>695</ele>
        <time>2011-02-27T10:47:04Z</time>
      </trkpt>
      <trkpt lat="43.80124" lon="5.26799">
        <ele>695</ele>
        <time>2011-02-27T10:47:14Z</time>
      </trkpt>
      <trkpt lat="43.8012" lon="5.26783">
        <ele>695</ele>
        <time>2011-02-27T10:47:24Z</time>
      </trkpt>
      <trkpt lat="43.80114" lon="5.26764">
        <ele>697</ele>
        <time>2011-02-27T10:47:34Z</time>
      </trkpt>
      <trkpt lat="43.80112" lon="5.26753">
        <ele>700</ele>
        <time>2011-02-27T10:47:44Z</time>
      </trkpt>
      <trkpt lat="43.80105" lon="5.26738">
        <ele>700</ele>
        <time>2011-02-27T10:47:54Z</time>
      </trkpt>
      <trkpt lat="43.801" lon="5.2673">
        <ele>702</ele>
        <time>2011-02-27T10:48:04Z</time>
      </trkpt>
      <trkpt lat="43.80093" lon="5.26724">
        <ele>702</ele>
        <time>2011-02-27T10:48:14Z</time>
      </trkpt>
      <trkpt lat="43.80082" lon="5.26727">
        <ele>702</ele>
        <time>2011-02-27T10:48:24Z</time>
      </trkpt>
      <trkpt lat="43.80069" lon="5.2673">
        <ele>702</ele>
        <time>2011-02-27T10:48:35Z</time>
      </trkpt>
      <trkpt lat="43.80056" lon="5.26737">
        <ele>703</ele>
        <time>2011-02-27T10:48:45Z</time>
      </trkpt>
      <trkpt lat="43.80043" lon="5.26739">
        <ele>705</ele>
        <time>2011-02-27T10:48:55Z</time>
      </trkpt>
      <trkpt lat="43.80032" lon="5.26739">
        <ele>705</ele>
        <time>2011-02-27T10:49:05Z</time>
      </trkpt>
      <trkpt lat="43.80022" lon="5.26736">
        <ele>705</ele>
        <time>2011-02-27T10:49:16Z</time>
      </trkpt>
      <trkpt lat="43.80011" lon="5.26733">
        <ele>704</ele>
        <time>2011-02-27T10:49:27Z</time>
      </trkpt>
      <trkpt lat="43.8" lon="5.2673">
        <ele>703</ele>
        <time>2011-02-27T10:49:37Z</time>
      </trkpt>
      <trkpt lat="43.7999" lon="5.26729">
        <ele>702</ele>
        <time>2011-02-27T10:49:47Z</time>
      </trkpt>
      <trkpt lat="43.79988" lon="5.26727">
        <ele>704</ele>
        <time>2011-02-27T10:50:10Z</time>
      </trkpt>
      <trkpt lat="43.79987" lon="5.26728">
        <ele>704</ele>
        <time>2011-02-27T10:50:21Z</time>
      </trkpt>
      <trkpt lat="43.79985" lon="5.26729">
        <ele>704</ele>
        <time>2011-02-27T10:50:34Z</time>
      </trkpt>
      <trkpt lat="43.79985" lon="5.26729">
        <ele>704</ele>
        <time>2011-02-27T10:50:49Z</time>
      </trkpt>
      <trkpt lat="43.79986" lon="5.26729">
        <ele>704</ele>
        <time>2011-02-27T10:51:04Z</time>
      </trkpt>
      <trkpt lat="43.79986" lon="5.26726">
        <ele>702</ele>
        <time>2011-02-27T10:51:23Z</time>
      </trkpt>
      <trkpt lat="43.79978" lon="5.26729">
        <ele>702</ele>
        <time>2011-02-27T10:51:33Z</time>
      </trkpt>
      <trkpt lat="43.79971" lon="5.26726">
        <ele>702</ele>
        <time>2011-02-27T10:51:44Z</time>
      </trkpt>
      <trkpt lat="43.79963" lon="5.26728">
        <ele>703</ele>
        <time>2011-02-27T10:51:54Z</time>
      </trkpt>
      <trkpt lat="43.79952" lon="5.26727">
        <ele>703</ele>
        <time>2011-02-27T10:52:04Z</time>
      </trkpt>
      <trkpt lat="43.79938" lon="5.2673">
        <ele>704</ele>
        <time>2011-02-27T10:52:14Z</time>
      </trkpt>
      <trkpt lat="43.79925" lon="5.26731">
        <ele>704</ele>
        <time>2011-02-27T10:52:24Z</time>
      </trkpt>
      <trkpt lat="43.79921" lon="5.26725">
        <ele>704</ele>
        <time>2011-02-27T10:52:34Z</time>
      </trkpt>
      <trkpt lat="43.79922" lon="5.26722">
        <ele>704</ele>
        <time>2011-02-27T10:52:48Z</time>
      </trkpt>
      <trkpt lat="43.79922" lon="5.26719">
        <ele>702</ele>
        <time>2011-02-27T10:53:00Z</time>
      </trkpt>
      <trkpt lat="43.7992" lon="5.26717">
        <ele>702</ele>
        <time>2011-02-27T10:53:14Z</time>
      </trkpt>
      <trkpt lat="43.79914" lon="5.26722">
        <ele>702</ele>
        <time>2011-02-27T10:53:25Z</time>
      </trkpt>
      <trkpt lat="43.79903" lon="5.26723">
        <ele>702</ele>
        <time>2011-02-27T10:53:35Z</time>
      </trkpt>
      <trkpt lat="43.79889" lon="5.26723">
        <ele>702</ele>
        <time>2011-02-27T10:53:46Z</time>
      </trkpt>
      <trkpt lat="43.79879" lon="5.26719">
        <ele>702</ele>
        <time>2011-02-27T10:53:56Z</time>
      </trkpt>
      <trkpt lat="43.79868" lon="5.26715">
        <ele>703</ele>
        <time>2011-02-27T10:54:06Z</time>
      </trkpt>
      <trkpt lat="43.79854" lon="5.26712">
        <ele>704</ele>
        <time>2011-02-27T10:54:16Z</time>
      </trkpt>
      <trkpt lat="43.79842" lon="5.2671">
        <ele>704</ele>
        <time>2011-02-27T10:54:26Z</time>
      </trkpt>
      <trkpt lat="43.79831" lon="5.26703">
        <ele>704</ele>
        <time>2011-02-27T10:54:37Z</time>
      </trkpt>
      <trkpt lat="43.79816" lon="5.26701">
        <ele>704</ele>
        <time>2011-02-27T10:54:47Z</time>
      </trkpt>
      <trkpt lat="43.79802" lon="5.26695">
        <ele>703</ele>
        <time>2011-02-27T10:54:57Z</time>
      </trkpt>
      <trkpt lat="43.79787" lon="5.26691">
        <ele>701</ele>
        <time>2011-02-27T10:55:07Z</time>
      </trkpt>
      <trkpt lat="43.79775" lon="5.26687">
        <ele>699</ele>
        <time>2011-02-27T10:55:17Z</time>
      </trkpt>
      <trkpt lat="43.7976" lon="5.26682">
        <ele>699</ele>
        <time>2011-02-27T10:55:27Z</time>
      </trkpt>
      <trkpt lat="43.79746" lon="5.26677">
        <ele>698</ele>
        <time>2011-02-27T10:55:38Z</time>
      </trkpt>
      <trkpt lat="43.79732" lon="5.26672">
        <ele>695</ele>
        <time>2011-02-27T10:55:48Z</time>
      </trkpt>
      <trkpt lat="43.7972" lon="5.26665">
        <ele>695</ele>
        <time>2011-02-27T10:55:58Z</time>
      </trkpt>
      <trkpt lat="43.79707" lon="5.26665">
        <ele>695</ele>
        <time>2011-02-27T10:56:08Z</time>
      </trkpt>
      <trkpt lat="43.79694" lon="5.26663">
        <ele>695</ele>
        <time>2011-02-27T10:56:18Z</time>
      </trkpt>
      <trkpt lat="43.7968" lon="5.26672">
        <ele>695</ele>
        <time>2011-02-27T10:56:28Z</time>
      </trkpt>
      <trkpt lat="43.79668" lon="5.26674">
        <ele>695</ele>
        <time>2011-02-27T10:56:38Z</time>
      </trkpt>
      <trkpt lat="43.79655" lon="5.26674">
        <ele>695</ele>
        <time>2011-02-27T10:56:48Z</time>
      </trkpt>
      <trkpt lat="43.7964" lon="5.26677">
        <ele>695</ele>
        <time>2011-02-27T10:56:58Z</time>
      </trkpt>
      <trkpt lat="43.79628" lon="5.26676">
        <ele>695</ele>
        <time>2011-02-27T10:57:08Z</time>
      </trkpt>
      <trkpt lat="43.79615" lon="5.26675">
        <ele>694</ele>
        <time>2011-02-27T10:57:18Z</time>
      </trkpt>
      <trkpt lat="43.79602" lon="5.26675">
        <ele>692</ele>
        <time>2011-02-27T10:57:28Z</time>
      </trkpt>
      <trkpt lat="43.79591" lon="5.26673">
        <ele>692</ele>
        <time>2011-02-27T10:57:39Z</time>
      </trkpt>
      <trkpt lat="43.7958" lon="5.26673">
        <ele>692</ele>
        <time>2011-02-27T10:57:49Z</time>
      </trkpt>
      <trkpt lat="43.79569" lon="5.26675">
        <ele>692</ele>
        <time>2011-02-27T10:57:59Z</time>
      </trkpt>
      <trkpt lat="43.79558" lon="5.26674">
        <ele>692</ele>
        <time>2011-02-27T10:58:10Z</time>
      </trkpt>
      <trkpt lat="43.79547" lon="5.26674">
        <ele>689</ele>
        <time>2011-02-27T10:58:20Z</time>
      </trkpt>
      <trkpt lat="43.79535" lon="5.26677">
        <ele>688</ele>
        <time>2011-02-27T10:58:30Z</time>
      </trkpt>
      <trkpt lat="43.79524" lon="5.26676">
        <ele>687</ele>
        <time>2011-02-27T10:58:40Z</time>
      </trkpt>
      <trkpt lat="43.79514" lon="5.26674">
        <ele>686</ele>
        <time>2011-02-27T10:58:51Z</time>
      </trkpt>
      <trkpt lat="43.79506" lon="5.26671">
        <ele>686</ele>
        <time>2011-02-27T10:59:01Z</time>
      </trkpt>
      <trkpt lat="43.79495" lon="5.26671">
        <ele>685</ele>
        <time>2011-02-27T10:59:11Z</time>
      </trkpt>
      <trkpt lat="43.79484" lon="5.2667">
        <ele>684</ele>
        <time>2011-02-27T10:59:21Z</time>
      </trkpt>
      <trkpt lat="43.79473" lon="5.26671">
        <ele>684</ele>
        <time>2011-02-27T10:59:31Z</time>
      </trkpt>
      <trkpt lat="43.79462" lon="5.26671">
        <ele>684</ele>
        <time>2011-02-27T10:59:41Z</time>
      </trkpt>
      <trkpt lat="43.79451" lon="5.26668">
        <ele>684</ele>
        <time>2011-02-27T10:59:51Z</time>
      </trkpt>
      <trkpt lat="43.7944" lon="5.26663">
        <ele>684</ele>
        <time>2011-02-27T11:00:01Z</time>
      </trkpt>
      <trkpt lat="43.79428" lon="5.26664">
        <ele>684</ele>
        <time>2011-02-27T11:00:12Z</time>
      </trkpt>
      <trkpt lat="43.79424" lon="5.26664">
        <ele>684</ele>
        <time>2011-02-27T11:00:25Z</time>
      </trkpt>
      <trkpt lat="43.79423" lon="5.26669">
        <ele>684</ele>
        <time>2011-02-27T11:00:36Z</time>
      </trkpt>
      <trkpt lat="43.79421" lon="5.26671">
        <ele>685</ele>
        <time>2011-02-27T11:00:46Z</time>
      </trkpt>
      <trkpt lat="43.79422" lon="5.26671">
        <ele>685</ele>
        <time>2011-02-27T11:00:59Z</time>
      </trkpt>
      <trkpt lat="43.79425" lon="5.26667">
        <ele>687</ele>
        <time>2011-02-27T11:01:13Z</time>
      </trkpt>
      <trkpt lat="43.79426" lon="5.26667">
        <ele>687</ele>
        <time>2011-02-27T11:01:27Z</time>
      </trkpt>
      <trkpt lat="43.79425" lon="5.26668">
        <ele>687</ele>
        <time>2011-02-27T11:01:38Z</time>
      </trkpt>
      <trkpt lat="43.79417" lon="5.2667">
        <ele>687</ele>
        <time>2011-02-27T11:01:49Z</time>
      </trkpt>
      <trkpt lat="43.79413" lon="5.26659">
        <ele>688</ele>
        <time>2011-02-27T11:01:59Z</time>
      </trkpt>
      <trkpt lat="43.79409" lon="5.26649">
        <ele>688</ele>
        <time>2011-02-27T11:02:09Z</time>
      </trkpt>
      <trkpt lat="43.794" lon="5.26642">
        <ele>688</ele>
        <time>2011-02-27T11:02:19Z</time>
      </trkpt>
      <trkpt lat="43.79392" lon="5.26634">
        <ele>688</ele>
        <time>2011-02-27T11:02:29Z</time>
      </trkpt>
      <trkpt lat="43.79384" lon="5.26634">
        <ele>688</ele>
        <time>2011-02-27T11:02:39Z</time>
      </trkpt>
      <trkpt lat="43.79377" lon="5.26643">
        <ele>688</ele>
        <time>2011-02-27T11:02:49Z</time>
      </trkpt>
      <trkpt lat="43.79367" lon="5.26648">
        <ele>688</ele>
        <time>2011-02-27T11:02:59Z</time>
      </trkpt>
      <trkpt lat="43.79358" lon="5.26651">
        <ele>688</ele>
        <time>2011-02-27T11:03:09Z</time>
      </trkpt>
      <trkpt lat="43.7935" lon="5.26651">
        <ele>688</ele>
        <time>2011-02-27T11:03:19Z</time>
      </trkpt>
      <trkpt lat="43.79341" lon="5.26652">
        <ele>688</ele>
        <time>2011-02-27T11:03:29Z</time>
      </trkpt>
      <trkpt lat="43.7934" lon="5.26653">
        <ele>688</ele>
        <time>2011-02-27T11:03:39Z</time>
      </trkpt>
      <trkpt lat="43.79339" lon="5.26659">
        <ele>688</ele>
        <time>2011-02-27T11:03:50Z</time>
      </trkpt>
      <trkpt lat="43.79339" lon="5.26659">
        <ele>687</ele>
        <time>2011-02-27T11:04:03Z</time>
      </trkpt>
      <trkpt lat="43.79338" lon="5.2666">
        <ele>687</ele>
        <time>2011-02-27T11:04:17Z</time>
      </trkpt>
      <trkpt lat="43.79339" lon="5.26661">
        <ele>687</ele>
        <time>2011-02-27T11:04:32Z</time>
      </trkpt>
      <trkpt lat="43.7934" lon="5.26665">
        <ele>687</ele>
        <time>2011-02-27T11:04:53Z</time>
      </trkpt>
      <trkpt lat="43.79335" lon="5.26667">
        <ele>686</ele>
        <time>2011-02-27T11:05:05Z</time>
      </trkpt>
      <trkpt lat="43.79335" lon="5.26667">
        <ele>685</ele>
        <time>2011-02-27T11:05:49Z</time>
      </trkpt>
      <trkpt lat="43.79334" lon="5.26667">
        <ele>685</ele>
        <time>2011-02-27T11:06:29Z</time>
      </trkpt>
      <trkpt lat="43.79332" lon="5.26666">
        <ele>685</ele>
        <time>2011-02-27T11:06:59Z</time>
      </trkpt>
      <trkpt lat="43.79332" lon="5.26663">
        <ele>685</ele>
        <time>2011-02-27T11:07:41Z</time>
      </trkpt>
      <trkpt lat="43.79333" lon="5.26661">
        <ele>685</ele>
        <time>2011-02-27T11:08:03Z</time>
      </trkpt>
      <trkpt lat="43.79334" lon="5.26662">
        <ele>684</ele>
        <time>2011-02-27T11:08:16Z</time>
      </trkpt>
      <trkpt lat="43.79335" lon="5.26661">
        <ele>683</ele>
        <time>2011-02-27T11:08:35Z</time>
      </trkpt>
      <trkpt lat="43.79334" lon="5.26663">
        <ele>682</ele>
        <time>2011-02-27T11:08:54Z</time>
      </trkpt>
      <trkpt lat="43.79332" lon="5.26666">
        <ele>682</ele>
        <time>2011-02-27T11:09:44Z</time>
      </trkpt>
      <trkpt lat="43.79332" lon="5.26667">
        <ele>682</ele>
        <time>2011-02-27T11:10:22Z</time>
      </trkpt>
      <trkpt lat="43.79332" lon="5.26666">
        <ele>682</ele>
        <time>2011-02-27T11:10:47Z</time>
      </trkpt>
      <trkpt lat="43.79333" lon="5.26666">
        <ele>682</ele>
        <time>2011-02-27T11:11:17Z</time>
      </trkpt>
      <trkpt lat="43.79332" lon="5.26667">
        <ele>682</ele>
        <time>2011-02-27T11:11:28Z</time>
      </trkpt>
      <trkpt lat="43.7933" lon="5.26667">
        <ele>682</ele>
        <time>2011-02-27T11:11:49Z</time>
      </trkpt>
      <trkpt lat="43.79331" lon="5.26666">
        <ele>682</ele>
        <time>2011-02-27T11:12:09Z</time>
      </trkpt>
      <trkpt lat="43.79332" lon="5.26664">
        <ele>682</ele>
        <time>2011-02-27T11:13:29Z</time>
      </trkpt>
      <trkpt lat="43.79333" lon="5.26666">
        <ele>682</ele>
        <time>2011-02-27T11:15:11Z</time>
      </trkpt>
      <trkpt lat="43.79332" lon="5.26667">
        <ele>682</ele>
        <time>2011-02-27T11:16:06Z</time>
      </trkpt>
      <trkpt lat="43.79334" lon="5.26668">
        <ele>682</ele>
        <time>2011-02-27T11:17:42Z</time>
      </trkpt>
      <trkpt lat="43.79333" lon="5.26666">
        <ele>682</ele>
        <time>2011-02-27T11:18:58Z</time>
      </trkpt>
      <trkpt lat="43.79334" lon="5.26665">
        <ele>682</ele>
        <time>2011-02-27T11:19:08Z</time>
      </trkpt>
      <trkpt lat="43.79333" lon="5.26666">
        <ele>682</ele>
        <time>2011-02-27T11:19:54Z</time>
      </trkpt>
      <trkpt lat="43.79332" lon="5.26668">
        <ele>682</ele>
        <time>2011-02-27T11:20:14Z</time>
      </trkpt>
      <trkpt lat="43.79333" lon="5.26666">
        <ele>682</ele>
        <time>2011-02-27T11:21:07Z</time>
      </trkpt>
      <trkpt lat="43.79334" lon="5.26663">
        <ele>682</ele>
        <time>2011-02-27T11:21:33Z</time>
      </trkpt>
      <trkpt lat="43.79334" lon="5.26662">
        <ele>682</ele>
        <time>2011-02-27T11:23:18Z</time>
      </trkpt>
      <trkpt lat="43.79335" lon="5.26662">
        <ele>682</ele>
        <time>2011-02-27T11:23:57Z</time>
      </trkpt>
      <trkpt lat="43.79334" lon="5.26662">
        <ele>682</ele>
        <time>2011-02-27T11:24:38Z</time>
      </trkpt>
      <trkpt lat="43.79333" lon="5.26662">
        <ele>682</ele>
        <time>2011-02-27T11:25:21Z</time>
      </trkpt>
      <trkpt lat="43.79332" lon="5.26664">
        <ele>682</ele>
        <time>2011-02-27T11:26:33Z</time>
      </trkpt>
      <trkpt lat="43.79333" lon="5.26662">
        <ele>682</ele>
        <time>2011-02-27T11:26:52Z</time>
      </trkpt>
      <trkpt lat="43.79333" lon="5.26664">
        <ele>682</ele>
        <time>2011-02-27T11:28:15Z</time>
      </trkpt>
      <trkpt lat="43.79332" lon="5.26664">
        <ele>682</ele>
        <time>2011-02-27T11:32:58Z</time>
      </trkpt>
      <trkpt lat="43.79332" lon="5.26663">
        <ele>682</ele>
        <time>2011-02-27T11:33:19Z</time>
      </trkpt>
      <trkpt lat="43.79333" lon="5.26662">
        <ele>682</ele>
        <time>2011-02-27T11:34:11Z</time>
      </trkpt>
      <trkpt lat="43.79335" lon="5.26662">
        <ele>682</ele>
        <time>2011-02-27T11:34:43Z</time>
      </trkpt>
      <trkpt lat="43.79333" lon="5.26663">
        <ele>682</ele>
        <time>2011-02-27T11:35:34Z</time>
      </trkpt>
      <trkpt lat="43.79332" lon="5.26662">
        <ele>682</ele>
        <time>2011-02-27T11:36:24Z</time>
      </trkpt>
      <trkpt lat="43.79333" lon="5.26663">
        <ele>682</ele>
        <time>2011-02-27T11:38:03Z</time>
      </trkpt>
      <trkpt lat="43.79332" lon="5.26664">
        <ele>682</ele>
        <time>2011-02-27T11:39:22Z</time>
      </trkpt>
      <trkpt lat="43.79332" lon="5.26662">
        <ele>682</ele>
        <time>2011-02-27T11:39:46Z</time>
      </trkpt>
      <trkpt lat="43.79332" lon="5.26664">
        <ele>682</ele>
        <time>2011-02-27T11:40:37Z</time>
      </trkpt>
      <trkpt lat="43.79332" lon="5.26662">
        <ele>682</ele>
        <time>2011-02-27T11:45:45Z</time>
      </trkpt>
      <trkpt lat="43.79331" lon="5.26661">
        <ele>682</ele>
        <time>2011-02-27T11:47:03Z</time>
      </trkpt>
      <trkpt lat="43.79332" lon="5.26662">
        <ele>682</ele>
        <time>2011-02-27T11:48:27Z</time>
      </trkpt>
      <trkpt lat="43.79332" lon="5.26664">
        <ele>683</ele>
        <time>2011-02-27T11:48:55Z</time>
      </trkpt>
      <trkpt lat="43.79333" lon="5.26663">
        <ele>683</ele>
        <time>2011-02-27T11:49:29Z</time>
      </trkpt>
      <trkpt lat="43.79333" lon="5.26662">
        <ele>683</ele>
        <time>2011-02-27T11:50:22Z</time>
      </trkpt>
      <trkpt lat="43.79333" lon="5.26663">
        <ele>683</ele>
        <time>2011-02-27T11:50:53Z</time>
      </trkpt>
      <trkpt lat="43.79333" lon="5.26662">
        <ele>683</ele>
        <time>2011-02-27T11:53:44Z</time>
      </trkpt>
      <trkpt lat="43.79333" lon="5.2666">
        <ele>681</ele>
        <time>2011-02-27T11:54:40Z</time>
      </trkpt>
      <trkpt lat="43.79333" lon="5.26659">
        <ele>680</ele>
        <time>2011-02-27T11:55:05Z</time>
      </trkpt>
      <trkpt lat="43.79333" lon="5.26657">
        <ele>680</ele>
        <time>2011-02-27T11:55:34Z</time>
      </trkpt>
      <trkpt lat="43.79333" lon="5.26659">
        <ele>682</ele>
        <time>2011-02-27T11:57:13Z</time>
      </trkpt>
      <trkpt lat="43.79332" lon="5.26659">
        <ele>682</ele>
        <time>2011-02-27T11:57:29Z</time>
      </trkpt>
      <trkpt lat="43.79332" lon="5.26658">
        <ele>682</ele>
        <time>2011-02-27T11:58:22Z</time>
      </trkpt>
      <trkpt lat="43.79334" lon="5.26657">
        <ele>682</ele>
        <time>2011-02-27T11:58:32Z</time>
      </trkpt>
      <trkpt lat="43.79335" lon="5.26656">
        <ele>682</ele>
        <time>2011-02-27T11:58:42Z</time>
      </trkpt>
      <trkpt lat="43.7934" lon="5.26651">
        <ele>682</ele>
        <time>2011-02-27T11:58:54Z</time>
      </trkpt>
      <trkpt lat="43.79342" lon="5.26649">
        <ele>684</ele>
        <time>2011-02-27T11:59:43Z</time>
      </trkpt>
      <trkpt lat="43.79343" lon="5.26646">
        <ele>684</ele>
        <time>2011-02-27T11:59:56Z</time>
      </trkpt>
      <trkpt lat="43.79344" lon="5.26638">
        <ele>684</ele>
        <time>2011-02-27T12:00:16Z</time>
      </trkpt>
      <trkpt lat="43.79345" lon="5.26639">
        <ele>684</ele>
        <time>2011-02-27T12:02:23Z</time>
      </trkpt>
      <trkpt lat="43.7935" lon="5.2665">
        <ele>684</ele>
        <time>2011-02-27T12:02:34Z</time>
      </trkpt>
      <trkpt lat="43.79355" lon="5.26665">
        <ele>684</ele>
        <time>2011-02-27T12:02:44Z</time>
      </trkpt>
      <trkpt lat="43.79353" lon="5.26677">
        <ele>684</ele>
        <time>2011-02-27T12:02:54Z</time>
      </trkpt>
      <trkpt lat="43.79358" lon="5.26691">
        <ele>684</ele>
        <time>2011-02-27T12:03:04Z</time>
      </trkpt>
      <trkpt lat="43.7936" lon="5.26697">
        <ele>684</ele>
        <time>2011-02-27T12:03:14Z</time>
      </trkpt>
      <trkpt lat="43.79364" lon="5.26706">
        <ele>684</ele>
        <time>2011-02-27T12:03:24Z</time>
      </trkpt>
      <trkpt lat="43.79366" lon="5.26713">
        <ele>684</ele>
        <time>2011-02-27T12:03:34Z</time>
      </trkpt>
      <trkpt lat="43.79367" lon="5.26715">
        <ele>684</ele>
        <time>2011-02-27T12:03:46Z</time>
      </trkpt>
      <trkpt lat="43.7937" lon="5.26724">
        <ele>684</ele>
        <time>2011-02-27T12:03:57Z</time>
      </trkpt>
      <trkpt lat="43.79374" lon="5.26735">
        <ele>684</ele>
        <time>2011-02-27T12:04:07Z</time>
      </trkpt>
      <trkpt lat="43.79374" lon="5.26745">
        <ele>684</ele>
        <time>2011-02-27T12:04:17Z</time>
      </trkpt>
      <trkpt lat="43.79375" lon="5.26756">
        <ele>684</ele>
        <time>2011-02-27T12:04:27Z</time>
      </trkpt>
      <trkpt lat="43.79379" lon="5.26766">
        <ele>684</ele>
        <time>2011-02-27T12:04:37Z</time>
      </trkpt>
      <trkpt lat="43.79382" lon="5.26776">
        <ele>684</ele>
        <time>2011-02-27T12:04:49Z</time>
      </trkpt>
      <trkpt lat="43.79383" lon="5.26784">
        <ele>684</ele>
        <time>2011-02-27T12:05:00Z</time>
      </trkpt>
      <trkpt lat="43.79382" lon="5.26794">
        <ele>684</ele>
        <time>2011-02-27T12:05:11Z</time>
      </trkpt>
      <trkpt lat="43.79381" lon="5.26803">
        <ele>683</ele>
        <time>2011-02-27T12:05:21Z</time>
      </trkpt>
      <trkpt lat="43.7938" lon="5.26813">
        <ele>682</ele>
        <time>2011-02-27T12:05:31Z</time>
      </trkpt>
      <trkpt lat="43.79379" lon="5.26826">
        <ele>681</ele>
        <time>2011-02-27T12:05:41Z</time>
      </trkpt>
      <trkpt lat="43.79373" lon="5.26842">
        <ele>681</ele>
        <time>2011-02-27T12:05:52Z</time>
      </trkpt>
      <trkpt lat="43.79371" lon="5.26854">
        <ele>681</ele>
        <time>2011-02-27T12:06:02Z</time>
      </trkpt>
      <trkpt lat="43.7937" lon="5.26867">
        <ele>681</ele>
        <time>2011-02-27T12:06:12Z</time>
      </trkpt>
      <trkpt lat="43.79367" lon="5.2688">
        <ele>681</ele>
        <time>2011-02-27T12:06:22Z</time>
      </trkpt>
      <trkpt lat="43.79362" lon="5.26885">
        <ele>681</ele>
        <time>2011-02-27T12:06:34Z</time>
      </trkpt>
      <trkpt lat="43.79355" lon="5.26894">
        <ele>680</ele>
        <time>2011-02-27T12:06:45Z</time>
      </trkpt>
      <trkpt lat="43.79348" lon="5.26901">
        <ele>678</ele>
        <time>2011-02-27T12:06:55Z</time>
      </trkpt>
      <trkpt lat="43.79343" lon="5.26914">
        <ele>677</ele>
        <time>2011-02-27T12:07:05Z</time>
      </trkpt>
      <trkpt lat="43.7934" lon="5.26926">
        <ele>677</ele>
        <time>2011-02-27T12:07:15Z</time>
      </trkpt>
      <trkpt lat="43.79339" lon="5.26935">
        <ele>677</ele>
        <time>2011-02-27T12:07:25Z</time>
      </trkpt>
      <trkpt lat="43.7934" lon="5.26944">
        <ele>676</ele>
        <time>2011-02-27T12:07:36Z</time>
      </trkpt>
      <trkpt lat="43.79341" lon="5.26957">
        <ele>675</ele>
        <time>2011-02-27T12:07:46Z</time>
      </trkpt>
      <trkpt lat="43.79342" lon="5.26974">
        <ele>674</ele>
        <time>2011-02-27T12:07:56Z</time>
      </trkpt>
      <trkpt lat="43.79346" lon="5.26988">
        <ele>673</ele>
        <time>2011-02-27T12:08:06Z</time>
      </trkpt>
      <trkpt lat="43.79348" lon="5.27002">
        <ele>672</ele>
        <time>2011-02-27T12:08:16Z</time>
      </trkpt>
      <trkpt lat="43.79351" lon="5.27013">
        <ele>672</ele>
        <time>2011-02-27T12:08:26Z</time>
      </trkpt>
      <trkpt lat="43.79356" lon="5.27026">
        <ele>672</ele>
        <time>2011-02-27T12:08:37Z</time>
      </trkpt>
      <trkpt lat="43.79361" lon="5.27038">
        <ele>672</ele>
        <time>2011-02-27T12:08:47Z</time>
      </trkpt>
      <trkpt lat="43.79366" lon="5.27049">
        <ele>672</ele>
        <time>2011-02-27T12:08:57Z</time>
      </trkpt>
      <trkpt lat="43.7937" lon="5.27061">
        <ele>672</ele>
        <time>2011-02-27T12:09:07Z</time>
      </trkpt>
      <trkpt lat="43.79376" lon="5.2707">
        <ele>671</ele>
        <time>2011-02-27T12:09:17Z</time>
      </trkpt>
      <trkpt lat="43.79377" lon="5.27077">
        <ele>670</ele>
        <time>2011-02-27T12:09:27Z</time>
      </trkpt>
      <trkpt lat="43.79377" lon="5.2708">
        <ele>670</ele>
        <time>2011-02-27T12:09:42Z</time>
      </trkpt>
      <trkpt lat="43.79376" lon="5.2709">
        <ele>669</ele>
        <time>2011-02-27T12:09:52Z</time>
      </trkpt>
      <trkpt lat="43.79374" lon="5.271">
        <ele>669</ele>
        <time>2011-02-27T12:10:03Z</time>
      </trkpt>
      <trkpt lat="43.79373" lon="5.27114">
        <ele>668</ele>
        <time>2011-02-27T12:10:13Z</time>
      </trkpt>
      <trkpt lat="43.79368" lon="5.27128">
        <ele>667</ele>
        <time>2011-02-27T12:10:23Z</time>
      </trkpt>
      <trkpt lat="43.79362" lon="5.2714">
        <ele>665</ele>
        <time>2011-02-27T12:10:33Z</time>
      </trkpt>
      <trkpt lat="43.79356" lon="5.2715">
        <ele>664</ele>
        <time>2011-02-27T12:10:43Z</time>
      </trkpt>
      <trkpt lat="43.79348" lon="5.27157">
        <ele>663</ele>
        <time>2011-02-27T12:10:53Z</time>
      </trkpt>
      <trkpt lat="43.79342" lon="5.27165">
        <ele>662</ele>
        <time>2011-02-27T12:11:04Z</time>
      </trkpt>
      <trkpt lat="43.79335" lon="5.27172">
        <ele>661</ele>
        <time>2011-02-27T12:11:14Z</time>
      </trkpt>
      <trkpt lat="43.79329" lon="5.27181">
        <ele>660</ele>
        <time>2011-02-27T12:11:24Z</time>
      </trkpt>
      <trkpt lat="43.79324" lon="5.27194">
        <ele>658</ele>
        <time>2011-02-27T12:11:35Z</time>
      </trkpt>
      <trkpt lat="43.79322" lon="5.27208">
        <ele>658</ele>
        <time>2011-02-27T12:11:45Z</time>
      </trkpt>
      <trkpt lat="43.79319" lon="5.27221">
        <ele>658</ele>
        <time>2011-02-27T12:11:56Z</time>
      </trkpt>
      <trkpt lat="43.79318" lon="5.27234">
        <ele>657</ele>
        <time>2011-02-27T12:12:06Z</time>
      </trkpt>
      <trkpt lat="43.7932" lon="5.27249">
        <ele>656</ele>
        <time>2011-02-27T12:12:16Z</time>
      </trkpt>
      <trkpt lat="43.7932" lon="5.27265">
        <ele>655</ele>
        <time>2011-02-27T12:12:26Z</time>
      </trkpt>
      <trkpt lat="43.79318" lon="5.2728">
        <ele>654</ele>
        <time>2011-02-27T12:12:36Z</time>
      </trkpt>
      <trkpt lat="43.7932" lon="5.27296">
        <ele>652</ele>
        <time>2011-02-27T12:12:47Z</time>
      </trkpt>
      <trkpt lat="43.79324" lon="5.27309">
        <ele>650</ele>
        <time>2011-02-27T12:12:57Z</time>
      </trkpt>
      <trkpt lat="43.79326" lon="5.27322">
        <ele>649</ele>
        <time>2011-02-27T12:13:08Z</time>
      </trkpt>
      <trkpt lat="43.79322" lon="5.27336">
        <ele>647</ele>
        <time>2011-02-27T12:13:18Z</time>
      </trkpt>
      <trkpt lat="43.79319" lon="5.2735">
        <ele>646</ele>
        <time>2011-02-27T12:13:29Z</time>
      </trkpt>
      <trkpt lat="43.79313" lon="5.27359">
        <ele>645</ele>
        <time>2011-02-27T12:13:39Z</time>
      </trkpt>
      <trkpt lat="43.79311" lon="5.27372">
        <ele>644</ele>
        <time>2011-02-27T12:13:49Z</time>
      </trkpt>
      <trkpt lat="43.79308" lon="5.27383">
        <ele>643</ele>
        <time>2011-02-27T12:13:59Z</time>
      </trkpt>
      <trkpt lat="43.79306" lon="5.27397">
        <ele>641</ele>
        <time>2011-02-27T12:14:09Z</time>
      </trkpt>
      <trkpt lat="43.79303" lon="5.27412">
        <ele>640</ele>
        <time>2011-02-27T12:14:19Z</time>
      </trkpt>
      <trkpt lat="43.793" lon="5.27424">
        <ele>639</ele>
        <time>2011-02-27T12:14:29Z</time>
      </trkpt>
      <trkpt lat="43.79299" lon="5.27436">
        <ele>638</ele>
        <time>2011-02-27T12:14:39Z</time>
      </trkpt>
      <trkpt lat="43.79299" lon="5.2745">
        <ele>636</ele>
        <time>2011-02-27T12:14:49Z</time>
      </trkpt>
      <trkpt lat="43.79291" lon="5.27461">
        <ele>634</ele>
        <time>2011-02-27T12:15:00Z</time>
      </trkpt>
      <trkpt lat="43.79289" lon="5.27475">
        <ele>634</ele>
        <time>2011-02-27T12:15:11Z</time>
      </trkpt>
      <trkpt lat="43.79282" lon="5.27482">
        <ele>632</ele>
        <time>2011-02-27T12:15:21Z</time>
      </trkpt>
      <trkpt lat="43.79279" lon="5.27494">
        <ele>630</ele>
        <time>2011-02-27T12:15:32Z</time>
      </trkpt>
      <trkpt lat="43.79273" lon="5.27502">
        <ele>630</ele>
        <time>2011-02-27T12:15:42Z</time>
      </trkpt>
      <trkpt lat="43.79265" lon="5.27507">
        <ele>627</ele>
        <time>2011-02-27T12:15:52Z</time>
      </trkpt>
      <trkpt lat="43.79259" lon="5.27514">
        <ele>625</ele>
        <time>2011-02-27T12:16:07Z</time>
      </trkpt>
      <trkpt lat="43.79257" lon="5.27518">
        <ele>625</ele>
        <time>2011-02-27T12:16:18Z</time>
      </trkpt>
      <trkpt lat="43.79256" lon="5.27526">
        <ele>625</ele>
        <time>2011-02-27T12:17:18Z</time>
      </trkpt>
      <trkpt lat="43.79256" lon="5.27528">
        <ele>626</ele>
        <time>2011-02-27T12:17:58Z</time>
      </trkpt>
      <trkpt lat="43.79257" lon="5.27529">
        <ele>626</ele>
        <time>2011-02-27T12:18:08Z</time>
      </trkpt>
      <trkpt lat="43.79256" lon="5.27529">
        <ele>627</ele>
        <time>2011-02-27T12:18:26Z</time>
      </trkpt>
      <trkpt lat="43.79253" lon="5.27526">
        <ele>628</ele>
        <time>2011-02-27T12:18:55Z</time>
      </trkpt>
      <trkpt lat="43.79253" lon="5.27528">
        <ele>628</ele>
        <time>2011-02-27T12:19:26Z</time>
      </trkpt>
      <trkpt lat="43.79247" lon="5.27538">
        <ele>628</ele>
        <time>2011-02-27T12:19:36Z</time>
      </trkpt>
      <trkpt lat="43.79243" lon="5.27545">
        <ele>628</ele>
        <time>2011-02-27T12:19:46Z</time>
      </trkpt>
      <trkpt lat="43.79238" lon="5.27555">
        <ele>626</ele>
        <time>2011-02-27T12:19:56Z</time>
      </trkpt>
      <trkpt lat="43.79232" lon="5.27569">
        <ele>626</ele>
        <time>2011-02-27T12:20:07Z</time>
      </trkpt>
      <trkpt lat="43.79225" lon="5.27577">
        <ele>625</ele>
        <time>2011-02-27T12:20:17Z</time>
      </trkpt>
      <trkpt lat="43.79216" lon="5.27584">
        <ele>623</ele>
        <time>2011-02-27T12:20:28Z</time>
      </trkpt>
      <trkpt lat="43.79212" lon="5.27594">
        <ele>623</ele>
        <time>2011-02-27T12:20:39Z</time>
      </trkpt>
      <trkpt lat="43.79207" lon="5.27603">
        <ele>621</ele>
        <time>2011-02-27T12:20:49Z</time>
      </trkpt>
      <trkpt lat="43.79199" lon="5.27606">
        <ele>618</ele>
        <time>2011-02-27T12:20:59Z</time>
      </trkpt>
      <trkpt lat="43.79197" lon="5.27615">
        <ele>616</ele>
        <time>2011-02-27T12:21:10Z</time>
      </trkpt>
      <trkpt lat="43.7919" lon="5.2762">
        <ele>613</ele>
        <time>2011-02-27T12:21:20Z</time>
      </trkpt>
      <trkpt lat="43.79182" lon="5.27616">
        <ele>611</ele>
        <time>2011-02-27T12:21:30Z</time>
      </trkpt>
      <trkpt lat="43.79175" lon="5.27612">
        <ele>608</ele>
        <time>2011-02-27T12:21:40Z</time>
      </trkpt>
      <trkpt lat="43.79168" lon="5.2761">
        <ele>605</ele>
        <time>2011-02-27T12:21:51Z</time>
      </trkpt>
      <trkpt lat="43.79161" lon="5.27614">
        <ele>602</ele>
        <time>2011-02-27T12:22:01Z</time>
      </trkpt>
      <trkpt lat="43.79154" lon="5.27618">
        <ele>599</ele>
        <time>2011-02-27T12:22:12Z</time>
      </trkpt>
      <trkpt lat="43.79147" lon="5.27622">
        <ele>595</ele>
        <time>2011-02-27T12:22:23Z</time>
      </trkpt>
      <trkpt lat="43.79138" lon="5.27629">
        <ele>592</ele>
        <time>2011-02-27T12:22:33Z</time>
      </trkpt>
      <trkpt lat="43.79126" lon="5.27635">
        <ele>588</ele>
        <time>2011-02-27T12:22:43Z</time>
      </trkpt>
      <trkpt lat="43.79113" lon="5.2763">
        <ele>585</ele>
        <time>2011-02-27T12:22:53Z</time>
      </trkpt>
      <trkpt lat="43.791" lon="5.27637">
        <ele>580</ele>
        <time>2011-02-27T12:23:04Z</time>
      </trkpt>
      <trkpt lat="43.79088" lon="5.27637">
        <ele>577</ele>
        <time>2011-02-27T12:23:14Z</time>
      </trkpt>
      <trkpt lat="43.79077" lon="5.27634">
        <ele>574</ele>
        <time>2011-02-27T12:23:24Z</time>
      </trkpt>
      <trkpt lat="43.79064" lon="5.27633">
        <ele>570</ele>
        <time>2011-02-27T12:23:34Z</time>
      </trkpt>
      <trkpt lat="43.79052" lon="5.27637">
        <ele>568</ele>
        <time>2011-02-27T12:23:44Z</time>
      </trkpt>
      <trkpt lat="43.79041" lon="5.27635">
        <ele>567</ele>
        <time>2011-02-27T12:23:54Z</time>
      </trkpt>
      <trkpt lat="43.79028" lon="5.27635">
        <ele>564</ele>
        <time>2011-02-27T12:24:04Z</time>
      </trkpt>
      <trkpt lat="43.79018" lon="5.27635">
        <ele>563</ele>
        <time>2011-02-27T12:24:20Z</time>
      </trkpt>
      <trkpt lat="43.79015" lon="5.27633">
        <ele>563</ele>
        <time>2011-02-27T12:24:36Z</time>
      </trkpt>
      <trkpt lat="43.79013" lon="5.27631">
        <ele>563</ele>
        <time>2011-02-27T12:25:05Z</time>
      </trkpt>
      <trkpt lat="43.79013" lon="5.27633">
        <ele>563</ele>
        <time>2011-02-27T12:25:19Z</time>
      </trkpt>
      <trkpt lat="43.79008" lon="5.27628">
        <ele>563</ele>
        <time>2011-02-27T12:25:29Z</time>
      </trkpt>
      <trkpt lat="43.79008" lon="5.27627">
        <ele>563</ele>
        <time>2011-02-27T12:25:47Z</time>
      </trkpt>
      <trkpt lat="43.79009" lon="5.27628">
        <ele>563</ele>
        <time>2011-02-27T12:26:17Z</time>
      </trkpt>
      <trkpt lat="43.7901" lon="5.27629">
        <ele>563</ele>
        <time>2011-02-27T12:26:47Z</time>
      </trkpt>
      <trkpt lat="43.79009" lon="5.2763">
        <ele>565</ele>
        <time>2011-02-27T12:27:46Z</time>
      </trkpt>
      <trkpt lat="43.79009" lon="5.27631">
        <ele>565</ele>
        <time>2011-02-27T12:28:17Z</time>
      </trkpt>
      <trkpt lat="43.79011" lon="5.27632">
        <ele>564</ele>
        <time>2011-02-27T12:28:33Z</time>
      </trkpt>
      <trkpt lat="43.7901" lon="5.27631">
        <ele>563</ele>
        <time>2011-02-27T12:28:49Z</time>
      </trkpt>
      <trkpt lat="43.7901" lon="5.27631">
        <ele>563</ele>
        <time>2011-02-27T12:29:49Z</time>
      </trkpt>
      <trkpt lat="43.79011" lon="5.27631">
        <ele>563</ele>
        <time>2011-02-27T12:30:33Z</time>
      </trkpt>
      <trkpt lat="43.7901" lon="5.27631">
        <ele>563</ele>
        <time>2011-02-27T12:31:04Z</time>
      </trkpt>
      <trkpt lat="43.79008" lon="5.2763">
        <ele>563</ele>
        <time>2011-02-27T12:31:19Z</time>
      </trkpt>
      <trkpt lat="43.79009" lon="5.27632">
        <ele>563</ele>
        <time>2011-02-27T12:32:08Z</time>
      </trkpt>
      <trkpt lat="43.79009" lon="5.27633">
        <ele>563</ele>
        <time>2011-02-27T12:32:19Z</time>
      </trkpt>
      <trkpt lat="43.79009" lon="5.27635">
        <ele>563</ele>
        <time>2011-02-27T12:32:38Z</time>
      </trkpt>
      <trkpt lat="43.7901" lon="5.27635">
        <ele>563</ele>
        <time>2011-02-27T12:32:56Z</time>
      </trkpt>
      <trkpt lat="43.79009" lon="5.27636">
        <ele>563</ele>
        <time>2011-02-27T12:33:20Z</time>
      </trkpt>
      <trkpt lat="43.79007" lon="5.27636">
        <ele>563</ele>
        <time>2011-02-27T12:33:33Z</time>
      </trkpt>
      <trkpt lat="43.79008" lon="5.27633">
        <ele>563</ele>
        <time>2011-02-27T12:33:49Z</time>
      </trkpt>
      <trkpt lat="43.79009" lon="5.27637">
        <ele>563</ele>
        <time>2011-02-27T12:34:00Z</time>
      </trkpt>
      <trkpt lat="43.79011" lon="5.27647">
        <ele>563</ele>
        <time>2011-02-27T12:34:11Z</time>
      </trkpt>
      <trkpt lat="43.79018" lon="5.27654">
        <ele>563</ele>
        <time>2011-02-27T12:34:21Z</time>
      </trkpt>
      <trkpt lat="43.79024" lon="5.27663">
        <ele>563</ele>
        <time>2011-02-27T12:34:31Z</time>
      </trkpt>
      <trkpt lat="43.79031" lon="5.27673">
        <ele>563</ele>
        <time>2011-02-27T12:34:41Z</time>
      </trkpt>
      <trkpt lat="43.79037" lon="5.27684">
        <ele>563</ele>
        <time>2011-02-27T12:34:51Z</time>
      </trkpt>
      <trkpt lat="43.79042" lon="5.27697">
        <ele>563</ele>
        <time>2011-02-27T12:35:01Z</time>
      </trkpt>
      <trkpt lat="43.79047" lon="5.2771">
        <ele>562</ele>
        <time>2011-02-27T12:35:11Z</time>
      </trkpt>
      <trkpt lat="43.79053" lon="5.27722">
        <ele>561</ele>
        <time>2011-02-27T12:35:21Z</time>
      </trkpt>
      <trkpt lat="43.79061" lon="5.27731">
        <ele>560</ele>
        <time>2011-02-27T12:35:31Z</time>
      </trkpt>
      <trkpt lat="43.7907" lon="5.27737">
        <ele>559</ele>
        <time>2011-02-27T12:35:41Z</time>
      </trkpt>
      <trkpt lat="43.79081" lon="5.27737">
        <ele>558</ele>
        <time>2011-02-27T12:35:52Z</time>
      </trkpt>
      <trkpt lat="43.79091" lon="5.27733">
        <ele>557</ele>
        <time>2011-02-27T12:36:02Z</time>
      </trkpt>
      <trkpt lat="43.79101" lon="5.27732">
        <ele>557</ele>
        <time>2011-02-27T12:36:12Z</time>
      </trkpt>
      <trkpt lat="43.7911" lon="5.27737">
        <ele>555</ele>
        <time>2011-02-27T12:36:22Z</time>
      </trkpt>
      <trkpt lat="43.79116" lon="5.27747">
        <ele>552</ele>
        <time>2011-02-27T12:36:32Z</time>
      </trkpt>
      <trkpt lat="43.79116" lon="5.27763">
        <ele>550</ele>
        <time>2011-02-27T12:36:43Z</time>
      </trkpt>
      <trkpt lat="43.79111" lon="5.27776">
        <ele>548</ele>
        <time>2011-02-27T12:36:53Z</time>
      </trkpt>
      <trkpt lat="43.79106" lon="5.27789">
        <ele>548</ele>
        <time>2011-02-27T12:37:03Z</time>
      </trkpt>
      <trkpt lat="43.79101" lon="5.27802">
        <ele>548</ele>
        <time>2011-02-27T12:37:13Z</time>
      </trkpt>
      <trkpt lat="43.79093" lon="5.27815">
        <ele>547</ele>
        <time>2011-02-27T12:37:24Z</time>
      </trkpt>
      <trkpt lat="43.79084" lon="5.27824">
        <ele>546</ele>
        <time>2011-02-27T12:37:34Z</time>
      </trkpt>
      <trkpt lat="43.79073" lon="5.27833">
        <ele>544</ele>
        <time>2011-02-27T12:37:45Z</time>
      </trkpt>
      <trkpt lat="43.79065" lon="5.27845">
        <ele>544</ele>
        <time>2011-02-27T12:37:55Z</time>
      </trkpt>
      <trkpt lat="43.79058" lon="5.27858">
        <ele>544</ele>
        <time>2011-02-27T12:38:05Z</time>
      </trkpt>
      <trkpt lat="43.79052" lon="5.27872">
        <ele>544</ele>
        <time>2011-02-27T12:38:16Z</time>
      </trkpt>
      <trkpt lat="43.79042" lon="5.27883">
        <ele>544</ele>
        <time>2011-02-27T12:38:26Z</time>
      </trkpt>
      <trkpt lat="43.79037" lon="5.27895">
        <ele>544</ele>
        <time>2011-02-27T12:38:36Z</time>
      </trkpt>
      <trkpt lat="43.79036" lon="5.2791">
        <ele>543</ele>
        <time>2011-02-27T12:38:46Z</time>
      </trkpt>
      <trkpt lat="43.79037" lon="5.27925">
        <ele>542</ele>
        <time>2011-02-27T12:38:56Z</time>
      </trkpt>
      <trkpt lat="43.79037" lon="5.2794">
        <ele>541</ele>
        <time>2011-02-27T12:39:06Z</time>
      </trkpt>
      <trkpt lat="43.79037" lon="5.27955">
        <ele>540</ele>
        <time>2011-02-27T12:39:16Z</time>
      </trkpt>
      <trkpt lat="43.79036" lon="5.2797">
        <ele>539</ele>
        <time>2011-02-27T12:39:26Z</time>
      </trkpt>
      <trkpt lat="43.79033" lon="5.27986">
        <ele>538</ele>
        <time>2011-02-27T12:39:37Z</time>
      </trkpt>
      <trkpt lat="43.79029" lon="5.28001">
        <ele>537</ele>
        <time>2011-02-27T12:39:47Z</time>
      </trkpt>
      <trkpt lat="43.79024" lon="5.28016">
        <ele>535</ele>
        <time>2011-02-27T12:39:58Z</time>
      </trkpt>
      <trkpt lat="43.79018" lon="5.2803">
        <ele>534</ele>
        <time>2011-02-27T12:40:09Z</time>
      </trkpt>
      <trkpt lat="43.7901" lon="5.28043">
        <ele>532</ele>
        <time>2011-02-27T12:40:20Z</time>
      </trkpt>
      <trkpt lat="43.79002" lon="5.28052">
        <ele>531</ele>
        <time>2011-02-27T12:40:30Z</time>
      </trkpt>
      <trkpt lat="43.78991" lon="5.28059">
        <ele>530</ele>
        <time>2011-02-27T12:40:40Z</time>
      </trkpt>
      <trkpt lat="43.78981" lon="5.28066">
        <ele>529</ele>
        <time>2011-02-27T12:40:50Z</time>
      </trkpt>
      <trkpt lat="43.78973" lon="5.28073">
        <ele>528</ele>
        <time>2011-02-27T12:41:00Z</time>
      </trkpt>
      <trkpt lat="43.78968" lon="5.28078">
        <ele>528</ele>
        <time>2011-02-27T12:41:12Z</time>
      </trkpt>
      <trkpt lat="43.78967" lon="5.28085">
        <ele>528</ele>
        <time>2011-02-27T12:41:23Z</time>
      </trkpt>
      <trkpt lat="43.7897" lon="5.28095">
        <ele>527</ele>
        <time>2011-02-27T12:41:33Z</time>
      </trkpt>
      <trkpt lat="43.78978" lon="5.28098">
        <ele>526</ele>
        <time>2011-02-27T12:41:43Z</time>
      </trkpt>
      <trkpt lat="43.78988" lon="5.28096">
        <ele>525</ele>
        <time>2011-02-27T12:41:55Z</time>
      </trkpt>
      <trkpt lat="43.78998" lon="5.28095">
        <ele>525</ele>
        <time>2011-02-27T12:42:05Z</time>
      </trkpt>
      <trkpt lat="43.79009" lon="5.28092">
        <ele>523</ele>
        <time>2011-02-27T12:42:16Z</time>
      </trkpt>
      <trkpt lat="43.7902" lon="5.2809">
        <ele>522</ele>
        <time>2011-02-27T12:42:26Z</time>
      </trkpt>
      <trkpt lat="43.79032" lon="5.28086">
        <ele>521</ele>
        <time>2011-02-27T12:42:37Z</time>
      </trkpt>
      <trkpt lat="43.79043" lon="5.28083">
        <ele>519</ele>
        <time>2011-02-27T12:42:47Z</time>
      </trkpt>
      <trkpt lat="43.79054" lon="5.28079">
        <ele>518</ele>
        <time>2011-02-27T12:42:57Z</time>
      </trkpt>
      <trkpt lat="43.79067" lon="5.28079">
        <ele>516</ele>
        <time>2011-02-27T12:43:08Z</time>
      </trkpt>
      <trkpt lat="43.79068" lon="5.28094">
        <ele>514</ele>
        <time>2011-02-27T12:43:20Z</time>
      </trkpt>
      <trkpt lat="43.79066" lon="5.28103">
        <ele>514</ele>
        <time>2011-02-27T12:43:32Z</time>
      </trkpt>
      <trkpt lat="43.79061" lon="5.28108">
        <ele>514</ele>
        <time>2011-02-27T12:43:44Z</time>
      </trkpt>
      <trkpt lat="43.79052" lon="5.28118">
        <ele>510</ele>
        <time>2011-02-27T12:43:54Z</time>
      </trkpt>
      <trkpt lat="43.79045" lon="5.28137">
        <ele>505</ele>
        <time>2011-02-27T12:44:04Z</time>
      </trkpt>
      <trkpt lat="43.79036" lon="5.28154">
        <ele>503</ele>
        <time>2011-02-27T12:44:14Z</time>
      </trkpt>
      <trkpt lat="43.79027" lon="5.28174">
        <ele>501</ele>
        <time>2011-02-27T12:44:24Z</time>
      </trkpt>
      <trkpt lat="43.79025" lon="5.28196">
        <ele>496</ele>
        <time>2011-02-27T12:44:35Z</time>
      </trkpt>
      <trkpt lat="43.79014" lon="5.28209">
        <ele>492</ele>
        <time>2011-02-27T12:44:46Z</time>
      </trkpt>
      <trkpt lat="43.79001" lon="5.28219">
        <ele>491</ele>
        <time>2011-02-27T12:44:57Z</time>
      </trkpt>
      <trkpt lat="43.78989" lon="5.28233">
        <ele>490</ele>
        <time>2011-02-27T12:45:08Z</time>
      </trkpt>
      <trkpt lat="43.78978" lon="5.28244">
        <ele>488</ele>
        <time>2011-02-27T12:45:18Z</time>
      </trkpt>
      <trkpt lat="43.78974" lon="5.28261">
        <ele>486</ele>
        <time>2011-02-27T12:45:28Z</time>
      </trkpt>
      <trkpt lat="43.78974" lon="5.28279">
        <ele>483</ele>
        <time>2011-02-27T12:45:38Z</time>
      </trkpt>
      <trkpt lat="43.78974" lon="5.28298">
        <ele>479</ele>
        <time>2011-02-27T12:45:48Z</time>
      </trkpt>
      <trkpt lat="43.78973" lon="5.28317">
        <ele>478</ele>
        <time>2011-02-27T12:45:58Z</time>
      </trkpt>
      <trkpt lat="43.78974" lon="5.28335">
        <ele>475</ele>
        <time>2011-02-27T12:46:08Z</time>
      </trkpt>
      <trkpt lat="43.78978" lon="5.28355">
        <ele>473</ele>
        <time>2011-02-27T12:46:18Z</time>
      </trkpt>
      <trkpt lat="43.78978" lon="5.28375">
        <ele>470</ele>
        <time>2011-02-27T12:46:28Z</time>
      </trkpt>
      <trkpt lat="43.78979" lon="5.28394">
        <ele>468</ele>
        <time>2011-02-27T12:46:38Z</time>
      </trkpt>
      <trkpt lat="43.7898" lon="5.28412">
        <ele>465</ele>
        <time>2011-02-27T12:46:48Z</time>
      </trkpt>
      <trkpt lat="43.78982" lon="5.28432">
        <ele>464</ele>
        <time>2011-02-27T12:46:58Z</time>
      </trkpt>
      <trkpt lat="43.78981" lon="5.28449">
        <ele>462</ele>
        <time>2011-02-27T12:47:08Z</time>
      </trkpt>
      <trkpt lat="43.78982" lon="5.28469">
        <ele>461</ele>
        <time>2011-02-27T12:47:18Z</time>
      </trkpt>
      <trkpt lat="43.7898" lon="5.28487">
        <ele>459</ele>
        <time>2011-02-27T12:47:28Z</time>
      </trkpt>
      <trkpt lat="43.78979" lon="5.28508">
        <ele>457</ele>
        <time>2011-02-27T12:47:38Z</time>
      </trkpt>
      <trkpt lat="43.78974" lon="5.28528">
        <ele>454</ele>
        <time>2011-02-27T12:47:49Z</time>
      </trkpt>
      <trkpt lat="43.78973" lon="5.28544">
        <ele>450</ele>
        <time>2011-02-27T12:47:59Z</time>
      </trkpt>
      <trkpt lat="43.78973" lon="5.28547">
        <ele>450</ele>
        <time>2011-02-27T12:48:24Z</time>
      </trkpt>
      <trkpt lat="43.78972" lon="5.2856">
        <ele>449</ele>
        <time>2011-02-27T12:48:34Z</time>
      </trkpt>
      <trkpt lat="43.78971" lon="5.28576">
        <ele>449</ele>
        <time>2011-02-27T12:48:44Z</time>
      </trkpt>
      <trkpt lat="43.7897" lon="5.28597">
        <ele>447</ele>
        <time>2011-02-27T12:48:55Z</time>
      </trkpt>
      <trkpt lat="43.78969" lon="5.28616">
        <ele>446</ele>
        <time>2011-02-27T12:49:05Z</time>
      </trkpt>
      <trkpt lat="43.7897" lon="5.28638">
        <ele>443</ele>
        <time>2011-02-27T12:49:16Z</time>
      </trkpt>
      <trkpt lat="43.78974" lon="5.28659">
        <ele>441</ele>
        <time>2011-02-27T12:49:26Z</time>
      </trkpt>
      <trkpt lat="43.78978" lon="5.28678">
        <ele>439</ele>
        <time>2011-02-27T12:49:36Z</time>
      </trkpt>
      <trkpt lat="43.78979" lon="5.287">
        <ele>436</ele>
        <time>2011-02-27T12:49:46Z</time>
      </trkpt>
      <trkpt lat="43.78978" lon="5.2872">
        <ele>434</ele>
        <time>2011-02-27T12:49:56Z</time>
      </trkpt>
      <trkpt lat="43.78975" lon="5.28741">
        <ele>433</ele>
        <time>2011-02-27T12:50:07Z</time>
      </trkpt>
      <trkpt lat="43.7897" lon="5.28752">
        <ele>432</ele>
        <time>2011-02-27T12:50:41Z</time>
      </trkpt>
      <trkpt lat="43.78968" lon="5.2875">
        <ele>432</ele>
        <time>2011-02-27T12:50:51Z</time>
      </trkpt>
      <trkpt lat="43.78962" lon="5.28756">
        <ele>432</ele>
        <time>2011-02-27T12:51:01Z</time>
      </trkpt>
      <trkpt lat="43.78953" lon="5.28757">
        <ele>432</ele>
        <time>2011-02-27T12:51:11Z</time>
      </trkpt>
      <trkpt lat="43.78954" lon="5.28757">
        <ele>432</ele>
        <time>2011-02-27T12:51:35Z</time>
      </trkpt>
      <trkpt lat="43.78956" lon="5.28757">
        <ele>432</ele>
        <time>2011-02-27T12:51:53Z</time>
      </trkpt>
      <trkpt lat="43.78965" lon="5.28756">
        <ele>432</ele>
        <time>2011-02-27T12:52:05Z</time>
      </trkpt>
      <trkpt lat="43.78968" lon="5.28749">
        <ele>432</ele>
        <time>2011-02-27T12:52:18Z</time>
      </trkpt>
      <trkpt lat="43.7897" lon="5.28751">
        <ele>438</ele>
        <time>2011-02-27T12:52:28Z</time>
      </trkpt>
      <trkpt lat="43.7896" lon="5.28745">
        <ele>440</ele>
        <time>2011-02-27T12:52:38Z</time>
      </trkpt>
      <trkpt lat="43.78967" lon="5.28744">
        <ele>442</ele>
        <time>2011-02-27T12:52:48Z</time>
      </trkpt>
      <trkpt lat="43.78968" lon="5.2874">
        <ele>445</ele>
        <time>2011-02-27T12:52:58Z</time>
      </trkpt>
      <trkpt lat="43.78973" lon="5.28743">
        <ele>440</ele>
        <time>2011-02-27T12:53:08Z</time>
      </trkpt>
      <trkpt lat="43.78977" lon="5.28746">
        <ele>444</ele>
        <time>2011-02-27T12:53:24Z</time>
      </trkpt>
      <trkpt lat="43.78975" lon="5.28752">
        <ele>444</ele>
        <time>2011-02-27T12:53:34Z</time>
      </trkpt>
      <trkpt lat="43.78978" lon="5.28755">
        <ele>443</ele>
        <time>2011-02-27T12:53:47Z</time>
      </trkpt>
      <trkpt lat="43.78984" lon="5.28765">
        <ele>437</ele>
        <time>2011-02-27T12:53:58Z</time>
      </trkpt>
      <trkpt lat="43.78987" lon="5.28779">
        <ele>434</ele>
        <time>2011-02-27T12:54:09Z</time>
      </trkpt>
      <trkpt lat="43.78988" lon="5.28795">
        <ele>432</ele>
        <time>2011-02-27T12:54:20Z</time>
      </trkpt>
      <trkpt lat="43.78989" lon="5.28808">
        <ele>431</ele>
        <time>2011-02-27T12:54:30Z</time>
      </trkpt>
      <trkpt lat="43.78989" lon="5.28823">
        <ele>430</ele>
        <time>2011-02-27T12:54:40Z</time>
      </trkpt>
      <trkpt lat="43.78989" lon="5.28838">
        <ele>429</ele>
        <time>2011-02-27T12:54:51Z</time>
      </trkpt>
      <trkpt lat="43.78992" lon="5.28851">
        <ele>428</ele>
        <time>2011-02-27T12:55:01Z</time>
      </trkpt>
      <trkpt lat="43.78996" lon="5.28864">
        <ele>426</ele>
        <time>2011-02-27T12:55:11Z</time>
      </trkpt>
      <trkpt lat="43.79" lon="5.28876">
        <ele>425</ele>
        <time>2011-02-27T12:55:21Z</time>
      </trkpt>
      <trkpt lat="43.79004" lon="5.28887">
        <ele>423</ele>
        <time>2011-02-27T12:55:31Z</time>
      </trkpt>
      <trkpt lat="43.7901" lon="5.28898">
        <ele>422</ele>
        <time>2011-02-27T12:55:41Z</time>
      </trkpt>
      <trkpt lat="43.79018" lon="5.28912">
        <ele>420</ele>
        <time>2011-02-27T12:55:52Z</time>
      </trkpt>
      <trkpt lat="43.79024" lon="5.28928">
        <ele>420</ele>
        <time>2011-02-27T12:56:03Z</time>
      </trkpt>
      <trkpt lat="43.79029" lon="5.28942">
        <ele>420</ele>
        <time>2011-02-27T12:56:13Z</time>
      </trkpt>
      <trkpt lat="43.79036" lon="5.28956">
        <ele>420</ele>
        <time>2011-02-27T12:56:23Z</time>
      </trkpt>
      <trkpt lat="43.79046" lon="5.28971">
        <ele>418</ele>
        <time>2011-02-27T12:56:34Z</time>
      </trkpt>
      <trkpt lat="43.79053" lon="5.28987">
        <ele>418</ele>
        <time>2011-02-27T12:56:45Z</time>
      </trkpt>
      <trkpt lat="43.79057" lon="5.29003">
        <ele>418</ele>
        <time>2011-02-27T12:56:55Z</time>
      </trkpt>
      <trkpt lat="43.79059" lon="5.2902">
        <ele>418</ele>
        <time>2011-02-27T12:57:05Z</time>
      </trkpt>
      <trkpt lat="43.79055" lon="5.29035">
        <ele>418</ele>
        <time>2011-02-27T12:57:16Z</time>
      </trkpt>
      <trkpt lat="43.79047" lon="5.29052">
        <ele>415</ele>
        <time>2011-02-27T12:57:28Z</time>
      </trkpt>
      <trkpt lat="43.79042" lon="5.29067">
        <ele>412</ele>
        <time>2011-02-27T12:57:38Z</time>
      </trkpt>
      <trkpt lat="43.79041" lon="5.29083">
        <ele>409</ele>
        <time>2011-02-27T12:57:48Z</time>
      </trkpt>
      <trkpt lat="43.79037" lon="5.291">
        <ele>407</ele>
        <time>2011-02-27T12:57:59Z</time>
      </trkpt>
      <trkpt lat="43.7903" lon="5.29115">
        <ele>406</ele>
        <time>2011-02-27T12:58:10Z</time>
      </trkpt>
      <trkpt lat="43.79025" lon="5.2913">
        <ele>404</ele>
        <time>2011-02-27T12:58:21Z</time>
      </trkpt>
      <trkpt lat="43.79021" lon="5.29145">
        <ele>402</ele>
        <time>2011-02-27T12:58:31Z</time>
      </trkpt>
      <trkpt lat="43.79018" lon="5.2916">
        <ele>399</ele>
        <time>2011-02-27T12:58:41Z</time>
      </trkpt>
      <trkpt lat="43.79017" lon="5.29175">
        <ele>398</ele>
        <time>2011-02-27T12:58:51Z</time>
      </trkpt>
      <trkpt lat="43.79017" lon="5.29192">
        <ele>397</ele>
        <time>2011-02-27T12:59:02Z</time>
      </trkpt>
      <trkpt lat="43.79017" lon="5.2921">
        <ele>395</ele>
        <time>2011-02-27T12:59:12Z</time>
      </trkpt>
      <trkpt lat="43.79018" lon="5.29227">
        <ele>391</ele>
        <time>2011-02-27T12:59:23Z</time>
      </trkpt>
      <trkpt lat="43.79018" lon="5.29246">
        <ele>389</ele>
        <time>2011-02-27T12:59:33Z</time>
      </trkpt>
      <trkpt lat="43.79014" lon="5.29266">
        <ele>388</ele>
        <time>2011-02-27T12:59:43Z</time>
      </trkpt>
      <trkpt lat="43.79013" lon="5.29285">
        <ele>387</ele>
        <time>2011-02-27T12:59:53Z</time>
      </trkpt>
      <trkpt lat="43.79016" lon="5.29304">
        <ele>387</ele>
        <time>2011-02-27T13:00:03Z</time>
      </trkpt>
      <trkpt lat="43.79016" lon="5.29323">
        <ele>386</ele>
        <time>2011-02-27T13:00:14Z</time>
      </trkpt>
      <trkpt lat="43.79013" lon="5.29341">
        <ele>386</ele>
        <time>2011-02-27T13:00:24Z</time>
      </trkpt>
      <trkpt lat="43.79002" lon="5.29352">
        <ele>385</ele>
        <time>2011-02-27T13:00:35Z</time>
      </trkpt>
      <trkpt lat="43.7899" lon="5.29352">
        <ele>382</ele>
        <time>2011-02-27T13:00:46Z</time>
      </trkpt>
      <trkpt lat="43.78979" lon="5.29357">
        <ele>379</ele>
        <time>2011-02-27T13:00:57Z</time>
      </trkpt>
      <trkpt lat="43.78968" lon="5.29368">
        <ele>379</ele>
        <time>2011-02-27T13:01:08Z</time>
      </trkpt>
      <trkpt lat="43.78957" lon="5.29379">
        <ele>379</ele>
        <time>2011-02-27T13:01:19Z</time>
      </trkpt>
      <trkpt lat="43.78947" lon="5.29391">
        <ele>379</ele>
        <time>2011-02-27T13:01:30Z</time>
      </trkpt>
      <trkpt lat="43.7894" lon="5.29406">
        <ele>379</ele>
        <time>2011-02-27T13:01:41Z</time>
      </trkpt>
      <trkpt lat="43.78934" lon="5.29422">
        <ele>379</ele>
        <time>2011-02-27T13:01:51Z</time>
      </trkpt>
      <trkpt lat="43.78931" lon="5.29439">
        <ele>379</ele>
        <time>2011-02-27T13:02:01Z</time>
      </trkpt>
      <trkpt lat="43.78924" lon="5.29454">
        <ele>378</ele>
        <time>2011-02-27T13:02:11Z</time>
      </trkpt>
      <trkpt lat="43.78912" lon="5.29464">
        <ele>377</ele>
        <time>2011-02-27T13:02:22Z</time>
      </trkpt>
      <trkpt lat="43.78901" lon="5.2947">
        <ele>375</ele>
        <time>2011-02-27T13:02:32Z</time>
      </trkpt>
      <trkpt lat="43.78889" lon="5.2948">
        <ele>375</ele>
        <time>2011-02-27T13:02:42Z</time>
      </trkpt>
      <trkpt lat="43.78881" lon="5.29491">
        <ele>375</ele>
        <time>2011-02-27T13:02:52Z</time>
      </trkpt>
      <trkpt lat="43.78873" lon="5.29505">
        <ele>374</ele>
        <time>2011-02-27T13:03:03Z</time>
      </trkpt>
      <trkpt lat="43.78865" lon="5.29519">
        <ele>373</ele>
        <time>2011-02-27T13:03:13Z</time>
      </trkpt>
      <trkpt lat="43.78858" lon="5.29532">
        <ele>373</ele>
        <time>2011-02-27T13:03:23Z</time>
      </trkpt>
      <trkpt lat="43.78851" lon="5.29549">
        <ele>370</ele>
        <time>2011-02-27T13:03:35Z</time>
      </trkpt>
      <trkpt lat="43.78838" lon="5.2956">
        <ele>369</ele>
        <time>2011-02-27T13:03:47Z</time>
      </trkpt>
      <trkpt lat="43.78825" lon="5.2957">
        <ele>369</ele>
        <time>2011-02-27T13:03:58Z</time>
      </trkpt>
      <trkpt lat="43.78814" lon="5.29579">
        <ele>368</ele>
        <time>2011-02-27T13:04:08Z</time>
      </trkpt>
      <trkpt lat="43.78806" lon="5.2959">
        <ele>368</ele>
        <time>2011-02-27T13:04:18Z</time>
      </trkpt>
      <trkpt lat="43.78801" lon="5.29605">
        <ele>366</ele>
        <time>2011-02-27T13:04:29Z</time>
      </trkpt>
      <trkpt lat="43.78798" lon="5.2962">
        <ele>363</ele>
        <time>2011-02-27T13:04:39Z</time>
      </trkpt>
      <trkpt lat="43.78788" lon="5.29629">
        <ele>363</ele>
        <time>2011-02-27T13:04:49Z</time>
      </trkpt>
      <trkpt lat="43.78774" lon="5.29631">
        <ele>363</ele>
        <time>2011-02-27T13:05:00Z</time>
      </trkpt>
      <trkpt lat="43.78761" lon="5.29631">
        <ele>363</ele>
        <time>2011-02-27T13:05:11Z</time>
      </trkpt>
      <trkpt lat="43.7875" lon="5.29634">
        <ele>361</ele>
        <time>2011-02-27T13:05:21Z</time>
      </trkpt>
      <trkpt lat="43.78738" lon="5.29635">
        <ele>359</ele>
        <time>2011-02-27T13:05:31Z</time>
      </trkpt>
      <trkpt lat="43.78725" lon="5.29635">
        <ele>358</ele>
        <time>2011-02-27T13:05:41Z</time>
      </trkpt>
      <trkpt lat="43.78713" lon="5.29635">
        <ele>358</ele>
        <time>2011-02-27T13:05:51Z</time>
      </trkpt>
      <trkpt lat="43.787" lon="5.29633">
        <ele>358</ele>
        <time>2011-02-27T13:06:01Z</time>
      </trkpt>
      <trkpt lat="43.78687" lon="5.29631">
        <ele>358</ele>
        <time>2011-02-27T13:06:11Z</time>
      </trkpt>
      <trkpt lat="43.78673" lon="5.29631">
        <ele>358</ele>
        <time>2011-02-27T13:06:22Z</time>
      </trkpt>
      <trkpt lat="43.7866" lon="5.29634">
        <ele>358</ele>
        <time>2011-02-27T13:06:33Z</time>
      </trkpt>
      <trkpt lat="43.78649" lon="5.29643">
        <ele>361</ele>
        <time>2011-02-27T13:06:43Z</time>
      </trkpt>
      <trkpt lat="43.78639" lon="5.29654">
        <ele>361</ele>
        <time>2011-02-27T13:06:55Z</time>
      </trkpt>
      <trkpt lat="43.78629" lon="5.29661">
        <ele>360</ele>
        <time>2011-02-27T13:07:05Z</time>
      </trkpt>
      <trkpt lat="43.78617" lon="5.29665">
        <ele>359</ele>
        <time>2011-02-27T13:07:15Z</time>
      </trkpt>
      <trkpt lat="43.78607" lon="5.29667">
        <ele>355</ele>
        <time>2011-02-27T13:07:25Z</time>
      </trkpt>
      <trkpt lat="43.78596" lon="5.29671">
        <ele>353</ele>
        <time>2011-02-27T13:07:35Z</time>
      </trkpt>
      <trkpt lat="43.78585" lon="5.29677">
        <ele>352</ele>
        <time>2011-02-27T13:07:45Z</time>
      </trkpt>
      <trkpt lat="43.78578" lon="5.29685">
        <ele>349</ele>
        <time>2011-02-27T13:07:55Z</time>
      </trkpt>
      <trkpt lat="43.78572" lon="5.297">
        <ele>348</ele>
        <time>2011-02-27T13:08:06Z</time>
      </trkpt>
      <trkpt lat="43.78564" lon="5.29715">
        <ele>348</ele>
        <time>2011-02-27T13:08:16Z</time>
      </trkpt>
      <trkpt lat="43.78556" lon="5.2973">
        <ele>348</ele>
        <time>2011-02-27T13:08:28Z</time>
      </trkpt>
      <trkpt lat="43.78549" lon="5.29743">
        <ele>346</ele>
        <time>2011-02-27T13:08:38Z</time>
      </trkpt>
      <trkpt lat="43.7854" lon="5.29755">
        <ele>343</ele>
        <time>2011-02-27T13:08:49Z</time>
      </trkpt>
      <trkpt lat="43.78526" lon="5.29765">
        <ele>343</ele>
        <time>2011-02-27T13:09:00Z</time>
      </trkpt>
      <trkpt lat="43.78512" lon="5.29773">
        <ele>343</ele>
        <time>2011-02-27T13:09:10Z</time>
      </trkpt>
      <trkpt lat="43.78502" lon="5.2978">
        <ele>344</ele>
        <time>2011-02-27T13:09:20Z</time>
      </trkpt>
      <trkpt lat="43.78493" lon="5.29791">
        <ele>344</ele>
        <time>2011-02-27T13:09:30Z</time>
      </trkpt>
      <trkpt lat="43.78485" lon="5.29804">
        <ele>344</ele>
        <time>2011-02-27T13:09:41Z</time>
      </trkpt>
      <trkpt lat="43.78477" lon="5.29815">
        <ele>342</ele>
        <time>2011-02-27T13:09:51Z</time>
      </trkpt>
      <trkpt lat="43.78464" lon="5.29815">
        <ele>342</ele>
        <time>2011-02-27T13:10:01Z</time>
      </trkpt>
      <trkpt lat="43.78456" lon="5.29803">
        <ele>342</ele>
        <time>2011-02-27T13:10:12Z</time>
      </trkpt>
      <trkpt lat="43.78446" lon="5.29795">
        <ele>343</ele>
        <time>2011-02-27T13:10:22Z</time>
      </trkpt>
      <trkpt lat="43.78437" lon="5.29787">
        <ele>347</ele>
        <time>2011-02-27T13:10:33Z</time>
      </trkpt>
      <trkpt lat="43.78431" lon="5.29769">
        <ele>344</ele>
        <time>2011-02-27T13:10:44Z</time>
      </trkpt>
      <trkpt lat="43.78432" lon="5.29753">
        <ele>343</ele>
        <time>2011-02-27T13:10:54Z</time>
      </trkpt>
      <trkpt lat="43.78426" lon="5.29735">
        <ele>340</ele>
        <time>2011-02-27T13:11:04Z</time>
      </trkpt>
      <trkpt lat="43.78422" lon="5.29717">
        <ele>337</ele>
        <time>2011-02-27T13:11:15Z</time>
      </trkpt>
      <trkpt lat="43.78416" lon="5.29701">
        <ele>334</ele>
        <time>2011-02-27T13:11:25Z</time>
      </trkpt>
      <trkpt lat="43.78415" lon="5.29687">
        <ele>334</ele>
        <time>2011-02-27T13:11:36Z</time>
      </trkpt>
      <trkpt lat="43.78414" lon="5.29672">
        <ele>334</ele>
        <time>2011-02-27T13:11:46Z</time>
      </trkpt>
      <trkpt lat="43.78418" lon="5.29658">
        <ele>337</ele>
        <time>2011-02-27T13:11:57Z</time>
      </trkpt>
      <trkpt lat="43.78408" lon="5.29643">
        <ele>337</ele>
        <time>2011-02-27T13:12:07Z</time>
      </trkpt>
      <trkpt lat="43.78396" lon="5.29632">
        <ele>337</ele>
        <time>2011-02-27T13:12:17Z</time>
      </trkpt>
      <trkpt lat="43.78381" lon="5.2963">
        <ele>337</ele>
        <time>2011-02-27T13:12:27Z</time>
      </trkpt>
      <trkpt lat="43.78366" lon="5.29633">
        <ele>340</ele>
        <time>2011-02-27T13:12:37Z</time>
      </trkpt>
      <trkpt lat="43.78352" lon="5.29639">
        <ele>346</ele>
        <time>2011-02-27T13:12:47Z</time>
      </trkpt>
      <trkpt lat="43.78341" lon="5.29645">
        <ele>351</ele>
        <time>2011-02-27T13:12:59Z</time>
      </trkpt>
      <trkpt lat="43.78333" lon="5.2965">
        <ele>344</ele>
        <time>2011-02-27T13:13:09Z</time>
      </trkpt>
      <trkpt lat="43.78323" lon="5.29656">
        <ele>343</ele>
        <time>2011-02-27T13:13:19Z</time>
      </trkpt>
      <trkpt lat="43.78315" lon="5.29661">
        <ele>339</ele>
        <time>2011-02-27T13:13:29Z</time>
      </trkpt>
      <trkpt lat="43.78307" lon="5.2967">
        <ele>335</ele>
        <time>2011-02-27T13:13:40Z</time>
      </trkpt>
      <trkpt lat="43.78295" lon="5.29681">
        <ele>333</ele>
        <time>2011-02-27T13:13:51Z</time>
      </trkpt>
      <trkpt lat="43.78286" lon="5.29691">
        <ele>333</ele>
        <time>2011-02-27T13:14:02Z</time>
      </trkpt>
      <trkpt lat="43.78276" lon="5.297">
        <ele>329</ele>
        <time>2011-02-27T13:14:13Z</time>
      </trkpt>
      <trkpt lat="43.78265" lon="5.29709">
        <ele>329</ele>
        <time>2011-02-27T13:14:23Z</time>
      </trkpt>
      <trkpt lat="43.78253" lon="5.29721">
        <ele>330</ele>
        <time>2011-02-27T13:14:33Z</time>
      </trkpt>
      <trkpt lat="43.7824" lon="5.29733">
        <ele>334</ele>
        <time>2011-02-27T13:14:43Z</time>
      </trkpt>
      <trkpt lat="43.78232" lon="5.29739">
        <ele>338</ele>
        <time>2011-02-27T13:14:53Z</time>
      </trkpt>
      <trkpt lat="43.78225" lon="5.29743">
        <ele>335</ele>
        <time>2011-02-27T13:15:03Z</time>
      </trkpt>
      <trkpt lat="43.78214" lon="5.29748">
        <ele>329</ele>
        <time>2011-02-27T13:15:14Z</time>
      </trkpt>
      <trkpt lat="43.78203" lon="5.29743">
        <ele>327</ele>
        <time>2011-02-27T13:15:25Z</time>
      </trkpt>
      <trkpt lat="43.78195" lon="5.29732">
        <ele>321</ele>
        <time>2011-02-27T13:15:35Z</time>
      </trkpt>
      <trkpt lat="43.78186" lon="5.29721">
        <ele>320</ele>
        <time>2011-02-27T13:15:45Z</time>
      </trkpt>
      <trkpt lat="43.78176" lon="5.2971">
        <ele>320</ele>
        <time>2011-02-27T13:15:56Z</time>
      </trkpt>
      <trkpt lat="43.78166" lon="5.29701">
        <ele>319</ele>
        <time>2011-02-27T13:16:06Z</time>
      </trkpt>
      <trkpt lat="43.78154" lon="5.29691">
        <ele>317</ele>
        <time>2011-02-27T13:16:17Z</time>
      </trkpt>
      <trkpt lat="43.78144" lon="5.29681">
        <ele>316</ele>
        <time>2011-02-27T13:16:27Z</time>
      </trkpt>
      <trkpt lat="43.78136" lon="5.29669">
        <ele>316</ele>
        <time>2011-02-27T13:16:37Z</time>
      </trkpt>
      <trkpt lat="43.78127" lon="5.29658">
        <ele>316</ele>
        <time>2011-02-27T13:16:47Z</time>
      </trkpt>
      <trkpt lat="43.78119" lon="5.29642">
        <ele>316</ele>
        <time>2011-02-27T13:16:57Z</time>
      </trkpt>
      <trkpt lat="43.78111" lon="5.29629">
        <ele>314</ele>
        <time>2011-02-27T13:17:07Z</time>
      </trkpt>
      <trkpt lat="43.78104" lon="5.29618">
        <ele>311</ele>
        <time>2011-02-27T13:17:17Z</time>
      </trkpt>
      <trkpt lat="43.78093" lon="5.29614">
        <ele>310</ele>
        <time>2011-02-27T13:17:27Z</time>
      </trkpt>
      <trkpt lat="43.78082" lon="5.29612">
        <ele>307</ele>
        <time>2011-02-27T13:17:37Z</time>
      </trkpt>
      <trkpt lat="43.78071" lon="5.29617">
        <ele>306</ele>
        <time>2011-02-27T13:17:47Z</time>
      </trkpt>
      <trkpt lat="43.78058" lon="5.29621">
        <ele>306</ele>
        <time>2011-02-27T13:17:58Z</time>
      </trkpt>
      <trkpt lat="43.78045" lon="5.29623">
        <ele>306</ele>
        <time>2011-02-27T13:18:08Z</time>
      </trkpt>
      <trkpt lat="43.78033" lon="5.2963">
        <ele>306</ele>
        <time>2011-02-27T13:18:19Z</time>
      </trkpt>
      <trkpt lat="43.78022" lon="5.29637">
        <ele>306</ele>
        <time>2011-02-27T13:18:29Z</time>
      </trkpt>
      <trkpt lat="43.78014" lon="5.29645">
        <ele>305</ele>
        <time>2011-02-27T13:18:39Z</time>
      </trkpt>
      <trkpt lat="43.78004" lon="5.29657">
        <ele>303</ele>
        <time>2011-02-27T13:18:50Z</time>
      </trkpt>
      <trkpt lat="43.77994" lon="5.29669">
        <ele>303</ele>
        <time>2011-02-27T13:19:01Z</time>
      </trkpt>
      <trkpt lat="43.77985" lon="5.2968">
        <ele>303</ele>
        <time>2011-02-27T13:19:11Z</time>
      </trkpt>
      <trkpt lat="43.7798" lon="5.29695">
        <ele>304</ele>
        <time>2011-02-27T13:19:22Z</time>
      </trkpt>
      <trkpt lat="43.77972" lon="5.29711">
        <ele>304</ele>
        <time>2011-02-27T13:19:33Z</time>
      </trkpt>
      <trkpt lat="43.77962" lon="5.29727">
        <ele>304</ele>
        <time>2011-02-27T13:19:44Z</time>
      </trkpt>
      <trkpt lat="43.77953" lon="5.29739">
        <ele>304</ele>
        <time>2011-02-27T13:19:54Z</time>
      </trkpt>
      <trkpt lat="43.7794" lon="5.29751">
        <ele>310</ele>
        <time>2011-02-27T13:20:06Z</time>
      </trkpt>
      <trkpt lat="43.7793" lon="5.29762">
        <ele>310</ele>
        <time>2011-02-27T13:20:17Z</time>
      </trkpt>
      <trkpt lat="43.77919" lon="5.29772">
        <ele>310</ele>
        <time>2011-02-27T13:20:27Z</time>
      </trkpt>
      <trkpt lat="43.77909" lon="5.29779">
        <ele>311</ele>
        <time>2011-02-27T13:20:38Z</time>
      </trkpt>
      <trkpt lat="43.779" lon="5.29789">
        <ele>310</ele>
        <time>2011-02-27T13:20:48Z</time>
      </trkpt>
      <trkpt lat="43.7789" lon="5.29796">
        <ele>308</ele>
        <time>2011-02-27T13:20:59Z</time>
      </trkpt>
      <trkpt lat="43.77879" lon="5.29802">
        <ele>303</ele>
        <time>2011-02-27T13:21:09Z</time>
      </trkpt>
      <trkpt lat="43.77865" lon="5.29807">
        <ele>303</ele>
        <time>2011-02-27T13:21:19Z</time>
      </trkpt>
      <trkpt lat="43.77846" lon="5.29813">
        <ele>312</ele>
        <time>2011-02-27T13:21:29Z</time>
      </trkpt>
      <trkpt lat="43.77835" lon="5.29811">
        <ele>322</ele>
        <time>2011-02-27T13:21:39Z</time>
      </trkpt>
      <trkpt lat="43.77822" lon="5.29813">
        <ele>323</ele>
        <time>2011-02-27T13:21:49Z</time>
      </trkpt>
      <trkpt lat="43.77809" lon="5.29814">
        <ele>327</ele>
        <time>2011-02-27T13:21:59Z</time>
      </trkpt>
      <trkpt lat="43.77794" lon="5.29819">
        <ele>333</ele>
        <time>2011-02-27T13:22:09Z</time>
      </trkpt>
      <trkpt lat="43.77785" lon="5.29817">
        <ele>334</ele>
        <time>2011-02-27T13:22:21Z</time>
      </trkpt>
      <trkpt lat="43.77773" lon="5.29819">
        <ele>325</ele>
        <time>2011-02-27T13:22:31Z</time>
      </trkpt>
      <trkpt lat="43.77761" lon="5.29821">
        <ele>323</ele>
        <time>2011-02-27T13:22:41Z</time>
      </trkpt>
      <trkpt lat="43.7775" lon="5.29819">
        <ele>317</ele>
        <time>2011-02-27T13:22:52Z</time>
      </trkpt>
      <trkpt lat="43.77736" lon="5.29818">
        <ele>314</ele>
        <time>2011-02-27T13:23:03Z</time>
      </trkpt>
      <trkpt lat="43.7772" lon="5.29817">
        <ele>316</ele>
        <time>2011-02-27T13:23:14Z</time>
      </trkpt>
      <trkpt lat="43.7771" lon="5.2981">
        <ele>316</ele>
        <time>2011-02-27T13:23:25Z</time>
      </trkpt>
      <trkpt lat="43.77701" lon="5.29803">
        <ele>308</ele>
        <time>2011-02-27T13:23:35Z</time>
      </trkpt>
      <trkpt lat="43.77691" lon="5.29798">
        <ele>300</ele>
        <time>2011-02-27T13:23:45Z</time>
      </trkpt>
      <trkpt lat="43.77684" lon="5.29789">
        <ele>299</ele>
        <time>2011-02-27T13:23:55Z</time>
      </trkpt>
      <trkpt lat="43.77676" lon="5.29774">
        <ele>298</ele>
        <time>2011-02-27T13:24:05Z</time>
      </trkpt>
      <trkpt lat="43.77672" lon="5.29759">
        <ele>295</ele>
        <time>2011-02-27T13:24:15Z</time>
      </trkpt>
      <trkpt lat="43.7767" lon="5.29743">
        <ele>295</ele>
        <time>2011-02-27T13:24:25Z</time>
      </trkpt>
      <trkpt lat="43.77668" lon="5.29727">
        <ele>295</ele>
        <time>2011-02-27T13:24:35Z</time>
      </trkpt>
      <trkpt lat="43.77665" lon="5.29709">
        <ele>292</ele>
        <time>2011-02-27T13:24:45Z</time>
      </trkpt>
      <trkpt lat="43.77665" lon="5.29692">
        <ele>291</ele>
        <time>2011-02-27T13:24:55Z</time>
      </trkpt>
      <trkpt lat="43.77664" lon="5.29676">
        <ele>289</ele>
        <time>2011-02-27T13:25:05Z</time>
      </trkpt>
      <trkpt lat="43.77662" lon="5.29659">
        <ele>288</ele>
        <time>2011-02-27T13:25:15Z</time>
      </trkpt>
      <trkpt lat="43.77653" lon="5.29645">
        <ele>288</ele>
        <time>2011-02-27T13:25:26Z</time>
      </trkpt>
      <trkpt lat="43.77642" lon="5.2964">
        <ele>288</ele>
        <time>2011-02-27T13:25:36Z</time>
      </trkpt>
      <trkpt lat="43.77629" lon="5.29637">
        <ele>288</ele>
        <time>2011-02-27T13:25:46Z</time>
      </trkpt>
      <trkpt lat="43.77618" lon="5.29632">
        <ele>288</ele>
        <time>2011-02-27T13:25:56Z</time>
      </trkpt>
      <trkpt lat="43.77607" lon="5.29625">
        <ele>288</ele>
        <time>2011-02-27T13:26:06Z</time>
      </trkpt>
      <trkpt lat="43.77594" lon="5.29619">
        <ele>288</ele>
        <time>2011-02-27T13:26:16Z</time>
      </trkpt>
      <trkpt lat="43.77582" lon="5.29613">
        <ele>288</ele>
        <time>2011-02-27T13:26:26Z</time>
      </trkpt>
      <trkpt lat="43.77569" lon="5.29609">
        <ele>288</ele>
        <time>2011-02-27T13:26:37Z</time>
      </trkpt>
      <trkpt lat="43.77556" lon="5.29604">
        <ele>288</ele>
        <time>2011-02-27T13:26:47Z</time>
      </trkpt>
      <trkpt lat="43.77545" lon="5.29597">
        <ele>286</ele>
        <time>2011-02-27T13:26:58Z</time>
      </trkpt>
      <trkpt lat="43.77533" lon="5.2959">
        <ele>283</ele>
        <time>2011-02-27T13:27:08Z</time>
      </trkpt>
      <trkpt lat="43.77523" lon="5.29581">
        <ele>281</ele>
        <time>2011-02-27T13:27:18Z</time>
      </trkpt>
      <trkpt lat="43.77512" lon="5.29571">
        <ele>281</ele>
        <time>2011-02-27T13:27:28Z</time>
      </trkpt>
      <trkpt lat="43.77502" lon="5.29562">
        <ele>281</ele>
        <time>2011-02-27T13:27:38Z</time>
      </trkpt>
      <trkpt lat="43.77495" lon="5.29551">
        <ele>281</ele>
        <time>2011-02-27T13:27:48Z</time>
      </trkpt>
      <trkpt lat="43.77479" lon="5.29549">
        <ele>283</ele>
        <time>2011-02-27T13:27:58Z</time>
      </trkpt>
      <trkpt lat="43.77466" lon="5.29547">
        <ele>285</ele>
        <time>2011-02-27T13:28:08Z</time>
      </trkpt>
      <trkpt lat="43.77454" lon="5.29544">
        <ele>284</ele>
        <time>2011-02-27T13:28:18Z</time>
      </trkpt>
      <trkpt lat="43.77443" lon="5.29533">
        <ele>282</ele>
        <time>2011-02-27T13:28:29Z</time>
      </trkpt>
      <trkpt lat="43.77437" lon="5.29516">
        <ele>278</ele>
        <time>2011-02-27T13:28:39Z</time>
      </trkpt>
      <trkpt lat="43.77432" lon="5.29498">
        <ele>274</ele>
        <time>2011-02-27T13:28:49Z</time>
      </trkpt>
      <trkpt lat="43.77426" lon="5.29481">
        <ele>272</ele>
        <time>2011-02-27T13:29:00Z</time>
      </trkpt>
      <trkpt lat="43.77415" lon="5.29468">
        <ele>272</ele>
        <time>2011-02-27T13:29:10Z</time>
      </trkpt>
      <trkpt lat="43.77404" lon="5.29458">
        <ele>269</ele>
        <time>2011-02-27T13:29:21Z</time>
      </trkpt>
      <trkpt lat="43.77393" lon="5.29451">
        <ele>268</ele>
        <time>2011-02-27T13:29:31Z</time>
      </trkpt>
      <trkpt lat="43.77378" lon="5.29446">
        <ele>268</ele>
        <time>2011-02-27T13:29:41Z</time>
      </trkpt>
      <trkpt lat="43.77368" lon="5.29444">
        <ele>270</ele>
        <time>2011-02-27T13:29:51Z</time>
      </trkpt>
      <trkpt lat="43.77358" lon="5.29447">
        <ele>270</ele>
        <time>2011-02-27T13:30:02Z</time>
      </trkpt>
      <trkpt lat="43.77351" lon="5.29454">
        <ele>266</ele>
        <time>2011-02-27T13:30:13Z</time>
      </trkpt>
      <trkpt lat="43.77343" lon="5.29459">
        <ele>263</ele>
        <time>2011-02-27T13:30:25Z</time>
      </trkpt>
      <trkpt lat="43.77341" lon="5.29459">
        <ele>265</ele>
        <time>2011-02-27T13:30:36Z</time>
      </trkpt>
      <trkpt lat="43.77346" lon="5.29454">
        <ele>266</ele>
        <time>2011-02-27T13:30:46Z</time>
      </trkpt>
      <trkpt lat="43.77357" lon="5.29446">
        <ele>266</ele>
        <time>2011-02-27T13:30:56Z</time>
      </trkpt>
      <trkpt lat="43.77364" lon="5.29441">
        <ele>265</ele>
        <time>2011-02-27T13:31:06Z</time>
      </trkpt>
      <trkpt lat="43.7737" lon="5.29441">
        <ele>265</ele>
        <time>2011-02-27T13:31:17Z</time>
      </trkpt>
      <trkpt lat="43.7737" lon="5.29438">
        <ele>265</ele>
        <time>2011-02-27T13:31:27Z</time>
      </trkpt>
      <trkpt lat="43.77367" lon="5.29443">
        <ele>265</ele>
        <time>2011-02-27T13:31:48Z</time>
      </trkpt>
      <trkpt lat="43.77363" lon="5.29443">
        <ele>267</ele>
        <time>2011-02-27T13:31:59Z</time>
      </trkpt>
      <trkpt lat="43.77361" lon="5.29447">
        <ele>276</ele>
        <time>2011-02-27T13:32:09Z</time>
      </trkpt>
      <trkpt lat="43.77362" lon="5.29446">
        <ele>279</ele>
        <time>2011-02-27T13:32:24Z</time>
      </trkpt>
      <trkpt lat="43.77361" lon="5.29445">
        <ele>279</ele>
        <time>2011-02-27T13:32:39Z</time>
      </trkpt>
      <trkpt lat="43.77363" lon="5.29443">
        <ele>278</ele>
        <time>2011-02-27T13:32:53Z</time>
      </trkpt>
      <trkpt lat="43.77364" lon="5.29439">
        <ele>275</ele>
        <time>2011-02-27T13:33:06Z</time>
      </trkpt>
      <trkpt lat="43.77366" lon="5.29438">
        <ele>275</ele>
        <time>2011-02-27T13:33:17Z</time>
      </trkpt>
      <trkpt lat="43.77366" lon="5.2944">
        <ele>275</ele>
        <time>2011-02-27T13:33:39Z</time>
      </trkpt>
      <trkpt lat="43.77367" lon="5.2944">
        <ele>273</ele>
        <time>2011-02-27T13:33:56Z</time>
      </trkpt>
      <trkpt lat="43.77366" lon="5.29441">
        <ele>271</ele>
        <time>2011-02-27T13:34:36Z</time>
      </trkpt>
      <trkpt lat="43.77366" lon="5.2944">
        <ele>271</ele>
        <time>2011-02-27T13:34:52Z</time>
      </trkpt>
      <trkpt lat="43.77367" lon="5.29441">
        <ele>271</ele>
        <time>2011-02-27T13:35:04Z</time>
      </trkpt>
      <trkpt lat="43.77366" lon="5.29442">
        <ele>276</ele>
        <time>2011-02-27T13:35:23Z</time>
      </trkpt>
      <trkpt lat="43.77366" lon="5.2944">
        <ele>276</ele>
        <time>2011-02-27T13:35:36Z</time>
      </trkpt>
      <trkpt lat="43.77365" lon="5.29442">
        <ele>274</ele>
        <time>2011-02-27T13:36:09Z</time>
      </trkpt>
      <trkpt lat="43.77361" lon="5.29443">
        <ele>273</ele>
        <time>2011-02-27T13:36:20Z</time>
      </trkpt>
      <trkpt lat="43.77359" lon="5.29444">
        <ele>271</ele>
        <time>2011-02-27T13:36:35Z</time>
      </trkpt>
      <trkpt lat="43.7736" lon="5.29445">
        <ele>268</ele>
        <time>2011-02-27T13:37:14Z</time>
      </trkpt>
      <trkpt lat="43.77362" lon="5.29445">
        <ele>268</ele>
        <time>2011-02-27T13:37:41Z</time>
      </trkpt>
      <trkpt lat="43.77361" lon="5.29445">
        <ele>268</ele>
        <time>2011-02-27T13:37:51Z</time>
      </trkpt>
      <trkpt lat="43.77355" lon="5.29449">
        <ele>267</ele>
        <time>2011-02-27T13:38:01Z</time>
      </trkpt>
      <trkpt lat="43.77348" lon="5.29457">
        <ele>265</ele>
        <time>2011-02-27T13:38:12Z</time>
      </trkpt>
      <trkpt lat="43.77341" lon="5.29465">
        <ele>263</ele>
        <time>2011-02-27T13:38:22Z</time>
      </trkpt>
      <trkpt lat="43.77335" lon="5.29472">
        <ele>261</ele>
        <time>2011-02-27T13:38:32Z</time>
      </trkpt>
      <trkpt lat="43.77329" lon="5.29482">
        <ele>258</ele>
        <time>2011-02-27T13:38:42Z</time>
      </trkpt>
      <trkpt lat="43.77322" lon="5.29493">
        <ele>258</ele>
        <time>2011-02-27T13:38:53Z</time>
      </trkpt>
      <trkpt lat="43.77316" lon="5.29504">
        <ele>258</ele>
        <time>2011-02-27T13:39:03Z</time>
      </trkpt>
      <trkpt lat="43.77307" lon="5.29515">
        <ele>258</ele>
        <time>2011-02-27T13:39:14Z</time>
      </trkpt>
      <trkpt lat="43.77301" lon="5.29527">
        <ele>258</ele>
        <time>2011-02-27T13:39:25Z</time>
      </trkpt>
      <trkpt lat="43.77296" lon="5.29539">
        <ele>258</ele>
        <time>2011-02-27T13:39:35Z</time>
      </trkpt>
      <trkpt lat="43.77291" lon="5.29554">
        <ele>258</ele>
        <time>2011-02-27T13:39:45Z</time>
      </trkpt>
      <trkpt lat="43.77287" lon="5.29567">
        <ele>258</ele>
        <time>2011-02-27T13:39:55Z</time>
      </trkpt>
      <trkpt lat="43.7728" lon="5.29578">
        <ele>257</ele>
        <time>2011-02-27T13:40:06Z</time>
      </trkpt>
      <trkpt lat="43.77273" lon="5.2959">
        <ele>256</ele>
        <time>2011-02-27T13:40:16Z</time>
      </trkpt>
      <trkpt lat="43.77268" lon="5.29604">
        <ele>254</ele>
        <time>2011-02-27T13:40:26Z</time>
      </trkpt>
      <trkpt lat="43.77263" lon="5.29618">
        <ele>253</ele>
        <time>2011-02-27T13:40:36Z</time>
      </trkpt>
      <trkpt lat="43.77256" lon="5.29634">
        <ele>253</ele>
        <time>2011-02-27T13:40:46Z</time>
      </trkpt>
      <trkpt lat="43.77251" lon="5.29648">
        <ele>253</ele>
        <time>2011-02-27T13:40:56Z</time>
      </trkpt>
      <trkpt lat="43.77248" lon="5.29663">
        <ele>253</ele>
        <time>2011-02-27T13:41:06Z</time>
      </trkpt>
      <trkpt lat="43.77241" lon="5.29678">
        <ele>253</ele>
        <time>2011-02-27T13:41:17Z</time>
      </trkpt>
      <trkpt lat="43.77234" lon="5.29692">
        <ele>253</ele>
        <time>2011-02-27T13:41:27Z</time>
      </trkpt>
      <trkpt lat="43.77229" lon="5.29707">
        <ele>253</ele>
        <time>2011-02-27T13:41:37Z</time>
      </trkpt>
      <trkpt lat="43.77224" lon="5.29724">
        <ele>253</ele>
        <time>2011-02-27T13:41:48Z</time>
      </trkpt>
      <trkpt lat="43.7722" lon="5.29737">
        <ele>252</ele>
        <time>2011-02-27T13:41:58Z</time>
      </trkpt>
      <trkpt lat="43.77217" lon="5.29753">
        <ele>250</ele>
        <time>2011-02-27T13:42:08Z</time>
      </trkpt>
      <trkpt lat="43.77209" lon="5.29769">
        <ele>249</ele>
        <time>2011-02-27T13:42:18Z</time>
      </trkpt>
      <trkpt lat="43.77205" lon="5.29784">
        <ele>249</ele>
        <time>2011-02-27T13:42:28Z</time>
      </trkpt>
      <trkpt lat="43.77201" lon="5.29799">
        <ele>249</ele>
        <time>2011-02-27T13:42:38Z</time>
      </trkpt>
      <trkpt lat="43.77198" lon="5.29814">
        <ele>247</ele>
        <time>2011-02-27T13:42:48Z</time>
      </trkpt>
      <trkpt lat="43.77193" lon="5.29831">
        <ele>246</ele>
        <time>2011-02-27T13:42:59Z</time>
      </trkpt>
      <trkpt lat="43.7719" lon="5.29846">
        <ele>246</ele>
        <time>2011-02-27T13:43:09Z</time>
      </trkpt>
      <trkpt lat="43.77186" lon="5.29863">
        <ele>246</ele>
        <time>2011-02-27T13:43:19Z</time>
      </trkpt>
      <trkpt lat="43.77182" lon="5.29878">
        <ele>245</ele>
        <time>2011-02-27T13:43:29Z</time>
      </trkpt>
      <trkpt lat="43.77178" lon="5.29894">
        <ele>241</ele>
        <time>2011-02-27T13:43:40Z</time>
      </trkpt>
      <trkpt lat="43.77173" lon="5.2991">
        <ele>241</ele>
        <time>2011-02-27T13:43:50Z</time>
      </trkpt>
      <trkpt lat="43.77168" lon="5.29926">
        <ele>241</ele>
        <time>2011-02-27T13:44:00Z</time>
      </trkpt>
      <trkpt lat="43.77166" lon="5.29944">
        <ele>241</ele>
        <time>2011-02-27T13:44:10Z</time>
      </trkpt>
      <trkpt lat="43.77163" lon="5.29962">
        <ele>241</ele>
        <time>2011-02-27T13:44:21Z</time>
      </trkpt>
      <trkpt lat="43.77165" lon="5.29978">
        <ele>241</ele>
        <time>2011-02-27T13:44:32Z</time>
      </trkpt>
      <trkpt lat="43.77166" lon="5.29995">
        <ele>241</ele>
        <time>2011-02-27T13:44:43Z</time>
      </trkpt>
      <trkpt lat="43.77167" lon="5.30011">
        <ele>239</ele>
        <time>2011-02-27T13:44:53Z</time>
      </trkpt>
      <trkpt lat="43.7717" lon="5.30027">
        <ele>238</ele>
        <time>2011-02-27T13:45:03Z</time>
      </trkpt>
      <trkpt lat="43.77174" lon="5.30044">
        <ele>238</ele>
        <time>2011-02-27T13:45:13Z</time>
      </trkpt>
      <trkpt lat="43.77178" lon="5.30049">
        <ele>238</ele>
        <time>2011-02-27T13:45:21Z</time>
      </trkpt>
    </trkseg>
  </trk>
</gpx>